<?xml version="1.0" encoding="UTF-8" standalone="no" ?>
<gpx xmlns="http://www.topografix.com/GPX/1/1" xmlns:xsi="http://www.w3.org/2001/XMLSchema-instance" xsi:schemaLocation="http://www.topografix.com/GPX/1/1 http://www.topografix.com/GPX/1/1/gpx.xsd" version="1.1" creator="VisuGPX - https://www.visugpx.com">
  <metadata>
    <name>33km 1050m coub 2020</name>
    <desc><![CDATA[Coublevitaine 2022 33 km]]></desc>
  </metadata>
  <trk>
    <name><![CDATA[33km 1050m coub 2020]]></name>
    <trkseg>
      <trkpt lat="45.35384" lon="5.61072">
        <ele>312</ele>
        <time>2019-03-23T12:09:48Z</time>
      </trkpt>
      <trkpt lat="45.35384" lon="5.61072">
        <ele>312</ele>
        <time>2019-03-23T12:09:50Z</time>
      </trkpt>
      <trkpt lat="45.35385" lon="5.61073">
        <ele>312</ele>
        <time>2019-03-23T12:11:06Z</time>
      </trkpt>
      <trkpt lat="45.35386" lon="5.61071">
        <ele>312</ele>
        <time>2019-03-23T12:13:53Z</time>
      </trkpt>
      <trkpt lat="45.35389" lon="5.6107">
        <ele>312</ele>
        <time>2019-03-23T12:14:53Z</time>
      </trkpt>
      <trkpt lat="45.35386" lon="5.6107">
        <ele>312</ele>
        <time>2019-03-23T12:16:26Z</time>
      </trkpt>
      <trkpt lat="45.35389" lon="5.61071">
        <ele>312</ele>
        <time>2019-03-23T12:17:33Z</time>
      </trkpt>
      <trkpt lat="45.35386" lon="5.61074">
        <ele>312</ele>
        <time>2019-03-23T12:19:32Z</time>
      </trkpt>
      <trkpt lat="45.35389" lon="5.61073">
        <ele>312</ele>
        <time>2019-03-23T12:21:07Z</time>
      </trkpt>
      <trkpt lat="45.35387" lon="5.61073">
        <ele>312</ele>
        <time>2019-03-23T12:22:16Z</time>
      </trkpt>
      <trkpt lat="45.35386" lon="5.61074">
        <ele>312</ele>
        <time>2019-03-23T12:24:56Z</time>
      </trkpt>
      <trkpt lat="45.35387" lon="5.61073">
        <ele>312</ele>
        <time>2019-03-23T12:27:49Z</time>
      </trkpt>
      <trkpt lat="45.35387" lon="5.61073">
        <ele>312</ele>
        <time>2019-03-23T12:29:17Z</time>
      </trkpt>
      <trkpt lat="45.35388" lon="5.61072">
        <ele>312</ele>
        <time>2019-03-23T12:30:16Z</time>
      </trkpt>
      <trkpt lat="45.35388" lon="5.61071">
        <ele>312</ele>
        <time>2019-03-23T12:31:31Z</time>
      </trkpt>
      <trkpt lat="45.35385" lon="5.6107">
        <ele>312</ele>
        <time>2019-03-23T12:32:39Z</time>
      </trkpt>
      <trkpt lat="45.35389" lon="5.61073">
        <ele>312</ele>
        <time>2019-03-23T12:34:39Z</time>
      </trkpt>
      <trkpt lat="45.35388" lon="5.61072">
        <ele>312</ele>
        <time>2019-03-23T12:34:43Z</time>
      </trkpt>
      <trkpt lat="45.35385" lon="5.61071">
        <ele>312</ele>
        <time>2019-03-23T12:34:55Z</time>
      </trkpt>
      <trkpt lat="45.35383" lon="5.61071">
        <ele>312</ele>
        <time>2019-03-23T12:35:10Z</time>
      </trkpt>
      <trkpt lat="45.35377" lon="5.61079">
        <ele>312</ele>
        <time>2019-03-23T12:35:25Z</time>
      </trkpt>
      <trkpt lat="45.35376" lon="5.6108">
        <ele>312</ele>
        <time>2019-03-23T12:35:36Z</time>
      </trkpt>
      <trkpt lat="45.35375" lon="5.61103">
        <ele>312</ele>
        <time>2019-03-23T12:35:44Z</time>
      </trkpt>
      <trkpt lat="45.35376" lon="5.61106">
        <ele>312</ele>
        <time>2019-03-23T12:35:45Z</time>
      </trkpt>
      <trkpt lat="45.35377" lon="5.6111">
        <ele>312</ele>
        <time>2019-03-23T12:35:46Z</time>
      </trkpt>
      <trkpt lat="45.35378" lon="5.61114">
        <ele>312</ele>
        <time>2019-03-23T12:35:47Z</time>
      </trkpt>
      <trkpt lat="45.35378" lon="5.61118">
        <ele>312</ele>
        <time>2019-03-23T12:35:48Z</time>
      </trkpt>
      <trkpt lat="45.35377" lon="5.61123">
        <ele>312</ele>
        <time>2019-03-23T12:35:49Z</time>
      </trkpt>
      <trkpt lat="45.35376" lon="5.61127">
        <ele>312</ele>
        <time>2019-03-23T12:35:50Z</time>
      </trkpt>
      <trkpt lat="45.35374" lon="5.6113">
        <ele>312</ele>
        <time>2019-03-23T12:35:51Z</time>
      </trkpt>
      <trkpt lat="45.35372" lon="5.61134">
        <ele>312</ele>
        <time>2019-03-23T12:35:52Z</time>
      </trkpt>
      <trkpt lat="45.35345" lon="5.61183">
        <ele>314</ele>
        <time>2019-03-23T12:36:06Z</time>
      </trkpt>
      <trkpt lat="45.35319" lon="5.61173">
        <ele>314</ele>
        <time>2019-03-23T12:36:15Z</time>
      </trkpt>
      <trkpt lat="45.35276" lon="5.6115">
        <ele>314</ele>
        <time>2019-03-23T12:36:31Z</time>
      </trkpt>
      <trkpt lat="45.35215" lon="5.61145">
        <ele>315</ele>
        <time>2019-03-23T12:36:50Z</time>
      </trkpt>
      <trkpt lat="45.35207" lon="5.6115">
        <ele>316</ele>
        <time>2019-03-23T12:36:53Z</time>
      </trkpt>
      <trkpt lat="45.35206" lon="5.61154">
        <ele>316</ele>
        <time>2019-03-23T12:36:54Z</time>
      </trkpt>
      <trkpt lat="45.35212" lon="5.6122">
        <ele>316</ele>
        <time>2019-03-23T12:37:08Z</time>
      </trkpt>
      <trkpt lat="45.35213" lon="5.61298">
        <ele>318</ele>
        <time>2019-03-23T12:37:26Z</time>
      </trkpt>
      <trkpt lat="45.35217" lon="5.6134">
        <ele>321</ele>
        <time>2019-03-23T12:37:40Z</time>
      </trkpt>
      <trkpt lat="45.3522" lon="5.61376">
        <ele>324</ele>
        <time>2019-03-23T12:37:54Z</time>
      </trkpt>
      <trkpt lat="45.35222" lon="5.61405">
        <ele>327</ele>
        <time>2019-03-23T12:38:07Z</time>
      </trkpt>
      <trkpt lat="45.35218" lon="5.61432">
        <ele>330</ele>
        <time>2019-03-23T12:38:20Z</time>
      </trkpt>
      <trkpt lat="45.35217" lon="5.61434">
        <ele>331</ele>
        <time>2019-03-23T12:38:21Z</time>
      </trkpt>
      <trkpt lat="45.35212" lon="5.61465">
        <ele>334</ele>
        <time>2019-03-23T12:38:36Z</time>
      </trkpt>
      <trkpt lat="45.35203" lon="5.61511">
        <ele>337</ele>
        <time>2019-03-23T12:38:54Z</time>
      </trkpt>
      <trkpt lat="45.35183" lon="5.6157">
        <ele>338</ele>
        <time>2019-03-23T12:39:15Z</time>
      </trkpt>
      <trkpt lat="45.35158" lon="5.616">
        <ele>340</ele>
        <time>2019-03-23T12:39:29Z</time>
      </trkpt>
      <trkpt lat="45.35145" lon="5.61617">
        <ele>341</ele>
        <time>2019-03-23T12:39:37Z</time>
      </trkpt>
      <trkpt lat="45.35146" lon="5.6162">
        <ele>341</ele>
        <time>2019-03-23T12:39:38Z</time>
      </trkpt>
      <trkpt lat="45.35146" lon="5.61622">
        <ele>341</ele>
        <time>2019-03-23T12:39:39Z</time>
      </trkpt>
      <trkpt lat="45.35147" lon="5.61625">
        <ele>342</ele>
        <time>2019-03-23T12:39:40Z</time>
      </trkpt>
      <trkpt lat="45.35152" lon="5.6163">
        <ele>342</ele>
        <time>2019-03-23T12:39:43Z</time>
      </trkpt>
      <trkpt lat="45.35178" lon="5.61666">
        <ele>343</ele>
        <time>2019-03-23T12:39:59Z</time>
      </trkpt>
      <trkpt lat="45.35203" lon="5.61697">
        <ele>344</ele>
        <time>2019-03-23T12:40:14Z</time>
      </trkpt>
      <trkpt lat="45.35231" lon="5.61737">
        <ele>344</ele>
        <time>2019-03-23T12:40:28Z</time>
      </trkpt>
      <trkpt lat="45.35252" lon="5.61766">
        <ele>346</ele>
        <time>2019-03-23T12:40:42Z</time>
      </trkpt>
      <trkpt lat="45.35282" lon="5.61809">
        <ele>348</ele>
        <time>2019-03-23T12:41:01Z</time>
      </trkpt>
      <trkpt lat="45.35287" lon="5.61842">
        <ele>349</ele>
        <time>2019-03-23T12:41:12Z</time>
      </trkpt>
      <trkpt lat="45.35285" lon="5.61887">
        <ele>352</ele>
        <time>2019-03-23T12:41:27Z</time>
      </trkpt>
      <trkpt lat="45.35278" lon="5.61889">
        <ele>352</ele>
        <time>2019-03-23T12:41:32Z</time>
      </trkpt>
      <trkpt lat="45.35259" lon="5.61904">
        <ele>356</ele>
        <time>2019-03-23T12:41:49Z</time>
      </trkpt>
      <trkpt lat="45.35245" lon="5.6192">
        <ele>357</ele>
        <time>2019-03-23T12:42:02Z</time>
      </trkpt>
      <trkpt lat="45.35238" lon="5.61926">
        <ele>358</ele>
        <time>2019-03-23T12:42:08Z</time>
      </trkpt>
      <trkpt lat="45.35233" lon="5.61932">
        <ele>359</ele>
        <time>2019-03-23T12:42:13Z</time>
      </trkpt>
      <trkpt lat="45.35217" lon="5.61944">
        <ele>362</ele>
        <time>2019-03-23T12:42:27Z</time>
      </trkpt>
      <trkpt lat="45.35197" lon="5.61955">
        <ele>364</ele>
        <time>2019-03-23T12:42:42Z</time>
      </trkpt>
      <trkpt lat="45.35181" lon="5.61965">
        <ele>367</ele>
        <time>2019-03-23T12:42:55Z</time>
      </trkpt>
      <trkpt lat="45.35177" lon="5.61969">
        <ele>368</ele>
        <time>2019-03-23T12:42:58Z</time>
      </trkpt>
      <trkpt lat="45.35166" lon="5.6199">
        <ele>371</ele>
        <time>2019-03-23T12:43:12Z</time>
      </trkpt>
      <trkpt lat="45.35153" lon="5.62008">
        <ele>373</ele>
        <time>2019-03-23T12:43:27Z</time>
      </trkpt>
      <trkpt lat="45.35136" lon="5.62027">
        <ele>375</ele>
        <time>2019-03-23T12:43:42Z</time>
      </trkpt>
      <trkpt lat="45.35117" lon="5.62044">
        <ele>377</ele>
        <time>2019-03-23T12:43:57Z</time>
      </trkpt>
      <trkpt lat="45.35094" lon="5.62063">
        <ele>378</ele>
        <time>2019-03-23T12:44:11Z</time>
      </trkpt>
      <trkpt lat="45.35086" lon="5.62086">
        <ele>378</ele>
        <time>2019-03-23T12:44:20Z</time>
      </trkpt>
      <trkpt lat="45.35086" lon="5.62124">
        <ele>381</ele>
        <time>2019-03-23T12:44:35Z</time>
      </trkpt>
      <trkpt lat="45.35055" lon="5.62143">
        <ele>381</ele>
        <time>2019-03-23T12:44:48Z</time>
      </trkpt>
      <trkpt lat="45.35046" lon="5.62148">
        <ele>382</ele>
        <time>2019-03-23T12:44:51Z</time>
      </trkpt>
      <trkpt lat="45.35048" lon="5.62164">
        <ele>382</ele>
        <time>2019-03-23T12:44:57Z</time>
      </trkpt>
      <trkpt lat="45.35056" lon="5.62218">
        <ele>382</ele>
        <time>2019-03-23T12:45:08Z</time>
      </trkpt>
      <trkpt lat="45.35065" lon="5.62274">
        <ele>381</ele>
        <time>2019-03-23T12:45:18Z</time>
      </trkpt>
      <trkpt lat="45.35065" lon="5.62276">
        <ele>381</ele>
        <time>2019-03-23T12:45:19Z</time>
      </trkpt>
      <trkpt lat="45.35056" lon="5.62279">
        <ele>383</ele>
        <time>2019-03-23T12:45:33Z</time>
      </trkpt>
      <trkpt lat="45.35055" lon="5.62279">
        <ele>383</ele>
        <time>2019-03-23T12:45:37Z</time>
      </trkpt>
      <trkpt lat="45.35048" lon="5.62282">
        <ele>383</ele>
        <time>2019-03-23T12:45:41Z</time>
      </trkpt>
      <trkpt lat="45.35028" lon="5.62312">
        <ele>385</ele>
        <time>2019-03-23T12:45:56Z</time>
      </trkpt>
      <trkpt lat="45.35007" lon="5.62323">
        <ele>387</ele>
        <time>2019-03-23T12:46:08Z</time>
      </trkpt>
      <trkpt lat="45.34988" lon="5.62291">
        <ele>390</ele>
        <time>2019-03-23T12:46:21Z</time>
      </trkpt>
      <trkpt lat="45.34958" lon="5.62285">
        <ele>392</ele>
        <time>2019-03-23T12:46:36Z</time>
      </trkpt>
      <trkpt lat="45.34941" lon="5.62314">
        <ele>394</ele>
        <time>2019-03-23T12:46:51Z</time>
      </trkpt>
      <trkpt lat="45.34943" lon="5.62315">
        <ele>394</ele>
        <time>2019-03-23T12:46:52Z</time>
      </trkpt>
      <trkpt lat="45.34945" lon="5.62316">
        <ele>395</ele>
        <time>2019-03-23T12:46:53Z</time>
      </trkpt>
      <trkpt lat="45.34947" lon="5.62316">
        <ele>395</ele>
        <time>2019-03-23T12:46:54Z</time>
      </trkpt>
      <trkpt lat="45.34949" lon="5.62316">
        <ele>395</ele>
        <time>2019-03-23T12:46:55Z</time>
      </trkpt>
      <trkpt lat="45.34951" lon="5.62316">
        <ele>395</ele>
        <time>2019-03-23T12:46:56Z</time>
      </trkpt>
      <trkpt lat="45.34953" lon="5.62316">
        <ele>395</ele>
        <time>2019-03-23T12:46:57Z</time>
      </trkpt>
      <trkpt lat="45.34956" lon="5.62317">
        <ele>396</ele>
        <time>2019-03-23T12:46:58Z</time>
      </trkpt>
      <trkpt lat="45.34985" lon="5.62338">
        <ele>395</ele>
        <time>2019-03-23T12:47:09Z</time>
      </trkpt>
      <trkpt lat="45.34988" lon="5.62344">
        <ele>395</ele>
        <time>2019-03-23T12:47:10Z</time>
      </trkpt>
      <trkpt lat="45.34992" lon="5.6235">
        <ele>395</ele>
        <time>2019-03-23T12:47:11Z</time>
      </trkpt>
      <trkpt lat="45.34995" lon="5.62355">
        <ele>394</ele>
        <time>2019-03-23T12:47:12Z</time>
      </trkpt>
      <trkpt lat="45.34999" lon="5.6236">
        <ele>394</ele>
        <time>2019-03-23T12:47:13Z</time>
      </trkpt>
      <trkpt lat="45.35007" lon="5.62368">
        <ele>394</ele>
        <time>2019-03-23T12:47:15Z</time>
      </trkpt>
      <trkpt lat="45.35037" lon="5.62368">
        <ele>394</ele>
        <time>2019-03-23T12:47:25Z</time>
      </trkpt>
      <trkpt lat="45.35071" lon="5.6235">
        <ele>397</ele>
        <time>2019-03-23T12:47:38Z</time>
      </trkpt>
      <trkpt lat="45.35103" lon="5.62369">
        <ele>400</ele>
        <time>2019-03-23T12:47:54Z</time>
      </trkpt>
      <trkpt lat="45.35123" lon="5.62399">
        <ele>403</ele>
        <time>2019-03-23T12:48:09Z</time>
      </trkpt>
      <trkpt lat="45.35158" lon="5.62434">
        <ele>406</ele>
        <time>2019-03-23T12:48:29Z</time>
      </trkpt>
      <trkpt lat="45.35187" lon="5.62461">
        <ele>410</ele>
        <time>2019-03-23T12:48:47Z</time>
      </trkpt>
      <trkpt lat="45.35216" lon="5.62503">
        <ele>412</ele>
        <time>2019-03-23T12:49:06Z</time>
      </trkpt>
      <trkpt lat="45.35239" lon="5.62527">
        <ele>415</ele>
        <time>2019-03-23T12:49:19Z</time>
      </trkpt>
      <trkpt lat="45.35277" lon="5.6256">
        <ele>416</ele>
        <time>2019-03-23T12:49:36Z</time>
      </trkpt>
      <trkpt lat="45.35308" lon="5.62597">
        <ele>419</ele>
        <time>2019-03-23T12:49:53Z</time>
      </trkpt>
      <trkpt lat="45.35361" lon="5.62623">
        <ele>421</ele>
        <time>2019-03-23T12:50:12Z</time>
      </trkpt>
      <trkpt lat="45.35451" lon="5.62653">
        <ele>422</ele>
        <time>2019-03-23T12:50:38Z</time>
      </trkpt>
      <trkpt lat="45.35515" lon="5.62673">
        <ele>422</ele>
        <time>2019-03-23T12:50:56Z</time>
      </trkpt>
      <trkpt lat="45.35554" lon="5.62673">
        <ele>421</ele>
        <time>2019-03-23T12:51:03Z</time>
      </trkpt>
      <trkpt lat="45.35561" lon="5.62671">
        <ele>420</ele>
        <time>2019-03-23T12:51:04Z</time>
      </trkpt>
      <trkpt lat="45.35568" lon="5.6267">
        <ele>420</ele>
        <time>2019-03-23T12:51:05Z</time>
      </trkpt>
      <trkpt lat="45.35576" lon="5.6267">
        <ele>419</ele>
        <time>2019-03-23T12:51:06Z</time>
      </trkpt>
      <trkpt lat="45.35584" lon="5.6267">
        <ele>418</ele>
        <time>2019-03-23T12:51:07Z</time>
      </trkpt>
      <trkpt lat="45.35636" lon="5.62677">
        <ele>415</ele>
        <time>2019-03-23T12:51:14Z</time>
      </trkpt>
      <trkpt lat="45.35715" lon="5.62691">
        <ele>414</ele>
        <time>2019-03-23T12:51:28Z</time>
      </trkpt>
      <trkpt lat="45.35791" lon="5.6267">
        <ele>413</ele>
        <time>2019-03-23T12:51:42Z</time>
      </trkpt>
      <trkpt lat="45.35834" lon="5.62644">
        <ele>412</ele>
        <time>2019-03-23T12:51:50Z</time>
      </trkpt>
      <trkpt lat="45.3584" lon="5.62642">
        <ele>412</ele>
        <time>2019-03-23T12:51:51Z</time>
      </trkpt>
      <trkpt lat="45.35911" lon="5.62631">
        <ele>414</ele>
        <time>2019-03-23T12:52:06Z</time>
      </trkpt>
      <trkpt lat="45.35965" lon="5.62626">
        <ele>416</ele>
        <time>2019-03-23T12:52:23Z</time>
      </trkpt>
      <trkpt lat="45.35989" lon="5.62658">
        <ele>420</ele>
        <time>2019-03-23T12:52:37Z</time>
      </trkpt>
      <trkpt lat="45.36013" lon="5.62704">
        <ele>422</ele>
        <time>2019-03-23T12:52:54Z</time>
      </trkpt>
      <trkpt lat="45.36012" lon="5.62708">
        <ele>422</ele>
        <time>2019-03-23T12:52:55Z</time>
      </trkpt>
      <trkpt lat="45.35998" lon="5.62772">
        <ele>423</ele>
        <time>2019-03-23T12:53:11Z</time>
      </trkpt>
      <trkpt lat="45.35982" lon="5.62853">
        <ele>424</ele>
        <time>2019-03-23T12:53:31Z</time>
      </trkpt>
      <trkpt lat="45.35971" lon="5.62919">
        <ele>427</ele>
        <time>2019-03-23T12:53:50Z</time>
      </trkpt>
      <trkpt lat="45.35962" lon="5.62953">
        <ele>429</ele>
        <time>2019-03-23T12:54:03Z</time>
      </trkpt>
      <trkpt lat="45.3596" lon="5.62953">
        <ele>429</ele>
        <time>2019-03-23T12:54:04Z</time>
      </trkpt>
      <trkpt lat="45.35958" lon="5.62952">
        <ele>429</ele>
        <time>2019-03-23T12:54:05Z</time>
      </trkpt>
      <trkpt lat="45.35956" lon="5.62951">
        <ele>429</ele>
        <time>2019-03-23T12:54:06Z</time>
      </trkpt>
      <trkpt lat="45.35953" lon="5.62949">
        <ele>429</ele>
        <time>2019-03-23T12:54:07Z</time>
      </trkpt>
      <trkpt lat="45.35951" lon="5.62948">
        <ele>429</ele>
        <time>2019-03-23T12:54:08Z</time>
      </trkpt>
      <trkpt lat="45.35915" lon="5.62932">
        <ele>430</ele>
        <time>2019-03-23T12:54:22Z</time>
      </trkpt>
      <trkpt lat="45.35911" lon="5.6293">
        <ele>429</ele>
        <time>2019-03-23T12:54:23Z</time>
      </trkpt>
      <trkpt lat="45.35908" lon="5.62928">
        <ele>429</ele>
        <time>2019-03-23T12:54:24Z</time>
      </trkpt>
      <trkpt lat="45.35904" lon="5.62927">
        <ele>429</ele>
        <time>2019-03-23T12:54:25Z</time>
      </trkpt>
      <trkpt lat="45.35901" lon="5.62926">
        <ele>429</ele>
        <time>2019-03-23T12:54:26Z</time>
      </trkpt>
      <trkpt lat="45.35897" lon="5.62925">
        <ele>429</ele>
        <time>2019-03-23T12:54:27Z</time>
      </trkpt>
      <trkpt lat="45.35893" lon="5.62924">
        <ele>428</ele>
        <time>2019-03-23T12:54:28Z</time>
      </trkpt>
      <trkpt lat="45.3585" lon="5.62922">
        <ele>428</ele>
        <time>2019-03-23T12:54:41Z</time>
      </trkpt>
      <trkpt lat="45.35823" lon="5.62929">
        <ele>430</ele>
        <time>2019-03-23T12:54:53Z</time>
      </trkpt>
      <trkpt lat="45.35793" lon="5.62937">
        <ele>432</ele>
        <time>2019-03-23T12:55:05Z</time>
      </trkpt>
      <trkpt lat="45.35747" lon="5.62947">
        <ele>434</ele>
        <time>2019-03-23T12:55:21Z</time>
      </trkpt>
      <trkpt lat="45.35711" lon="5.62958">
        <ele>435</ele>
        <time>2019-03-23T12:55:35Z</time>
      </trkpt>
      <trkpt lat="45.35691" lon="5.62972">
        <ele>439</ele>
        <time>2019-03-23T12:55:47Z</time>
      </trkpt>
      <trkpt lat="45.35678" lon="5.62985">
        <ele>442</ele>
        <time>2019-03-23T12:55:57Z</time>
      </trkpt>
      <trkpt lat="45.35661" lon="5.6301">
        <ele>445</ele>
        <time>2019-03-23T12:56:10Z</time>
      </trkpt>
      <trkpt lat="45.35644" lon="5.63041">
        <ele>448</ele>
        <time>2019-03-23T12:56:27Z</time>
      </trkpt>
      <trkpt lat="45.35643" lon="5.63046">
        <ele>449</ele>
        <time>2019-03-23T12:56:30Z</time>
      </trkpt>
      <trkpt lat="45.35643" lon="5.63048">
        <ele>449</ele>
        <time>2019-03-23T12:56:31Z</time>
      </trkpt>
      <trkpt lat="45.35642" lon="5.63049">
        <ele>449</ele>
        <time>2019-03-23T12:56:32Z</time>
      </trkpt>
      <trkpt lat="45.35641" lon="5.63051">
        <ele>449</ele>
        <time>2019-03-23T12:56:33Z</time>
      </trkpt>
      <trkpt lat="45.35641" lon="5.63053">
        <ele>449</ele>
        <time>2019-03-23T12:56:34Z</time>
      </trkpt>
      <trkpt lat="45.3564" lon="5.63055">
        <ele>449</ele>
        <time>2019-03-23T12:56:35Z</time>
      </trkpt>
      <trkpt lat="45.35635" lon="5.63075">
        <ele>452</ele>
        <time>2019-03-23T12:56:48Z</time>
      </trkpt>
      <trkpt lat="45.35625" lon="5.63088">
        <ele>455</ele>
        <time>2019-03-23T12:57:01Z</time>
      </trkpt>
      <trkpt lat="45.35608" lon="5.63102">
        <ele>458</ele>
        <time>2019-03-23T12:57:17Z</time>
      </trkpt>
      <trkpt lat="45.35595" lon="5.6312">
        <ele>460</ele>
        <time>2019-03-23T12:57:29Z</time>
      </trkpt>
      <trkpt lat="45.35589" lon="5.63125">
        <ele>461</ele>
        <time>2019-03-23T12:57:33Z</time>
      </trkpt>
      <trkpt lat="45.35587" lon="5.63124">
        <ele>461</ele>
        <time>2019-03-23T12:57:34Z</time>
      </trkpt>
      <trkpt lat="45.35585" lon="5.63124">
        <ele>461</ele>
        <time>2019-03-23T12:57:35Z</time>
      </trkpt>
      <trkpt lat="45.35584" lon="5.63122">
        <ele>461</ele>
        <time>2019-03-23T12:57:36Z</time>
      </trkpt>
      <trkpt lat="45.35582" lon="5.6312">
        <ele>461</ele>
        <time>2019-03-23T12:57:37Z</time>
      </trkpt>
      <trkpt lat="45.3558" lon="5.63118">
        <ele>461</ele>
        <time>2019-03-23T12:57:38Z</time>
      </trkpt>
      <trkpt lat="45.35578" lon="5.63117">
        <ele>461</ele>
        <time>2019-03-23T12:57:39Z</time>
      </trkpt>
      <trkpt lat="45.35576" lon="5.63115">
        <ele>461</ele>
        <time>2019-03-23T12:57:40Z</time>
      </trkpt>
      <trkpt lat="45.35545" lon="5.63093">
        <ele>462</ele>
        <time>2019-03-23T12:57:53Z</time>
      </trkpt>
      <trkpt lat="45.35502" lon="5.63062">
        <ele>465</ele>
        <time>2019-03-23T12:58:12Z</time>
      </trkpt>
      <trkpt lat="45.355" lon="5.63063">
        <ele>465</ele>
        <time>2019-03-23T12:58:13Z</time>
      </trkpt>
      <trkpt lat="45.35468" lon="5.63085">
        <ele>467</ele>
        <time>2019-03-23T12:58:31Z</time>
      </trkpt>
      <trkpt lat="45.35442" lon="5.63093">
        <ele>470</ele>
        <time>2019-03-23T12:58:47Z</time>
      </trkpt>
      <trkpt lat="45.35414" lon="5.63093">
        <ele>473</ele>
        <time>2019-03-23T12:59:03Z</time>
      </trkpt>
      <trkpt lat="45.35386" lon="5.63087">
        <ele>477</ele>
        <time>2019-03-23T12:59:20Z</time>
      </trkpt>
      <trkpt lat="45.3536" lon="5.63073">
        <ele>480</ele>
        <time>2019-03-23T12:59:37Z</time>
      </trkpt>
      <trkpt lat="45.35337" lon="5.63063">
        <ele>483</ele>
        <time>2019-03-23T12:59:52Z</time>
      </trkpt>
      <trkpt lat="45.35318" lon="5.63055">
        <ele>484</ele>
        <time>2019-03-23T13:00:03Z</time>
      </trkpt>
      <trkpt lat="45.35305" lon="5.63052">
        <ele>484</ele>
        <time>2019-03-23T13:00:11Z</time>
      </trkpt>
      <trkpt lat="45.35285" lon="5.63054">
        <ele>485</ele>
        <time>2019-03-23T13:00:21Z</time>
      </trkpt>
      <trkpt lat="45.35279" lon="5.63056">
        <ele>486</ele>
        <time>2019-03-23T13:00:25Z</time>
      </trkpt>
      <trkpt lat="45.35259" lon="5.6306">
        <ele>488</ele>
        <time>2019-03-23T13:00:37Z</time>
      </trkpt>
      <trkpt lat="45.35252" lon="5.6306">
        <ele>488</ele>
        <time>2019-03-23T13:00:41Z</time>
      </trkpt>
      <trkpt lat="45.35232" lon="5.63066">
        <ele>490</ele>
        <time>2019-03-23T13:00:54Z</time>
      </trkpt>
      <trkpt lat="45.35226" lon="5.6307">
        <ele>491</ele>
        <time>2019-03-23T13:00:58Z</time>
      </trkpt>
      <trkpt lat="45.35209" lon="5.63088">
        <ele>494</ele>
        <time>2019-03-23T13:01:11Z</time>
      </trkpt>
      <trkpt lat="45.35195" lon="5.63099">
        <ele>497</ele>
        <time>2019-03-23T13:01:24Z</time>
      </trkpt>
      <trkpt lat="45.35178" lon="5.63104">
        <ele>500</ele>
        <time>2019-03-23T13:01:38Z</time>
      </trkpt>
      <trkpt lat="45.35171" lon="5.63104">
        <ele>500</ele>
        <time>2019-03-23T13:01:42Z</time>
      </trkpt>
      <trkpt lat="45.35155" lon="5.63101">
        <ele>502</ele>
        <time>2019-03-23T13:01:52Z</time>
      </trkpt>
      <trkpt lat="45.35127" lon="5.631">
        <ele>505</ele>
        <time>2019-03-23T13:02:08Z</time>
      </trkpt>
      <trkpt lat="45.35125" lon="5.631">
        <ele>505</ele>
        <time>2019-03-23T13:02:09Z</time>
      </trkpt>
      <trkpt lat="45.35096" lon="5.63105">
        <ele>507</ele>
        <time>2019-03-23T13:02:22Z</time>
      </trkpt>
      <trkpt lat="45.35083" lon="5.63108">
        <ele>508</ele>
        <time>2019-03-23T13:02:29Z</time>
      </trkpt>
      <trkpt lat="45.35078" lon="5.63111">
        <ele>508</ele>
        <time>2019-03-23T13:02:32Z</time>
      </trkpt>
      <trkpt lat="45.35068" lon="5.63116">
        <ele>509</ele>
        <time>2019-03-23T13:02:38Z</time>
      </trkpt>
      <trkpt lat="45.35043" lon="5.63125">
        <ele>511</ele>
        <time>2019-03-23T13:02:52Z</time>
      </trkpt>
      <trkpt lat="45.35033" lon="5.63129">
        <ele>512</ele>
        <time>2019-03-23T13:02:59Z</time>
      </trkpt>
      <trkpt lat="45.35018" lon="5.63141">
        <ele>514</ele>
        <time>2019-03-23T13:03:12Z</time>
      </trkpt>
      <trkpt lat="45.35" lon="5.63151">
        <ele>517</ele>
        <time>2019-03-23T13:03:25Z</time>
      </trkpt>
      <trkpt lat="45.34983" lon="5.63162">
        <ele>519</ele>
        <time>2019-03-23T13:03:38Z</time>
      </trkpt>
      <trkpt lat="45.34964" lon="5.63174">
        <ele>522</ele>
        <time>2019-03-23T13:03:53Z</time>
      </trkpt>
      <trkpt lat="45.34945" lon="5.63188">
        <ele>525</ele>
        <time>2019-03-23T13:04:09Z</time>
      </trkpt>
      <trkpt lat="45.34928" lon="5.632">
        <ele>528</ele>
        <time>2019-03-23T13:04:23Z</time>
      </trkpt>
      <trkpt lat="45.34909" lon="5.63212">
        <ele>530</ele>
        <time>2019-03-23T13:04:38Z</time>
      </trkpt>
      <trkpt lat="45.3489" lon="5.63227">
        <ele>534</ele>
        <time>2019-03-23T13:04:54Z</time>
      </trkpt>
      <trkpt lat="45.3488" lon="5.63237">
        <ele>537</ele>
        <time>2019-03-23T13:05:06Z</time>
      </trkpt>
      <trkpt lat="45.34869" lon="5.63247">
        <ele>540</ele>
        <time>2019-03-23T13:05:19Z</time>
      </trkpt>
      <trkpt lat="45.34852" lon="5.63259">
        <ele>542</ele>
        <time>2019-03-23T13:05:32Z</time>
      </trkpt>
      <trkpt lat="45.34844" lon="5.63278">
        <ele>545</ele>
        <time>2019-03-23T13:05:48Z</time>
      </trkpt>
      <trkpt lat="45.34837" lon="5.63285">
        <ele>546</ele>
        <time>2019-03-23T13:05:56Z</time>
      </trkpt>
      <trkpt lat="45.34821" lon="5.63292">
        <ele>548</ele>
        <time>2019-03-23T13:06:11Z</time>
      </trkpt>
      <trkpt lat="45.3482" lon="5.63294">
        <ele>548</ele>
        <time>2019-03-23T13:06:12Z</time>
      </trkpt>
      <trkpt lat="45.3482" lon="5.63299">
        <ele>548</ele>
        <time>2019-03-23T13:06:28Z</time>
      </trkpt>
      <trkpt lat="45.34821" lon="5.63297">
        <ele>549</ele>
        <time>2019-03-23T13:06:58Z</time>
      </trkpt>
      <trkpt lat="45.34821" lon="5.63295">
        <ele>543</ele>
        <time>2019-03-23T13:07:20Z</time>
      </trkpt>
      <trkpt lat="45.34821" lon="5.63295">
        <ele>546</ele>
        <time>2019-03-23T13:07:21Z</time>
      </trkpt>
      <trkpt lat="45.3482" lon="5.63297">
        <ele>549</ele>
        <time>2019-03-23T13:07:46Z</time>
      </trkpt>
      <trkpt lat="45.34818" lon="5.63297">
        <ele>549</ele>
        <time>2019-03-23T13:08:27Z</time>
      </trkpt>
      <trkpt lat="45.34818" lon="5.63296">
        <ele>549</ele>
        <time>2019-03-23T13:09:21Z</time>
      </trkpt>
      <trkpt lat="45.34819" lon="5.63298">
        <ele>549</ele>
        <time>2019-03-23T13:10:21Z</time>
      </trkpt>
      <trkpt lat="45.34818" lon="5.63298">
        <ele>549</ele>
        <time>2019-03-23T13:10:43Z</time>
      </trkpt>
      <trkpt lat="45.34818" lon="5.63301">
        <ele>549</ele>
        <time>2019-03-23T13:11:02Z</time>
      </trkpt>
      <trkpt lat="45.34826" lon="5.63303">
        <ele>549</ele>
        <time>2019-03-23T13:11:07Z</time>
      </trkpt>
      <trkpt lat="45.34854" lon="5.63301">
        <ele>549</ele>
        <time>2019-03-23T13:11:19Z</time>
      </trkpt>
      <trkpt lat="45.3489" lon="5.63297">
        <ele>548</ele>
        <time>2019-03-23T13:11:30Z</time>
      </trkpt>
      <trkpt lat="45.349" lon="5.63297">
        <ele>547</ele>
        <time>2019-03-23T13:11:32Z</time>
      </trkpt>
      <trkpt lat="45.34924" lon="5.63291">
        <ele>546</ele>
        <time>2019-03-23T13:11:36Z</time>
      </trkpt>
      <trkpt lat="45.34957" lon="5.63289">
        <ele>545</ele>
        <time>2019-03-23T13:11:42Z</time>
      </trkpt>
      <trkpt lat="45.34977" lon="5.63302">
        <ele>545</ele>
        <time>2019-03-23T13:11:46Z</time>
      </trkpt>
      <trkpt lat="45.35" lon="5.63325">
        <ele>545</ele>
        <time>2019-03-23T13:11:53Z</time>
      </trkpt>
      <trkpt lat="45.35041" lon="5.63355">
        <ele>543</ele>
        <time>2019-03-23T13:12:00Z</time>
      </trkpt>
      <trkpt lat="45.35058" lon="5.63364">
        <ele>542</ele>
        <time>2019-03-23T13:12:03Z</time>
      </trkpt>
      <trkpt lat="45.35093" lon="5.6339">
        <ele>542</ele>
        <time>2019-03-23T13:12:12Z</time>
      </trkpt>
      <trkpt lat="45.35138" lon="5.63408">
        <ele>541</ele>
        <time>2019-03-23T13:12:21Z</time>
      </trkpt>
      <trkpt lat="45.35162" lon="5.63415">
        <ele>540</ele>
        <time>2019-03-23T13:12:25Z</time>
      </trkpt>
      <trkpt lat="45.35211" lon="5.63442">
        <ele>539</ele>
        <time>2019-03-23T13:12:33Z</time>
      </trkpt>
      <trkpt lat="45.35269" lon="5.63464">
        <ele>538</ele>
        <time>2019-03-23T13:12:46Z</time>
      </trkpt>
      <trkpt lat="45.35278" lon="5.63468">
        <ele>537</ele>
        <time>2019-03-23T13:12:48Z</time>
      </trkpt>
      <trkpt lat="45.35308" lon="5.63481">
        <ele>536</ele>
        <time>2019-03-23T13:12:54Z</time>
      </trkpt>
      <trkpt lat="45.35331" lon="5.63495">
        <ele>536</ele>
        <time>2019-03-23T13:12:59Z</time>
      </trkpt>
      <trkpt lat="45.35351" lon="5.63508">
        <ele>535</ele>
        <time>2019-03-23T13:13:03Z</time>
      </trkpt>
      <trkpt lat="45.35369" lon="5.63532">
        <ele>534</ele>
        <time>2019-03-23T13:13:08Z</time>
      </trkpt>
      <trkpt lat="45.35407" lon="5.6355">
        <ele>533</ele>
        <time>2019-03-23T13:13:16Z</time>
      </trkpt>
      <trkpt lat="45.35439" lon="5.63551">
        <ele>531</ele>
        <time>2019-03-23T13:13:22Z</time>
      </trkpt>
      <trkpt lat="45.35455" lon="5.63553">
        <ele>530</ele>
        <time>2019-03-23T13:13:25Z</time>
      </trkpt>
      <trkpt lat="45.35476" lon="5.63569">
        <ele>529</ele>
        <time>2019-03-23T13:13:30Z</time>
      </trkpt>
      <trkpt lat="45.35508" lon="5.63584">
        <ele>529</ele>
        <time>2019-03-23T13:13:37Z</time>
      </trkpt>
      <trkpt lat="45.35556" lon="5.63616">
        <ele>527</ele>
        <time>2019-03-23T13:13:47Z</time>
      </trkpt>
      <trkpt lat="45.3558" lon="5.63632">
        <ele>526</ele>
        <time>2019-03-23T13:13:53Z</time>
      </trkpt>
      <trkpt lat="45.35601" lon="5.6365">
        <ele>527</ele>
        <time>2019-03-23T13:14:01Z</time>
      </trkpt>
      <trkpt lat="45.35612" lon="5.63668">
        <ele>530</ele>
        <time>2019-03-23T13:14:09Z</time>
      </trkpt>
      <trkpt lat="45.35621" lon="5.63682">
        <ele>532</ele>
        <time>2019-03-23T13:14:15Z</time>
      </trkpt>
      <trkpt lat="45.35629" lon="5.63688">
        <ele>532</ele>
        <time>2019-03-23T13:14:19Z</time>
      </trkpt>
      <trkpt lat="45.35655" lon="5.63712">
        <ele>532</ele>
        <time>2019-03-23T13:14:29Z</time>
      </trkpt>
      <trkpt lat="45.35666" lon="5.63726">
        <ele>532</ele>
        <time>2019-03-23T13:14:33Z</time>
      </trkpt>
      <trkpt lat="45.35679" lon="5.63742">
        <ele>531</ele>
        <time>2019-03-23T13:14:38Z</time>
      </trkpt>
      <trkpt lat="45.35699" lon="5.63774">
        <ele>530</ele>
        <time>2019-03-23T13:14:47Z</time>
      </trkpt>
      <trkpt lat="45.35729" lon="5.63806">
        <ele>529</ele>
        <time>2019-03-23T13:14:57Z</time>
      </trkpt>
      <trkpt lat="45.35737" lon="5.63807">
        <ele>529</ele>
        <time>2019-03-23T13:14:59Z</time>
      </trkpt>
      <trkpt lat="45.35757" lon="5.63843">
        <ele>529</ele>
        <time>2019-03-23T13:15:08Z</time>
      </trkpt>
      <trkpt lat="45.35774" lon="5.63876">
        <ele>531</ele>
        <time>2019-03-23T13:15:18Z</time>
      </trkpt>
      <trkpt lat="45.3578" lon="5.63883">
        <ele>531</ele>
        <time>2019-03-23T13:15:21Z</time>
      </trkpt>
      <trkpt lat="45.35788" lon="5.63898">
        <ele>532</ele>
        <time>2019-03-23T13:15:25Z</time>
      </trkpt>
      <trkpt lat="45.35797" lon="5.63924">
        <ele>533</ele>
        <time>2019-03-23T13:15:32Z</time>
      </trkpt>
      <trkpt lat="45.35812" lon="5.63949">
        <ele>534</ele>
        <time>2019-03-23T13:15:45Z</time>
      </trkpt>
      <trkpt lat="45.35818" lon="5.6395">
        <ele>534</ele>
        <time>2019-03-23T13:16:22Z</time>
      </trkpt>
      <trkpt lat="45.35819" lon="5.63951">
        <ele>534</ele>
        <time>2019-03-23T13:16:53Z</time>
      </trkpt>
      <trkpt lat="45.3582" lon="5.63951">
        <ele>534</ele>
        <time>2019-03-23T13:17:31Z</time>
      </trkpt>
      <trkpt lat="45.35821" lon="5.63951">
        <ele>534</ele>
        <time>2019-03-23T13:18:02Z</time>
      </trkpt>
      <trkpt lat="45.35823" lon="5.63952">
        <ele>534</ele>
        <time>2019-03-23T13:18:48Z</time>
      </trkpt>
      <trkpt lat="45.35821" lon="5.63953">
        <ele>534</ele>
        <time>2019-03-23T13:19:22Z</time>
      </trkpt>
      <trkpt lat="45.35833" lon="5.63966">
        <ele>534</ele>
        <time>2019-03-23T13:19:49Z</time>
      </trkpt>
      <trkpt lat="45.3585" lon="5.63997">
        <ele>533</ele>
        <time>2019-03-23T13:19:58Z</time>
      </trkpt>
      <trkpt lat="45.35851" lon="5.64002">
        <ele>533</ele>
        <time>2019-03-23T13:19:59Z</time>
      </trkpt>
      <trkpt lat="45.35863" lon="5.64014">
        <ele>533</ele>
        <time>2019-03-23T13:20:04Z</time>
      </trkpt>
      <trkpt lat="45.35872" lon="5.64014">
        <ele>533</ele>
        <time>2019-03-23T13:20:06Z</time>
      </trkpt>
      <trkpt lat="45.35887" lon="5.64016">
        <ele>531</ele>
        <time>2019-03-23T13:20:09Z</time>
      </trkpt>
      <trkpt lat="45.35896" lon="5.64015">
        <ele>527</ele>
        <time>2019-03-23T13:20:11Z</time>
      </trkpt>
      <trkpt lat="45.35904" lon="5.64009">
        <ele>525</ele>
        <time>2019-03-23T13:20:14Z</time>
      </trkpt>
      <trkpt lat="45.35919" lon="5.64022">
        <ele>524</ele>
        <time>2019-03-23T13:20:25Z</time>
      </trkpt>
      <trkpt lat="45.35924" lon="5.64029">
        <ele>524</ele>
        <time>2019-03-23T13:20:32Z</time>
      </trkpt>
      <trkpt lat="45.3593" lon="5.64037">
        <ele>525</ele>
        <time>2019-03-23T13:20:36Z</time>
      </trkpt>
      <trkpt lat="45.35944" lon="5.64057">
        <ele>526</ele>
        <time>2019-03-23T13:20:45Z</time>
      </trkpt>
      <trkpt lat="45.35948" lon="5.64066">
        <ele>527</ele>
        <time>2019-03-23T13:20:49Z</time>
      </trkpt>
      <trkpt lat="45.35962" lon="5.64092">
        <ele>530</ele>
        <time>2019-03-23T13:21:02Z</time>
      </trkpt>
      <trkpt lat="45.35981" lon="5.64114">
        <ele>531</ele>
        <time>2019-03-23T13:21:15Z</time>
      </trkpt>
      <trkpt lat="45.35995" lon="5.64139">
        <ele>531</ele>
        <time>2019-03-23T13:21:26Z</time>
      </trkpt>
      <trkpt lat="45.36001" lon="5.64152">
        <ele>532</ele>
        <time>2019-03-23T13:21:32Z</time>
      </trkpt>
      <trkpt lat="45.36009" lon="5.64169">
        <ele>532</ele>
        <time>2019-03-23T13:21:39Z</time>
      </trkpt>
      <trkpt lat="45.36027" lon="5.64205">
        <ele>530</ele>
        <time>2019-03-23T13:21:48Z</time>
      </trkpt>
      <trkpt lat="45.3603" lon="5.64209">
        <ele>528</ele>
        <time>2019-03-23T13:21:52Z</time>
      </trkpt>
      <trkpt lat="45.36054" lon="5.64232">
        <ele>528</ele>
        <time>2019-03-23T13:22:10Z</time>
      </trkpt>
      <trkpt lat="45.36079" lon="5.64255">
        <ele>527</ele>
        <time>2019-03-23T13:22:21Z</time>
      </trkpt>
      <trkpt lat="45.36105" lon="5.64283">
        <ele>525</ele>
        <time>2019-03-23T13:22:29Z</time>
      </trkpt>
      <trkpt lat="45.36116" lon="5.64286">
        <ele>524</ele>
        <time>2019-03-23T13:22:32Z</time>
      </trkpt>
      <trkpt lat="45.36161" lon="5.64309">
        <ele>521</ele>
        <time>2019-03-23T13:22:41Z</time>
      </trkpt>
      <trkpt lat="45.3618" lon="5.6433">
        <ele>521</ele>
        <time>2019-03-23T13:22:46Z</time>
      </trkpt>
      <trkpt lat="45.36211" lon="5.64361">
        <ele>521</ele>
        <time>2019-03-23T13:22:57Z</time>
      </trkpt>
      <trkpt lat="45.36226" lon="5.64375">
        <ele>521</ele>
        <time>2019-03-23T13:23:03Z</time>
      </trkpt>
      <trkpt lat="45.36247" lon="5.6438">
        <ele>521</ele>
        <time>2019-03-23T13:23:11Z</time>
      </trkpt>
      <trkpt lat="45.36276" lon="5.64403">
        <ele>522</ele>
        <time>2019-03-23T13:23:22Z</time>
      </trkpt>
      <trkpt lat="45.36297" lon="5.64423">
        <ele>522</ele>
        <time>2019-03-23T13:23:31Z</time>
      </trkpt>
      <trkpt lat="45.36319" lon="5.64446">
        <ele>520</ele>
        <time>2019-03-23T13:23:40Z</time>
      </trkpt>
      <trkpt lat="45.36328" lon="5.64455">
        <ele>519</ele>
        <time>2019-03-23T13:23:43Z</time>
      </trkpt>
      <trkpt lat="45.36339" lon="5.6447">
        <ele>519</ele>
        <time>2019-03-23T13:23:47Z</time>
      </trkpt>
      <trkpt lat="45.36371" lon="5.64511">
        <ele>518</ele>
        <time>2019-03-23T13:23:58Z</time>
      </trkpt>
      <trkpt lat="45.36393" lon="5.64545">
        <ele>519</ele>
        <time>2019-03-23T13:24:07Z</time>
      </trkpt>
      <trkpt lat="45.3642" lon="5.64583">
        <ele>519</ele>
        <time>2019-03-23T13:24:18Z</time>
      </trkpt>
      <trkpt lat="45.36449" lon="5.64607">
        <ele>520</ele>
        <time>2019-03-23T13:24:28Z</time>
      </trkpt>
      <trkpt lat="45.3647" lon="5.64641">
        <ele>522</ele>
        <time>2019-03-23T13:24:40Z</time>
      </trkpt>
      <trkpt lat="45.36489" lon="5.64674">
        <ele>524</ele>
        <time>2019-03-23T13:24:52Z</time>
      </trkpt>
      <trkpt lat="45.36511" lon="5.64701">
        <ele>525</ele>
        <time>2019-03-23T13:25:03Z</time>
      </trkpt>
      <trkpt lat="45.36536" lon="5.64732">
        <ele>527</ele>
        <time>2019-03-23T13:25:15Z</time>
      </trkpt>
      <trkpt lat="45.36565" lon="5.64766">
        <ele>526</ele>
        <time>2019-03-23T13:25:26Z</time>
      </trkpt>
      <trkpt lat="45.36568" lon="5.6477">
        <ele>526</ele>
        <time>2019-03-23T13:25:27Z</time>
      </trkpt>
      <trkpt lat="45.3658" lon="5.64788">
        <ele>525</ele>
        <time>2019-03-23T13:25:31Z</time>
      </trkpt>
      <trkpt lat="45.36604" lon="5.64804">
        <ele>525</ele>
        <time>2019-03-23T13:25:39Z</time>
      </trkpt>
      <trkpt lat="45.3664" lon="5.64844">
        <ele>524</ele>
        <time>2019-03-23T13:25:50Z</time>
      </trkpt>
      <trkpt lat="45.36666" lon="5.64864">
        <ele>519</ele>
        <time>2019-03-23T13:25:54Z</time>
      </trkpt>
      <trkpt lat="45.36693" lon="5.64875">
        <ele>514</ele>
        <time>2019-03-23T13:25:57Z</time>
      </trkpt>
      <trkpt lat="45.36728" lon="5.64888">
        <ele>509</ele>
        <time>2019-03-23T13:26:01Z</time>
      </trkpt>
      <trkpt lat="45.36747" lon="5.64894">
        <ele>508</ele>
        <time>2019-03-23T13:26:04Z</time>
      </trkpt>
      <trkpt lat="45.36777" lon="5.64906">
        <ele>504</ele>
        <time>2019-03-23T13:26:12Z</time>
      </trkpt>
      <trkpt lat="45.36781" lon="5.64909">
        <ele>503</ele>
        <time>2019-03-23T13:26:13Z</time>
      </trkpt>
      <trkpt lat="45.36793" lon="5.64918">
        <ele>498</ele>
        <time>2019-03-23T13:26:16Z</time>
      </trkpt>
      <trkpt lat="45.36797" lon="5.64922">
        <ele>498</ele>
        <time>2019-03-23T13:26:17Z</time>
      </trkpt>
      <trkpt lat="45.36805" lon="5.64929">
        <ele>494</ele>
        <time>2019-03-23T13:26:19Z</time>
      </trkpt>
      <trkpt lat="45.36809" lon="5.64932">
        <ele>493</ele>
        <time>2019-03-23T13:26:20Z</time>
      </trkpt>
      <trkpt lat="45.36829" lon="5.64949">
        <ele>489</ele>
        <time>2019-03-23T13:26:24Z</time>
      </trkpt>
      <trkpt lat="45.36834" lon="5.64954">
        <ele>487</ele>
        <time>2019-03-23T13:26:25Z</time>
      </trkpt>
      <trkpt lat="45.36857" lon="5.64975">
        <ele>483</ele>
        <time>2019-03-23T13:26:29Z</time>
      </trkpt>
      <trkpt lat="45.36875" lon="5.64993">
        <ele>480</ele>
        <time>2019-03-23T13:26:32Z</time>
      </trkpt>
      <trkpt lat="45.36881" lon="5.64999">
        <ele>478</ele>
        <time>2019-03-23T13:26:33Z</time>
      </trkpt>
      <trkpt lat="45.36898" lon="5.65023">
        <ele>474</ele>
        <time>2019-03-23T13:26:37Z</time>
      </trkpt>
      <trkpt lat="45.36902" lon="5.65027">
        <ele>472</ele>
        <time>2019-03-23T13:26:44Z</time>
      </trkpt>
      <trkpt lat="45.36905" lon="5.65028">
        <ele>472</ele>
        <time>2019-03-23T13:27:13Z</time>
      </trkpt>
      <trkpt lat="45.36907" lon="5.65035">
        <ele>472</ele>
        <time>2019-03-23T13:27:46Z</time>
      </trkpt>
      <trkpt lat="45.36909" lon="5.65054">
        <ele>475</ele>
        <time>2019-03-23T13:27:57Z</time>
      </trkpt>
      <trkpt lat="45.36911" lon="5.65067">
        <ele>478</ele>
        <time>2019-03-23T13:28:04Z</time>
      </trkpt>
      <trkpt lat="45.36914" lon="5.65086">
        <ele>480</ele>
        <time>2019-03-23T13:28:14Z</time>
      </trkpt>
      <trkpt lat="45.36915" lon="5.65096">
        <ele>481</ele>
        <time>2019-03-23T13:28:18Z</time>
      </trkpt>
      <trkpt lat="45.36931" lon="5.65139">
        <ele>481</ele>
        <time>2019-03-23T13:28:31Z</time>
      </trkpt>
      <trkpt lat="45.36938" lon="5.65146">
        <ele>481</ele>
        <time>2019-03-23T13:28:33Z</time>
      </trkpt>
      <trkpt lat="45.36974" lon="5.65172">
        <ele>477</ele>
        <time>2019-03-23T13:28:40Z</time>
      </trkpt>
      <trkpt lat="45.3698" lon="5.65175">
        <ele>477</ele>
        <time>2019-03-23T13:28:41Z</time>
      </trkpt>
      <trkpt lat="45.36998" lon="5.65187">
        <ele>475</ele>
        <time>2019-03-23T13:28:44Z</time>
      </trkpt>
      <trkpt lat="45.37026" lon="5.65218">
        <ele>471</ele>
        <time>2019-03-23T13:28:53Z</time>
      </trkpt>
      <trkpt lat="45.37034" lon="5.65224">
        <ele>469</ele>
        <time>2019-03-23T13:28:58Z</time>
      </trkpt>
      <trkpt lat="45.37043" lon="5.6522">
        <ele>467</ele>
        <time>2019-03-23T13:29:11Z</time>
      </trkpt>
      <trkpt lat="45.37046" lon="5.65218">
        <ele>466</ele>
        <time>2019-03-23T13:29:13Z</time>
      </trkpt>
      <trkpt lat="45.37053" lon="5.65211">
        <ele>466</ele>
        <time>2019-03-23T13:29:17Z</time>
      </trkpt>
      <trkpt lat="45.37058" lon="5.65207">
        <ele>466</ele>
        <time>2019-03-23T13:29:20Z</time>
      </trkpt>
      <trkpt lat="45.37067" lon="5.65197">
        <ele>465</ele>
        <time>2019-03-23T13:29:24Z</time>
      </trkpt>
      <trkpt lat="45.37093" lon="5.65161">
        <ele>461</ele>
        <time>2019-03-23T13:29:32Z</time>
      </trkpt>
      <trkpt lat="45.37101" lon="5.65155">
        <ele>459</ele>
        <time>2019-03-23T13:29:34Z</time>
      </trkpt>
      <trkpt lat="45.37115" lon="5.65149">
        <ele>456</ele>
        <time>2019-03-23T13:29:37Z</time>
      </trkpt>
      <trkpt lat="45.37127" lon="5.65139">
        <ele>452</ele>
        <time>2019-03-23T13:29:40Z</time>
      </trkpt>
      <trkpt lat="45.3713" lon="5.65135">
        <ele>452</ele>
        <time>2019-03-23T13:29:41Z</time>
      </trkpt>
      <trkpt lat="45.37144" lon="5.65124">
        <ele>448</ele>
        <time>2019-03-23T13:29:44Z</time>
      </trkpt>
      <trkpt lat="45.37161" lon="5.65107">
        <ele>444</ele>
        <time>2019-03-23T13:29:48Z</time>
      </trkpt>
      <trkpt lat="45.37184" lon="5.6509">
        <ele>440</ele>
        <time>2019-03-23T13:29:53Z</time>
      </trkpt>
      <trkpt lat="45.37203" lon="5.65077">
        <ele>436</ele>
        <time>2019-03-23T13:29:57Z</time>
      </trkpt>
      <trkpt lat="45.37222" lon="5.65063">
        <ele>433</ele>
        <time>2019-03-23T13:30:02Z</time>
      </trkpt>
      <trkpt lat="45.37225" lon="5.65061">
        <ele>432</ele>
        <time>2019-03-23T13:30:11Z</time>
      </trkpt>
      <trkpt lat="45.37224" lon="5.65059">
        <ele>432</ele>
        <time>2019-03-23T13:30:39Z</time>
      </trkpt>
      <trkpt lat="45.37225" lon="5.65057">
        <ele>432</ele>
        <time>2019-03-23T13:30:54Z</time>
      </trkpt>
      <trkpt lat="45.37225" lon="5.65057">
        <ele>432</ele>
        <time>2019-03-23T13:31:17Z</time>
      </trkpt>
      <trkpt lat="45.37225" lon="5.65056">
        <ele>431</ele>
        <time>2019-03-23T13:31:39Z</time>
      </trkpt>
      <trkpt lat="45.37226" lon="5.65056">
        <ele>431</ele>
        <time>2019-03-23T13:31:57Z</time>
      </trkpt>
      <trkpt lat="45.37226" lon="5.65055">
        <ele>431</ele>
        <time>2019-03-23T13:32:02Z</time>
      </trkpt>
      <trkpt lat="45.37233" lon="5.65052">
        <ele>431</ele>
        <time>2019-03-23T13:32:07Z</time>
      </trkpt>
      <trkpt lat="45.37235" lon="5.65052">
        <ele>431</ele>
        <time>2019-03-23T13:32:08Z</time>
      </trkpt>
      <trkpt lat="45.37236" lon="5.65053">
        <ele>430</ele>
        <time>2019-03-23T13:32:09Z</time>
      </trkpt>
      <trkpt lat="45.37238" lon="5.65054">
        <ele>430</ele>
        <time>2019-03-23T13:32:10Z</time>
      </trkpt>
      <trkpt lat="45.3724" lon="5.65055">
        <ele>430</ele>
        <time>2019-03-23T13:32:11Z</time>
      </trkpt>
      <trkpt lat="45.37242" lon="5.65058">
        <ele>430</ele>
        <time>2019-03-23T13:32:12Z</time>
      </trkpt>
      <trkpt lat="45.37244" lon="5.6506">
        <ele>430</ele>
        <time>2019-03-23T13:32:13Z</time>
      </trkpt>
      <trkpt lat="45.37246" lon="5.65063">
        <ele>430</ele>
        <time>2019-03-23T13:32:14Z</time>
      </trkpt>
      <trkpt lat="45.37247" lon="5.65067">
        <ele>430</ele>
        <time>2019-03-23T13:32:15Z</time>
      </trkpt>
      <trkpt lat="45.37263" lon="5.65122">
        <ele>430</ele>
        <time>2019-03-23T13:32:29Z</time>
      </trkpt>
      <trkpt lat="45.3728" lon="5.65198">
        <ele>429</ele>
        <time>2019-03-23T13:32:45Z</time>
      </trkpt>
      <trkpt lat="45.37304" lon="5.65282">
        <ele>430</ele>
        <time>2019-03-23T13:33:03Z</time>
      </trkpt>
      <trkpt lat="45.37323" lon="5.65357">
        <ele>430</ele>
        <time>2019-03-23T13:33:21Z</time>
      </trkpt>
      <trkpt lat="45.37334" lon="5.65407">
        <ele>429</ele>
        <time>2019-03-23T13:33:30Z</time>
      </trkpt>
      <trkpt lat="45.37335" lon="5.65413">
        <ele>429</ele>
        <time>2019-03-23T13:33:31Z</time>
      </trkpt>
      <trkpt lat="45.37335" lon="5.65419">
        <ele>429</ele>
        <time>2019-03-23T13:33:32Z</time>
      </trkpt>
      <trkpt lat="45.37344" lon="5.65474">
        <ele>425</ele>
        <time>2019-03-23T13:33:39Z</time>
      </trkpt>
      <trkpt lat="45.3735" lon="5.65533">
        <ele>421</ele>
        <time>2019-03-23T13:33:45Z</time>
      </trkpt>
      <trkpt lat="45.3736" lon="5.65583">
        <ele>418</ele>
        <time>2019-03-23T13:33:49Z</time>
      </trkpt>
      <trkpt lat="45.37369" lon="5.65623">
        <ele>414</ele>
        <time>2019-03-23T13:33:52Z</time>
      </trkpt>
      <trkpt lat="45.37375" lon="5.65648">
        <ele>413</ele>
        <time>2019-03-23T13:33:54Z</time>
      </trkpt>
      <trkpt lat="45.37377" lon="5.6566">
        <ele>413</ele>
        <time>2019-03-23T13:33:55Z</time>
      </trkpt>
      <trkpt lat="45.37378" lon="5.6567">
        <ele>413</ele>
        <time>2019-03-23T13:33:56Z</time>
      </trkpt>
      <trkpt lat="45.37385" lon="5.65699">
        <ele>413</ele>
        <time>2019-03-23T13:33:59Z</time>
      </trkpt>
      <trkpt lat="45.37388" lon="5.65707">
        <ele>413</ele>
        <time>2019-03-23T13:34:00Z</time>
      </trkpt>
      <trkpt lat="45.37392" lon="5.65712">
        <ele>414</ele>
        <time>2019-03-23T13:34:01Z</time>
      </trkpt>
      <trkpt lat="45.37396" lon="5.65716">
        <ele>414</ele>
        <time>2019-03-23T13:34:02Z</time>
      </trkpt>
      <trkpt lat="45.37399" lon="5.65717">
        <ele>415</ele>
        <time>2019-03-23T13:34:03Z</time>
      </trkpt>
      <trkpt lat="45.37401" lon="5.65718">
        <ele>415</ele>
        <time>2019-03-23T13:34:04Z</time>
      </trkpt>
      <trkpt lat="45.37404" lon="5.65717">
        <ele>415</ele>
        <time>2019-03-23T13:34:05Z</time>
      </trkpt>
      <trkpt lat="45.37407" lon="5.65715">
        <ele>416</ele>
        <time>2019-03-23T13:34:06Z</time>
      </trkpt>
      <trkpt lat="45.3741" lon="5.65713">
        <ele>416</ele>
        <time>2019-03-23T13:34:07Z</time>
      </trkpt>
      <trkpt lat="45.37442" lon="5.657">
        <ele>420</ele>
        <time>2019-03-23T13:34:21Z</time>
      </trkpt>
      <trkpt lat="45.37466" lon="5.65698">
        <ele>423</ele>
        <time>2019-03-23T13:34:33Z</time>
      </trkpt>
      <trkpt lat="45.3749" lon="5.65689">
        <ele>426</ele>
        <time>2019-03-23T13:34:45Z</time>
      </trkpt>
      <trkpt lat="45.37492" lon="5.65688">
        <ele>427</ele>
        <time>2019-03-23T13:34:46Z</time>
      </trkpt>
      <trkpt lat="45.37526" lon="5.65655">
        <ele>430</ele>
        <time>2019-03-23T13:35:05Z</time>
      </trkpt>
      <trkpt lat="45.37568" lon="5.6562">
        <ele>433</ele>
        <time>2019-03-23T13:35:26Z</time>
      </trkpt>
      <trkpt lat="45.37603" lon="5.65589">
        <ele>436</ele>
        <time>2019-03-23T13:35:44Z</time>
      </trkpt>
      <trkpt lat="45.37645" lon="5.6555">
        <ele>439</ele>
        <time>2019-03-23T13:36:03Z</time>
      </trkpt>
      <trkpt lat="45.37684" lon="5.65496">
        <ele>441</ele>
        <time>2019-03-23T13:36:24Z</time>
      </trkpt>
      <trkpt lat="45.37708" lon="5.65458">
        <ele>444</ele>
        <time>2019-03-23T13:36:39Z</time>
      </trkpt>
      <trkpt lat="45.37736" lon="5.65412">
        <ele>447</ele>
        <time>2019-03-23T13:36:56Z</time>
      </trkpt>
      <trkpt lat="45.37755" lon="5.65346">
        <ele>450</ele>
        <time>2019-03-23T13:37:15Z</time>
      </trkpt>
      <trkpt lat="45.37759" lon="5.65286">
        <ele>453</ele>
        <time>2019-03-23T13:37:33Z</time>
      </trkpt>
      <trkpt lat="45.3777" lon="5.65253">
        <ele>455</ele>
        <time>2019-03-23T13:37:49Z</time>
      </trkpt>
      <trkpt lat="45.37771" lon="5.65253">
        <ele>455</ele>
        <time>2019-03-23T13:38:01Z</time>
      </trkpt>
      <trkpt lat="45.37772" lon="5.65253">
        <ele>455</ele>
        <time>2019-03-23T13:38:25Z</time>
      </trkpt>
      <trkpt lat="45.37772" lon="5.65254">
        <ele>455</ele>
        <time>2019-03-23T13:38:43Z</time>
      </trkpt>
      <trkpt lat="45.37772" lon="5.65254">
        <ele>455</ele>
        <time>2019-03-23T13:39:18Z</time>
      </trkpt>
      <trkpt lat="45.37772" lon="5.65255">
        <ele>455</ele>
        <time>2019-03-23T13:40:01Z</time>
      </trkpt>
      <trkpt lat="45.37773" lon="5.65255">
        <ele>455</ele>
        <time>2019-03-23T13:40:08Z</time>
      </trkpt>
      <trkpt lat="45.37775" lon="5.65255">
        <ele>455</ele>
        <time>2019-03-23T13:40:09Z</time>
      </trkpt>
      <trkpt lat="45.37776" lon="5.65255">
        <ele>455</ele>
        <time>2019-03-23T13:40:10Z</time>
      </trkpt>
      <trkpt lat="45.37778" lon="5.65257">
        <ele>455</ele>
        <time>2019-03-23T13:40:11Z</time>
      </trkpt>
      <trkpt lat="45.3778" lon="5.65258">
        <ele>455</ele>
        <time>2019-03-23T13:40:12Z</time>
      </trkpt>
      <trkpt lat="45.37799" lon="5.65239">
        <ele>455</ele>
        <time>2019-03-23T13:40:22Z</time>
      </trkpt>
      <trkpt lat="45.37798" lon="5.65234">
        <ele>455</ele>
        <time>2019-03-23T13:40:23Z</time>
      </trkpt>
      <trkpt lat="45.37796" lon="5.6523">
        <ele>455</ele>
        <time>2019-03-23T13:40:24Z</time>
      </trkpt>
      <trkpt lat="45.37794" lon="5.65226">
        <ele>455</ele>
        <time>2019-03-23T13:40:25Z</time>
      </trkpt>
      <trkpt lat="45.37792" lon="5.65223">
        <ele>455</ele>
        <time>2019-03-23T13:40:26Z</time>
      </trkpt>
      <trkpt lat="45.3779" lon="5.65219">
        <ele>455</ele>
        <time>2019-03-23T13:40:27Z</time>
      </trkpt>
      <trkpt lat="45.37788" lon="5.65214">
        <ele>455</ele>
        <time>2019-03-23T13:40:28Z</time>
      </trkpt>
      <trkpt lat="45.37786" lon="5.6521">
        <ele>455</ele>
        <time>2019-03-23T13:40:29Z</time>
      </trkpt>
      <trkpt lat="45.37781" lon="5.65188">
        <ele>454</ele>
        <time>2019-03-23T13:40:33Z</time>
      </trkpt>
      <trkpt lat="45.3778" lon="5.6517">
        <ele>454</ele>
        <time>2019-03-23T13:40:36Z</time>
      </trkpt>
      <trkpt lat="45.37781" lon="5.65163">
        <ele>454</ele>
        <time>2019-03-23T13:40:37Z</time>
      </trkpt>
      <trkpt lat="45.37791" lon="5.65118">
        <ele>454</ele>
        <time>2019-03-23T13:40:45Z</time>
      </trkpt>
      <trkpt lat="45.37793" lon="5.65106">
        <ele>454</ele>
        <time>2019-03-23T13:40:47Z</time>
      </trkpt>
      <trkpt lat="45.37806" lon="5.6507">
        <ele>453</ele>
        <time>2019-03-23T13:40:54Z</time>
      </trkpt>
      <trkpt lat="45.3784" lon="5.65">
        <ele>453</ele>
        <time>2019-03-23T13:41:08Z</time>
      </trkpt>
      <trkpt lat="45.37893" lon="5.64934">
        <ele>453</ele>
        <time>2019-03-23T13:41:25Z</time>
      </trkpt>
      <trkpt lat="45.37937" lon="5.64879">
        <ele>452</ele>
        <time>2019-03-23T13:41:41Z</time>
      </trkpt>
      <trkpt lat="45.37943" lon="5.64868">
        <ele>452</ele>
        <time>2019-03-23T13:41:51Z</time>
      </trkpt>
      <trkpt lat="45.37942" lon="5.64868">
        <ele>452</ele>
        <time>2019-03-23T13:42:14Z</time>
      </trkpt>
      <trkpt lat="45.37943" lon="5.64863">
        <ele>452</ele>
        <time>2019-03-23T13:42:18Z</time>
      </trkpt>
      <trkpt lat="45.37943" lon="5.6486">
        <ele>452</ele>
        <time>2019-03-23T13:42:19Z</time>
      </trkpt>
      <trkpt lat="45.37943" lon="5.64856">
        <ele>452</ele>
        <time>2019-03-23T13:42:20Z</time>
      </trkpt>
      <trkpt lat="45.37942" lon="5.64852">
        <ele>452</ele>
        <time>2019-03-23T13:42:21Z</time>
      </trkpt>
      <trkpt lat="45.37942" lon="5.64848">
        <ele>452</ele>
        <time>2019-03-23T13:42:22Z</time>
      </trkpt>
      <trkpt lat="45.37943" lon="5.64844">
        <ele>452</ele>
        <time>2019-03-23T13:42:23Z</time>
      </trkpt>
      <trkpt lat="45.37943" lon="5.64839">
        <ele>452</ele>
        <time>2019-03-23T13:42:24Z</time>
      </trkpt>
      <trkpt lat="45.37953" lon="5.64759">
        <ele>451</ele>
        <time>2019-03-23T13:42:40Z</time>
      </trkpt>
      <trkpt lat="45.37955" lon="5.64758">
        <ele>451</ele>
        <time>2019-03-23T13:42:41Z</time>
      </trkpt>
      <trkpt lat="45.37958" lon="5.64759">
        <ele>451</ele>
        <time>2019-03-23T13:42:42Z</time>
      </trkpt>
      <trkpt lat="45.37961" lon="5.64761">
        <ele>451</ele>
        <time>2019-03-23T13:42:43Z</time>
      </trkpt>
      <trkpt lat="45.37958" lon="5.64627">
        <ele>446</ele>
      </trkpt>
      <trkpt lat="45.37918" lon="5.64541">
        <ele>447.088013</ele>
      </trkpt>
      <trkpt lat="45.3789" lon="5.64399">
        <ele>446.042145</ele>
      </trkpt>
      <trkpt lat="45.37901" lon="5.64281">
        <ele>445</ele>
      </trkpt>
      <trkpt lat="45.38009" lon="5.64189">
        <ele>443</ele>
      </trkpt>
      <trkpt lat="45.38124" lon="5.64266">
        <ele>442</ele>
      </trkpt>
      <trkpt lat="45.383" lon="5.64524">
        <ele>446</ele>
        <time>2019-03-23T13:45:37Z</time>
      </trkpt>
      <trkpt lat="45.38304" lon="5.64523">
        <ele>446</ele>
        <time>2019-03-23T13:45:38Z</time>
      </trkpt>
      <trkpt lat="45.38308" lon="5.64523">
        <ele>445</ele>
        <time>2019-03-23T13:45:39Z</time>
      </trkpt>
      <trkpt lat="45.38312" lon="5.64524">
        <ele>445</ele>
        <time>2019-03-23T13:45:40Z</time>
      </trkpt>
      <trkpt lat="45.38394" lon="5.64537">
        <ele>445</ele>
        <time>2019-03-23T13:45:57Z</time>
      </trkpt>
      <trkpt lat="45.38497" lon="5.64552">
        <ele>442</ele>
        <time>2019-03-23T13:46:15Z</time>
      </trkpt>
      <trkpt lat="45.38503" lon="5.64554">
        <ele>442</ele>
        <time>2019-03-23T13:46:16Z</time>
      </trkpt>
      <trkpt lat="45.3851" lon="5.64557">
        <ele>441</ele>
        <time>2019-03-23T13:46:17Z</time>
      </trkpt>
      <trkpt lat="45.38517" lon="5.64562">
        <ele>441</ele>
        <time>2019-03-23T13:46:18Z</time>
      </trkpt>
      <trkpt lat="45.38524" lon="5.64568">
        <ele>441</ele>
        <time>2019-03-23T13:46:19Z</time>
      </trkpt>
      <trkpt lat="45.3853" lon="5.64575">
        <ele>440</ele>
        <time>2019-03-23T13:46:20Z</time>
      </trkpt>
      <trkpt lat="45.38535" lon="5.64583">
        <ele>440</ele>
        <time>2019-03-23T13:46:21Z</time>
      </trkpt>
      <trkpt lat="45.3854" lon="5.64592">
        <ele>439</ele>
        <time>2019-03-23T13:46:22Z</time>
      </trkpt>
      <trkpt lat="45.38544" lon="5.64602">
        <ele>439</ele>
        <time>2019-03-23T13:46:23Z</time>
      </trkpt>
      <trkpt lat="45.38589" lon="5.64724">
        <ele>437</ele>
        <time>2019-03-23T13:46:37Z</time>
      </trkpt>
      <trkpt lat="45.38594" lon="5.64752">
        <ele>438</ele>
        <time>2019-03-23T13:46:44Z</time>
      </trkpt>
      <trkpt lat="45.38593" lon="5.64752">
        <ele>438</ele>
        <time>2019-03-23T13:46:58Z</time>
      </trkpt>
      <trkpt lat="45.3859" lon="5.64758">
        <ele>438</ele>
        <time>2019-03-23T13:47:01Z</time>
      </trkpt>
      <trkpt lat="45.38581" lon="5.64769">
        <ele>437</ele>
        <time>2019-03-23T13:47:05Z</time>
      </trkpt>
      <trkpt lat="45.3856" lon="5.64787">
        <ele>437</ele>
        <time>2019-03-23T13:47:13Z</time>
      </trkpt>
      <trkpt lat="45.38565" lon="5.64822">
        <ele>437</ele>
        <time>2019-03-23T13:47:22Z</time>
      </trkpt>
      <trkpt lat="45.38586" lon="5.6488">
        <ele>437</ele>
        <time>2019-03-23T13:47:36Z</time>
      </trkpt>
      <trkpt lat="45.38599" lon="5.6494">
        <ele>437</ele>
        <time>2019-03-23T13:47:51Z</time>
      </trkpt>
      <trkpt lat="45.38598" lon="5.64958">
        <ele>437</ele>
        <time>2019-03-23T13:47:56Z</time>
      </trkpt>
      <trkpt lat="45.38599" lon="5.64969">
        <ele>437</ele>
        <time>2019-03-23T13:47:59Z</time>
      </trkpt>
      <trkpt lat="45.38604" lon="5.64998">
        <ele>437</ele>
        <time>2019-03-23T13:48:07Z</time>
      </trkpt>
      <trkpt lat="45.38604" lon="5.65031">
        <ele>438</ele>
        <time>2019-03-23T13:48:16Z</time>
      </trkpt>
      <trkpt lat="45.38602" lon="5.65042">
        <ele>438</ele>
        <time>2019-03-23T13:48:19Z</time>
      </trkpt>
      <trkpt lat="45.38602" lon="5.65054">
        <ele>438</ele>
        <time>2019-03-23T13:48:22Z</time>
      </trkpt>
      <trkpt lat="45.38613" lon="5.6508">
        <ele>438</ele>
        <time>2019-03-23T13:48:31Z</time>
      </trkpt>
      <trkpt lat="45.38612" lon="5.65091">
        <ele>438</ele>
        <time>2019-03-23T13:48:34Z</time>
      </trkpt>
      <trkpt lat="45.38622" lon="5.65137">
        <ele>438</ele>
        <time>2019-03-23T13:48:45Z</time>
      </trkpt>
      <trkpt lat="45.38624" lon="5.65146">
        <ele>439</ele>
        <time>2019-03-23T13:48:47Z</time>
      </trkpt>
      <trkpt lat="45.38641" lon="5.65152">
        <ele>439</ele>
        <time>2019-03-23T13:48:54Z</time>
      </trkpt>
      <trkpt lat="45.38679" lon="5.65142">
        <ele>441</ele>
        <time>2019-03-23T13:49:11Z</time>
      </trkpt>
      <trkpt lat="45.38736" lon="5.65126">
        <ele>442</ele>
        <time>2019-03-23T13:49:33Z</time>
      </trkpt>
      <trkpt lat="45.38787" lon="5.65109">
        <ele>445</ele>
        <time>2019-03-23T13:49:54Z</time>
      </trkpt>
      <trkpt lat="45.3885" lon="5.6509">
        <ele>447</ele>
        <time>2019-03-23T13:50:19Z</time>
      </trkpt>
      <trkpt lat="45.38898" lon="5.65078">
        <ele>449</ele>
        <time>2019-03-23T13:50:38Z</time>
      </trkpt>
      <trkpt lat="45.38956" lon="5.65062">
        <ele>451</ele>
        <time>2019-03-23T13:51:00Z</time>
      </trkpt>
      <trkpt lat="45.39015" lon="5.65043">
        <ele>453</ele>
        <time>2019-03-23T13:51:22Z</time>
      </trkpt>
      <trkpt lat="45.39057" lon="5.65032">
        <ele>454</ele>
        <time>2019-03-23T13:51:37Z</time>
      </trkpt>
      <trkpt lat="45.39065" lon="5.65051">
        <ele>454</ele>
        <time>2019-03-23T13:51:42Z</time>
      </trkpt>
      <trkpt lat="45.3907" lon="5.65092">
        <ele>454</ele>
        <time>2019-03-23T13:51:50Z</time>
      </trkpt>
      <trkpt lat="45.3908" lon="5.65091">
        <ele>454</ele>
        <time>2019-03-23T13:51:54Z</time>
      </trkpt>
      <trkpt lat="45.39113" lon="5.65055">
        <ele>456</ele>
        <time>2019-03-23T13:52:09Z</time>
      </trkpt>
      <trkpt lat="45.39136" lon="5.65029">
        <ele>457</ele>
        <time>2019-03-23T13:52:21Z</time>
      </trkpt>
      <trkpt lat="45.39182" lon="5.65007">
        <ele>458</ele>
        <time>2019-03-23T13:52:37Z</time>
      </trkpt>
      <trkpt lat="45.39219" lon="5.64997">
        <ele>459</ele>
        <time>2019-03-23T13:52:52Z</time>
      </trkpt>
      <trkpt lat="45.39221" lon="5.64996">
        <ele>459</ele>
        <time>2019-03-23T13:52:53Z</time>
      </trkpt>
      <trkpt lat="45.39223" lon="5.64995">
        <ele>459</ele>
        <time>2019-03-23T13:52:54Z</time>
      </trkpt>
      <trkpt lat="45.39226" lon="5.64994">
        <ele>459</ele>
        <time>2019-03-23T13:52:55Z</time>
      </trkpt>
      <trkpt lat="45.39229" lon="5.64994">
        <ele>459</ele>
        <time>2019-03-23T13:52:56Z</time>
      </trkpt>
      <trkpt lat="45.39278" lon="5.64985">
        <ele>460</ele>
        <time>2019-03-23T13:53:13Z</time>
      </trkpt>
      <trkpt lat="45.39335" lon="5.64974">
        <ele>462</ele>
        <time>2019-03-23T13:53:31Z</time>
      </trkpt>
      <trkpt lat="45.39384" lon="5.64962">
        <ele>463</ele>
        <time>2019-03-23T13:53:48Z</time>
      </trkpt>
      <trkpt lat="45.39423" lon="5.64944">
        <ele>466</ele>
        <time>2019-03-23T13:54:03Z</time>
      </trkpt>
      <trkpt lat="45.39439" lon="5.64934">
        <ele>467</ele>
        <time>2019-03-23T13:54:14Z</time>
      </trkpt>
      <trkpt lat="45.39457" lon="5.64935">
        <ele>471</ele>
        <time>2019-03-23T13:54:26Z</time>
      </trkpt>
      <trkpt lat="45.39482" lon="5.64943">
        <ele>474</ele>
        <time>2019-03-23T13:54:42Z</time>
      </trkpt>
      <trkpt lat="45.39501" lon="5.64944">
        <ele>477</ele>
        <time>2019-03-23T13:54:55Z</time>
      </trkpt>
      <trkpt lat="45.3952" lon="5.64944">
        <ele>480</ele>
        <time>2019-03-23T13:55:09Z</time>
      </trkpt>
      <trkpt lat="45.39549" lon="5.64949">
        <ele>483</ele>
        <time>2019-03-23T13:55:27Z</time>
      </trkpt>
      <trkpt lat="45.39572" lon="5.64947">
        <ele>485</ele>
        <time>2019-03-23T13:55:40Z</time>
      </trkpt>
      <trkpt lat="45.39596" lon="5.64956">
        <ele>487</ele>
        <time>2019-03-23T13:55:54Z</time>
      </trkpt>
      <trkpt lat="45.39608" lon="5.64998">
        <ele>490</ele>
        <time>2019-03-23T13:56:13Z</time>
      </trkpt>
      <trkpt lat="45.39627" lon="5.65001">
        <ele>493</ele>
        <time>2019-03-23T13:56:27Z</time>
      </trkpt>
      <trkpt lat="45.39649" lon="5.64996">
        <ele>496</ele>
        <time>2019-03-23T13:56:43Z</time>
      </trkpt>
      <trkpt lat="45.3967" lon="5.64999">
        <ele>499</ele>
        <time>2019-03-23T13:56:59Z</time>
      </trkpt>
      <trkpt lat="45.3969" lon="5.65001">
        <ele>502</ele>
        <time>2019-03-23T13:57:13Z</time>
      </trkpt>
      <trkpt lat="45.39707" lon="5.65004">
        <ele>506</ele>
        <time>2019-03-23T13:57:27Z</time>
      </trkpt>
      <trkpt lat="45.3973" lon="5.65017">
        <ele>509</ele>
        <time>2019-03-23T13:57:46Z</time>
      </trkpt>
      <trkpt lat="45.39748" lon="5.65025">
        <ele>512</ele>
        <time>2019-03-23T13:58:00Z</time>
      </trkpt>
      <trkpt lat="45.39775" lon="5.65028">
        <ele>514</ele>
        <time>2019-03-23T13:58:20Z</time>
      </trkpt>
      <trkpt lat="45.39806" lon="5.65031">
        <ele>517</ele>
        <time>2019-03-23T13:58:40Z</time>
      </trkpt>
      <trkpt lat="45.39821" lon="5.65005">
        <ele>520</ele>
        <time>2019-03-23T13:58:56Z</time>
      </trkpt>
      <trkpt lat="45.39832" lon="5.64974">
        <ele>523</ele>
        <time>2019-03-23T13:59:13Z</time>
      </trkpt>
      <trkpt lat="45.39839" lon="5.64956">
        <ele>525</ele>
        <time>2019-03-23T13:59:24Z</time>
      </trkpt>
      <trkpt lat="45.39846" lon="5.6494">
        <ele>528</ele>
        <time>2019-03-23T13:59:36Z</time>
      </trkpt>
      <trkpt lat="45.39848" lon="5.64941">
        <ele>528</ele>
        <time>2019-03-23T13:59:49Z</time>
      </trkpt>
      <trkpt lat="45.39849" lon="5.6494">
        <ele>528</ele>
        <time>2019-03-23T14:00:13Z</time>
      </trkpt>
      <trkpt lat="45.3985" lon="5.6494">
        <ele>528</ele>
        <time>2019-03-23T14:00:19Z</time>
      </trkpt>
      <trkpt lat="45.39856" lon="5.64943">
        <ele>529</ele>
        <time>2019-03-23T14:00:23Z</time>
      </trkpt>
      <trkpt lat="45.39858" lon="5.64944">
        <ele>529</ele>
        <time>2019-03-23T14:00:24Z</time>
      </trkpt>
      <trkpt lat="45.39896" lon="5.64956">
        <ele>529</ele>
        <time>2019-03-23T14:00:40Z</time>
      </trkpt>
      <trkpt lat="45.39942" lon="5.64972">
        <ele>530</ele>
        <time>2019-03-23T14:01:01Z</time>
      </trkpt>
      <trkpt lat="45.39972" lon="5.64984">
        <ele>534</ele>
        <time>2019-03-23T14:01:17Z</time>
      </trkpt>
      <trkpt lat="45.40001" lon="5.64998">
        <ele>537</ele>
        <time>2019-03-23T14:01:33Z</time>
      </trkpt>
      <trkpt lat="45.4003" lon="5.65014">
        <ele>540</ele>
        <time>2019-03-23T14:01:49Z</time>
      </trkpt>
      <trkpt lat="45.40065" lon="5.65035">
        <ele>543</ele>
        <time>2019-03-23T14:02:09Z</time>
      </trkpt>
      <trkpt lat="45.401" lon="5.65044">
        <ele>546</ele>
        <time>2019-03-23T14:02:28Z</time>
      </trkpt>
      <trkpt lat="45.40132" lon="5.65052">
        <ele>548</ele>
        <time>2019-03-23T14:02:44Z</time>
      </trkpt>
      <trkpt lat="45.40178" lon="5.65065">
        <ele>550</ele>
        <time>2019-03-23T14:03:03Z</time>
      </trkpt>
      <trkpt lat="45.40228" lon="5.65085">
        <ele>549</ele>
        <time>2019-03-23T14:03:18Z</time>
      </trkpt>
      <trkpt lat="45.40301" lon="5.65136">
        <ele>550</ele>
        <time>2019-03-23T14:03:39Z</time>
      </trkpt>
      <trkpt lat="45.40337" lon="5.65177">
        <ele>550</ele>
        <time>2019-03-23T14:03:54Z</time>
      </trkpt>
      <trkpt lat="45.40363" lon="5.6521">
        <ele>549</ele>
        <time>2019-03-23T14:04:02Z</time>
      </trkpt>
      <trkpt lat="45.40366" lon="5.65215">
        <ele>549</ele>
        <time>2019-03-23T14:04:03Z</time>
      </trkpt>
      <trkpt lat="45.4037" lon="5.6522">
        <ele>548</ele>
        <time>2019-03-23T14:04:04Z</time>
      </trkpt>
      <trkpt lat="45.40426" lon="5.65283">
        <ele>547</ele>
        <time>2019-03-23T14:04:21Z</time>
      </trkpt>
      <trkpt lat="45.40465" lon="5.65327">
        <ele>548</ele>
        <time>2019-03-23T14:04:35Z</time>
      </trkpt>
      <trkpt lat="45.40497" lon="5.65376">
        <ele>548</ele>
        <time>2019-03-23T14:04:49Z</time>
      </trkpt>
      <trkpt lat="45.40498" lon="5.65381">
        <ele>548</ele>
        <time>2019-03-23T14:04:50Z</time>
      </trkpt>
      <trkpt lat="45.40496" lon="5.65387">
        <ele>548</ele>
        <time>2019-03-23T14:04:51Z</time>
      </trkpt>
      <trkpt lat="45.40493" lon="5.65394">
        <ele>548</ele>
        <time>2019-03-23T14:04:52Z</time>
      </trkpt>
      <trkpt lat="45.40489" lon="5.65402">
        <ele>548</ele>
        <time>2019-03-23T14:04:53Z</time>
      </trkpt>
      <trkpt lat="45.40483" lon="5.65411">
        <ele>548</ele>
        <time>2019-03-23T14:04:54Z</time>
      </trkpt>
      <trkpt lat="45.40459" lon="5.65447">
        <ele>544</ele>
        <time>2019-03-23T14:04:58Z</time>
      </trkpt>
      <trkpt lat="45.40453" lon="5.65456">
        <ele>543</ele>
        <time>2019-03-23T14:04:59Z</time>
      </trkpt>
      <trkpt lat="45.40449" lon="5.65466">
        <ele>542</ele>
        <time>2019-03-23T14:05:00Z</time>
      </trkpt>
      <trkpt lat="45.40443" lon="5.65485">
        <ele>541</ele>
        <time>2019-03-23T14:05:02Z</time>
      </trkpt>
      <trkpt lat="45.40442" lon="5.65495">
        <ele>541</ele>
        <time>2019-03-23T14:05:03Z</time>
      </trkpt>
      <trkpt lat="45.40432" lon="5.65572">
        <ele>542</ele>
        <time>2019-03-23T14:05:14Z</time>
      </trkpt>
      <trkpt lat="45.40435" lon="5.65615">
        <ele>544</ele>
        <time>2019-03-23T14:05:28Z</time>
      </trkpt>
      <trkpt lat="45.40456" lon="5.65631">
        <ele>547</ele>
        <time>2019-03-23T14:05:41Z</time>
      </trkpt>
      <trkpt lat="45.4046" lon="5.65635">
        <ele>547</ele>
        <time>2019-03-23T14:05:44Z</time>
      </trkpt>
      <trkpt lat="45.40466" lon="5.65642">
        <ele>548</ele>
        <time>2019-03-23T14:05:49Z</time>
      </trkpt>
      <trkpt lat="45.40484" lon="5.65666">
        <ele>550</ele>
        <time>2019-03-23T14:06:05Z</time>
      </trkpt>
      <trkpt lat="45.40498" lon="5.65689">
        <ele>553</ele>
        <time>2019-03-23T14:06:20Z</time>
      </trkpt>
      <trkpt lat="45.40511" lon="5.65709">
        <ele>556</ele>
        <time>2019-03-23T14:06:35Z</time>
      </trkpt>
      <trkpt lat="45.40524" lon="5.65726">
        <ele>559</ele>
        <time>2019-03-23T14:06:50Z</time>
      </trkpt>
      <trkpt lat="45.40525" lon="5.65727">
        <ele>559</ele>
        <time>2019-03-23T14:06:51Z</time>
      </trkpt>
      <trkpt lat="45.4054" lon="5.65739">
        <ele>562</ele>
        <time>2019-03-23T14:07:05Z</time>
      </trkpt>
      <trkpt lat="45.40555" lon="5.65745">
        <ele>565</ele>
        <time>2019-03-23T14:07:18Z</time>
      </trkpt>
      <trkpt lat="45.40557" lon="5.65749">
        <ele>566</ele>
        <time>2019-03-23T14:07:21Z</time>
      </trkpt>
      <trkpt lat="45.40558" lon="5.65771">
        <ele>569</ele>
        <time>2019-03-23T14:07:35Z</time>
      </trkpt>
      <trkpt lat="45.40568" lon="5.65797">
        <ele>572</ele>
        <time>2019-03-23T14:07:52Z</time>
      </trkpt>
      <trkpt lat="45.40572" lon="5.6581">
        <ele>574</ele>
        <time>2019-03-23T14:08:01Z</time>
      </trkpt>
      <trkpt lat="45.40552" lon="5.6583">
        <ele>575</ele>
        <time>2019-03-23T14:08:13Z</time>
      </trkpt>
      <trkpt lat="45.4051" lon="5.65836">
        <ele>574</ele>
        <time>2019-03-23T14:08:27Z</time>
      </trkpt>
      <trkpt lat="45.40462" lon="5.65837">
        <ele>576</ele>
        <time>2019-03-23T14:08:44Z</time>
      </trkpt>
      <trkpt lat="45.40422" lon="5.65838">
        <ele>579</ele>
        <time>2019-03-23T14:09:01Z</time>
      </trkpt>
      <trkpt lat="45.40389" lon="5.65862">
        <ele>581</ele>
        <time>2019-03-23T14:09:18Z</time>
      </trkpt>
      <trkpt lat="45.4036" lon="5.65891">
        <ele>583</ele>
        <time>2019-03-23T14:09:35Z</time>
      </trkpt>
      <trkpt lat="45.4034" lon="5.65896">
        <ele>585</ele>
        <time>2019-03-23T14:09:48Z</time>
      </trkpt>
      <trkpt lat="45.40311" lon="5.65892">
        <ele>588</ele>
        <time>2019-03-23T14:10:04Z</time>
      </trkpt>
      <trkpt lat="45.40288" lon="5.65907">
        <ele>588</ele>
        <time>2019-03-23T14:10:17Z</time>
      </trkpt>
      <trkpt lat="45.40282" lon="5.6591">
        <ele>588</ele>
        <time>2019-03-23T14:10:20Z</time>
      </trkpt>
      <trkpt lat="45.40247" lon="5.65928">
        <ele>588</ele>
        <time>2019-03-23T14:10:32Z</time>
      </trkpt>
      <trkpt lat="45.40213" lon="5.65945">
        <ele>589</ele>
        <time>2019-03-23T14:10:43Z</time>
      </trkpt>
      <trkpt lat="45.4021" lon="5.65957">
        <ele>589</ele>
        <time>2019-03-23T14:10:53Z</time>
      </trkpt>
      <trkpt lat="45.40209" lon="5.65959">
        <ele>589</ele>
        <time>2019-03-23T14:11:25Z</time>
      </trkpt>
      <trkpt lat="45.40209" lon="5.6596">
        <ele>589</ele>
        <time>2019-03-23T14:11:29Z</time>
      </trkpt>
      <trkpt lat="45.4021" lon="5.65962">
        <ele>589</ele>
        <time>2019-03-23T14:11:31Z</time>
      </trkpt>
      <trkpt lat="45.40225" lon="5.65974">
        <ele>590</ele>
        <time>2019-03-23T14:11:47Z</time>
      </trkpt>
      <trkpt lat="45.40226" lon="5.65975">
        <ele>590</ele>
        <time>2019-03-23T14:11:48Z</time>
      </trkpt>
      <trkpt lat="45.40245" lon="5.65977">
        <ele>593</ele>
        <time>2019-03-23T14:12:05Z</time>
      </trkpt>
      <trkpt lat="45.40246" lon="5.65977">
        <ele>593</ele>
        <time>2019-03-23T14:12:06Z</time>
      </trkpt>
      <trkpt lat="45.40251" lon="5.65978">
        <ele>594</ele>
        <time>2019-03-23T14:12:11Z</time>
      </trkpt>
      <trkpt lat="45.40269" lon="5.65981">
        <ele>597</ele>
        <time>2019-03-23T14:12:26Z</time>
      </trkpt>
      <trkpt lat="45.40283" lon="5.65984">
        <ele>599</ele>
        <time>2019-03-23T14:12:39Z</time>
      </trkpt>
      <trkpt lat="45.40305" lon="5.65993">
        <ele>602</ele>
        <time>2019-03-23T14:12:56Z</time>
      </trkpt>
      <trkpt lat="45.40324" lon="5.66005">
        <ele>604</ele>
        <time>2019-03-23T14:13:11Z</time>
      </trkpt>
      <trkpt lat="45.40326" lon="5.66007">
        <ele>605</ele>
        <time>2019-03-23T14:13:13Z</time>
      </trkpt>
      <trkpt lat="45.40333" lon="5.66012">
        <ele>606</ele>
        <time>2019-03-23T14:13:19Z</time>
      </trkpt>
      <trkpt lat="45.40352" lon="5.66027">
        <ele>607</ele>
        <time>2019-03-23T14:13:34Z</time>
      </trkpt>
      <trkpt lat="45.40372" lon="5.66046">
        <ele>609</ele>
        <time>2019-03-23T14:13:49Z</time>
      </trkpt>
      <trkpt lat="45.40386" lon="5.6606">
        <ele>611</ele>
        <time>2019-03-23T14:14:02Z</time>
      </trkpt>
      <trkpt lat="45.40404" lon="5.66071">
        <ele>615</ele>
        <time>2019-03-23T14:14:19Z</time>
      </trkpt>
      <trkpt lat="45.40423" lon="5.6608">
        <ele>618</ele>
        <time>2019-03-23T14:14:34Z</time>
      </trkpt>
      <trkpt lat="45.40428" lon="5.6608">
        <ele>618</ele>
        <time>2019-03-23T14:14:38Z</time>
      </trkpt>
      <trkpt lat="45.40446" lon="5.66082">
        <ele>622</ele>
        <time>2019-03-23T14:14:54Z</time>
      </trkpt>
      <trkpt lat="45.40459" lon="5.66088">
        <ele>625</ele>
        <time>2019-03-23T14:15:07Z</time>
      </trkpt>
      <trkpt lat="45.40471" lon="5.66092">
        <ele>628</ele>
        <time>2019-03-23T14:15:19Z</time>
      </trkpt>
      <trkpt lat="45.40489" lon="5.66107">
        <ele>631</ele>
        <time>2019-03-23T14:15:36Z</time>
      </trkpt>
      <trkpt lat="45.40507" lon="5.66121">
        <ele>634</ele>
        <time>2019-03-23T14:15:53Z</time>
      </trkpt>
      <trkpt lat="45.40518" lon="5.6613">
        <ele>636</ele>
        <time>2019-03-23T14:16:10Z</time>
      </trkpt>
      <trkpt lat="45.4052" lon="5.66127">
        <ele>636</ele>
        <time>2019-03-23T14:16:48Z</time>
      </trkpt>
      <trkpt lat="45.40524" lon="5.66129">
        <ele>636</ele>
        <time>2019-03-23T14:16:59Z</time>
      </trkpt>
      <trkpt lat="45.40547" lon="5.66136">
        <ele>636</ele>
        <time>2019-03-23T14:17:14Z</time>
      </trkpt>
      <trkpt lat="45.40574" lon="5.66157">
        <ele>637</ele>
        <time>2019-03-23T14:17:30Z</time>
      </trkpt>
      <trkpt lat="45.40597" lon="5.66173">
        <ele>639</ele>
        <time>2019-03-23T14:17:44Z</time>
      </trkpt>
      <trkpt lat="45.4062" lon="5.66188">
        <ele>641</ele>
        <time>2019-03-23T14:17:59Z</time>
      </trkpt>
      <trkpt lat="45.40638" lon="5.66196">
        <ele>642</ele>
        <time>2019-03-23T14:18:12Z</time>
      </trkpt>
      <trkpt lat="45.40659" lon="5.66199">
        <ele>645</ele>
        <time>2019-03-23T14:18:28Z</time>
      </trkpt>
      <trkpt lat="45.40662" lon="5.662">
        <ele>645</ele>
        <time>2019-03-23T14:18:30Z</time>
      </trkpt>
      <trkpt lat="45.40666" lon="5.66202">
        <ele>646</ele>
        <time>2019-03-23T14:18:33Z</time>
      </trkpt>
      <trkpt lat="45.40688" lon="5.66207">
        <ele>647</ele>
        <time>2019-03-23T14:18:49Z</time>
      </trkpt>
      <trkpt lat="45.40707" lon="5.66219">
        <ele>649</ele>
        <time>2019-03-23T14:19:04Z</time>
      </trkpt>
      <trkpt lat="45.40717" lon="5.66225">
        <ele>652</ele>
        <time>2019-03-23T14:19:13Z</time>
      </trkpt>
      <trkpt lat="45.40728" lon="5.66236">
        <ele>655</ele>
        <time>2019-03-23T14:19:24Z</time>
      </trkpt>
      <trkpt lat="45.40737" lon="5.66242">
        <ele>658</ele>
        <time>2019-03-23T14:19:33Z</time>
      </trkpt>
      <trkpt lat="45.40755" lon="5.66253">
        <ele>660</ele>
        <time>2019-03-23T14:19:47Z</time>
      </trkpt>
      <trkpt lat="45.40778" lon="5.66263">
        <ele>663</ele>
        <time>2019-03-23T14:20:03Z</time>
      </trkpt>
      <trkpt lat="45.40798" lon="5.66272">
        <ele>664</ele>
        <time>2019-03-23T14:20:15Z</time>
      </trkpt>
      <trkpt lat="45.40816" lon="5.66276">
        <ele>666</ele>
        <time>2019-03-23T14:20:29Z</time>
      </trkpt>
      <trkpt lat="45.40833" lon="5.66278">
        <ele>669</ele>
        <time>2019-03-23T14:20:44Z</time>
      </trkpt>
      <trkpt lat="45.4085" lon="5.66284">
        <ele>672</ele>
        <time>2019-03-23T14:20:59Z</time>
      </trkpt>
      <trkpt lat="45.40866" lon="5.66291">
        <ele>675</ele>
        <time>2019-03-23T14:21:13Z</time>
      </trkpt>
      <trkpt lat="45.40883" lon="5.66297">
        <ele>678</ele>
        <time>2019-03-23T14:21:28Z</time>
      </trkpt>
      <trkpt lat="45.409" lon="5.66296">
        <ele>681</ele>
        <time>2019-03-23T14:21:41Z</time>
      </trkpt>
      <trkpt lat="45.40911" lon="5.66297">
        <ele>684</ele>
        <time>2019-03-23T14:21:53Z</time>
      </trkpt>
      <trkpt lat="45.4093" lon="5.66298">
        <ele>687</ele>
        <time>2019-03-23T14:22:11Z</time>
      </trkpt>
      <trkpt lat="45.40938" lon="5.66295">
        <ele>688</ele>
        <time>2019-03-23T14:22:18Z</time>
      </trkpt>
      <trkpt lat="45.40954" lon="5.66279">
        <ele>691</ele>
        <time>2019-03-23T14:22:34Z</time>
      </trkpt>
      <trkpt lat="45.40975" lon="5.66265">
        <ele>692</ele>
        <time>2019-03-23T14:22:51Z</time>
      </trkpt>
      <trkpt lat="45.40991" lon="5.6625">
        <ele>694</ele>
        <time>2019-03-23T14:23:04Z</time>
      </trkpt>
      <trkpt lat="45.40998" lon="5.66246">
        <ele>695</ele>
        <time>2019-03-23T14:23:11Z</time>
      </trkpt>
      <trkpt lat="45.41012" lon="5.66254">
        <ele>698</ele>
        <time>2019-03-23T14:23:25Z</time>
      </trkpt>
      <trkpt lat="45.41035" lon="5.66266">
        <ele>702</ele>
        <time>2019-03-23T14:23:42Z</time>
      </trkpt>
      <trkpt lat="45.41054" lon="5.66277">
        <ele>703</ele>
        <time>2019-03-23T14:23:57Z</time>
      </trkpt>
      <trkpt lat="45.41074" lon="5.66277">
        <ele>704</ele>
        <time>2019-03-23T14:24:09Z</time>
      </trkpt>
      <trkpt lat="45.411" lon="5.66279">
        <ele>705</ele>
        <time>2019-03-23T14:24:23Z</time>
      </trkpt>
      <trkpt lat="45.41121" lon="5.66271">
        <ele>707</ele>
        <time>2019-03-23T14:24:37Z</time>
      </trkpt>
      <trkpt lat="45.41141" lon="5.66252">
        <ele>710</ele>
        <time>2019-03-23T14:24:54Z</time>
      </trkpt>
      <trkpt lat="45.41162" lon="5.66235">
        <ele>713</ele>
        <time>2019-03-23T14:25:13Z</time>
      </trkpt>
      <trkpt lat="45.41177" lon="5.66224">
        <ele>716</ele>
        <time>2019-03-23T14:25:26Z</time>
      </trkpt>
      <trkpt lat="45.4118" lon="5.66186">
        <ele>719</ele>
        <time>2019-03-23T14:25:46Z</time>
      </trkpt>
      <trkpt lat="45.41184" lon="5.6616">
        <ele>722</ele>
        <time>2019-03-23T14:26:02Z</time>
      </trkpt>
      <trkpt lat="45.41188" lon="5.66138">
        <ele>725</ele>
        <time>2019-03-23T14:26:16Z</time>
      </trkpt>
      <trkpt lat="45.41192" lon="5.66118">
        <ele>728</ele>
        <time>2019-03-23T14:26:30Z</time>
      </trkpt>
      <trkpt lat="45.41198" lon="5.66102">
        <ele>731</ele>
        <time>2019-03-23T14:26:41Z</time>
      </trkpt>
      <trkpt lat="45.41206" lon="5.66087">
        <ele>734</ele>
        <time>2019-03-23T14:26:54Z</time>
      </trkpt>
      <trkpt lat="45.41217" lon="5.66072">
        <ele>737</ele>
        <time>2019-03-23T14:27:08Z</time>
      </trkpt>
      <trkpt lat="45.41235" lon="5.66059">
        <ele>739</ele>
        <time>2019-03-23T14:27:26Z</time>
      </trkpt>
      <trkpt lat="45.41251" lon="5.6605">
        <ele>742</ele>
        <time>2019-03-23T14:27:42Z</time>
      </trkpt>
      <trkpt lat="45.41271" lon="5.66041">
        <ele>745</ele>
        <time>2019-03-23T14:28:00Z</time>
      </trkpt>
      <trkpt lat="45.41285" lon="5.66036">
        <ele>747</ele>
        <time>2019-03-23T14:28:14Z</time>
      </trkpt>
      <trkpt lat="45.41289" lon="5.66033">
        <ele>748</ele>
        <time>2019-03-23T14:28:18Z</time>
      </trkpt>
      <trkpt lat="45.41309" lon="5.66025">
        <ele>751</ele>
        <time>2019-03-23T14:28:36Z</time>
      </trkpt>
      <trkpt lat="45.41333" lon="5.66013">
        <ele>752</ele>
        <time>2019-03-23T14:28:51Z</time>
      </trkpt>
      <trkpt lat="45.41359" lon="5.65997">
        <ele>754</ele>
        <time>2019-03-23T14:29:06Z</time>
      </trkpt>
      <trkpt lat="45.41383" lon="5.65976">
        <ele>756</ele>
        <time>2019-03-23T14:29:20Z</time>
      </trkpt>
      <trkpt lat="45.41403" lon="5.65963">
        <ele>758</ele>
        <time>2019-03-23T14:29:33Z</time>
      </trkpt>
      <trkpt lat="45.41429" lon="5.65934">
        <ele>758</ele>
        <time>2019-03-23T14:29:46Z</time>
      </trkpt>
      <trkpt lat="45.4144" lon="5.65883">
        <ele>760</ele>
        <time>2019-03-23T14:30:00Z</time>
      </trkpt>
      <trkpt lat="45.41453" lon="5.65854">
        <ele>762</ele>
        <time>2019-03-23T14:30:12Z</time>
      </trkpt>
      <trkpt lat="45.41467" lon="5.65837">
        <ele>765</ele>
        <time>2019-03-23T14:30:22Z</time>
      </trkpt>
      <trkpt lat="45.41469" lon="5.65836">
        <ele>765</ele>
        <time>2019-03-23T14:30:23Z</time>
      </trkpt>
      <trkpt lat="45.4147" lon="5.65835">
        <ele>765</ele>
        <time>2019-03-23T14:30:24Z</time>
      </trkpt>
      <trkpt lat="45.41501" lon="5.65818">
        <ele>767</ele>
        <time>2019-03-23T14:30:42Z</time>
      </trkpt>
      <trkpt lat="45.41509" lon="5.65818">
        <ele>768</ele>
        <time>2019-03-23T14:30:47Z</time>
      </trkpt>
      <trkpt lat="45.4151" lon="5.65818">
        <ele>768</ele>
        <time>2019-03-23T14:31:03Z</time>
      </trkpt>
      <trkpt lat="45.41511" lon="5.65817">
        <ele>768</ele>
        <time>2019-03-23T14:31:32Z</time>
      </trkpt>
      <trkpt lat="45.41518" lon="5.65818">
        <ele>768</ele>
        <time>2019-03-23T14:31:52Z</time>
      </trkpt>
      <trkpt lat="45.41524" lon="5.65822">
        <ele>768</ele>
        <time>2019-03-23T14:31:56Z</time>
      </trkpt>
      <trkpt lat="45.41525" lon="5.65824">
        <ele>768</ele>
        <time>2019-03-23T14:31:57Z</time>
      </trkpt>
      <trkpt lat="45.41526" lon="5.65825">
        <ele>768</ele>
        <time>2019-03-23T14:31:58Z</time>
      </trkpt>
      <trkpt lat="45.41556" lon="5.65852">
        <ele>770</ele>
        <time>2019-03-23T14:32:18Z</time>
      </trkpt>
      <trkpt lat="45.41585" lon="5.65853">
        <ele>771</ele>
        <time>2019-03-23T14:32:34Z</time>
      </trkpt>
      <trkpt lat="45.41618" lon="5.65852">
        <ele>773</ele>
        <time>2019-03-23T14:32:52Z</time>
      </trkpt>
      <trkpt lat="45.41643" lon="5.65855">
        <ele>775</ele>
        <time>2019-03-23T14:33:07Z</time>
      </trkpt>
      <trkpt lat="45.41676" lon="5.65863">
        <ele>776</ele>
        <time>2019-03-23T14:33:24Z</time>
      </trkpt>
      <trkpt lat="45.41699" lon="5.6586">
        <ele>779</ele>
        <time>2019-03-23T14:33:36Z</time>
      </trkpt>
      <trkpt lat="45.417" lon="5.65859">
        <ele>779</ele>
        <time>2019-03-23T14:33:37Z</time>
      </trkpt>
      <trkpt lat="45.41721" lon="5.65846">
        <ele>782</ele>
        <time>2019-03-23T14:33:52Z</time>
      </trkpt>
      <trkpt lat="45.4174" lon="5.65834">
        <ele>785</ele>
        <time>2019-03-23T14:34:07Z</time>
      </trkpt>
      <trkpt lat="45.41754" lon="5.65818">
        <ele>788</ele>
        <time>2019-03-23T14:34:20Z</time>
      </trkpt>
      <trkpt lat="45.41765" lon="5.65789">
        <ele>791</ele>
        <time>2019-03-23T14:34:37Z</time>
      </trkpt>
      <trkpt lat="45.4178" lon="5.6578">
        <ele>794</ele>
        <time>2019-03-23T14:34:51Z</time>
      </trkpt>
      <trkpt lat="45.41798" lon="5.65783">
        <ele>797</ele>
        <time>2019-03-23T14:35:06Z</time>
      </trkpt>
      <trkpt lat="45.41816" lon="5.65789">
        <ele>801</ele>
        <time>2019-03-23T14:35:21Z</time>
      </trkpt>
      <trkpt lat="45.41842" lon="5.65794">
        <ele>803</ele>
        <time>2019-03-23T14:35:43Z</time>
      </trkpt>
      <trkpt lat="45.41867" lon="5.65773">
        <ele>806</ele>
        <time>2019-03-23T14:36:03Z</time>
      </trkpt>
      <trkpt lat="45.41886" lon="5.65758">
        <ele>809</ele>
        <time>2019-03-23T14:36:18Z</time>
      </trkpt>
      <trkpt lat="45.41905" lon="5.6575">
        <ele>811</ele>
        <time>2019-03-23T14:36:34Z</time>
      </trkpt>
      <trkpt lat="45.41928" lon="5.65747">
        <ele>813</ele>
        <time>2019-03-23T14:36:50Z</time>
      </trkpt>
      <trkpt lat="45.41949" lon="5.6574">
        <ele>816</ele>
        <time>2019-03-23T14:37:06Z</time>
      </trkpt>
      <trkpt lat="45.4197" lon="5.65743">
        <ele>819</ele>
        <time>2019-03-23T14:37:23Z</time>
      </trkpt>
      <trkpt lat="45.41984" lon="5.65759">
        <ele>822</ele>
        <time>2019-03-23T14:37:39Z</time>
      </trkpt>
      <trkpt lat="45.41985" lon="5.6576">
        <ele>823</ele>
        <time>2019-03-23T14:37:40Z</time>
      </trkpt>
      <trkpt lat="45.41997" lon="5.65772">
        <ele>826</ele>
        <time>2019-03-23T14:37:52Z</time>
      </trkpt>
      <trkpt lat="45.42011" lon="5.65781">
        <ele>829</ele>
        <time>2019-03-23T14:38:06Z</time>
      </trkpt>
      <trkpt lat="45.42023" lon="5.65792">
        <ele>832</ele>
        <time>2019-03-23T14:38:20Z</time>
      </trkpt>
      <trkpt lat="45.42036" lon="5.65815">
        <ele>834</ele>
        <time>2019-03-23T14:38:36Z</time>
      </trkpt>
      <trkpt lat="45.42052" lon="5.65839">
        <ele>835</ele>
        <time>2019-03-23T14:38:54Z</time>
      </trkpt>
      <trkpt lat="45.42052" lon="5.6584">
        <ele>836</ele>
        <time>2019-03-23T14:39:10Z</time>
      </trkpt>
      <trkpt lat="45.42052" lon="5.6584">
        <ele>836</ele>
        <time>2019-03-23T14:39:42Z</time>
      </trkpt>
      <trkpt lat="45.42051" lon="5.6584">
        <ele>836</ele>
        <time>2019-03-23T14:40:53Z</time>
      </trkpt>
      <trkpt lat="45.42052" lon="5.6584">
        <ele>836</ele>
        <time>2019-03-23T14:41:51Z</time>
      </trkpt>
      <trkpt lat="45.42051" lon="5.6584">
        <ele>836</ele>
        <time>2019-03-23T14:42:39Z</time>
      </trkpt>
      <trkpt lat="45.42051" lon="5.6584">
        <ele>836</ele>
        <time>2019-03-23T14:44:01Z</time>
      </trkpt>
      <trkpt lat="45.42051" lon="5.65838">
        <ele>836</ele>
        <time>2019-03-23T14:44:20Z</time>
      </trkpt>
      <trkpt lat="45.42051" lon="5.65837">
        <ele>836</ele>
        <time>2019-03-23T14:44:48Z</time>
      </trkpt>
      <trkpt lat="45.42054" lon="5.65843">
        <ele>836</ele>
        <time>2019-03-23T14:45:13Z</time>
      </trkpt>
      <trkpt lat="45.42068" lon="5.65863">
        <ele>837</ele>
        <time>2019-03-23T14:45:26Z</time>
      </trkpt>
      <trkpt lat="45.42093" lon="5.65886">
        <ele>839</ele>
        <time>2019-03-23T14:45:44Z</time>
      </trkpt>
      <trkpt lat="45.42119" lon="5.65904">
        <ele>841</ele>
        <time>2019-03-23T14:46:02Z</time>
      </trkpt>
      <trkpt lat="45.42148" lon="5.65917">
        <ele>844</ele>
        <time>2019-03-23T14:46:22Z</time>
      </trkpt>
      <trkpt lat="45.42176" lon="5.6594">
        <ele>846</ele>
        <time>2019-03-23T14:46:43Z</time>
      </trkpt>
      <trkpt lat="45.42194" lon="5.6596">
        <ele>847</ele>
        <time>2019-03-23T14:46:59Z</time>
      </trkpt>
      <trkpt lat="45.42219" lon="5.65987">
        <ele>848</ele>
        <time>2019-03-23T14:47:15Z</time>
      </trkpt>
      <trkpt lat="45.42237" lon="5.66004">
        <ele>849</ele>
        <time>2019-03-23T14:47:27Z</time>
      </trkpt>
      <trkpt lat="45.42259" lon="5.66023">
        <ele>851</ele>
        <time>2019-03-23T14:47:42Z</time>
      </trkpt>
      <trkpt lat="45.42279" lon="5.66042">
        <ele>853</ele>
        <time>2019-03-23T14:47:56Z</time>
      </trkpt>
      <trkpt lat="45.42284" lon="5.66049">
        <ele>854</ele>
        <time>2019-03-23T14:48:01Z</time>
      </trkpt>
      <trkpt lat="45.4229" lon="5.66054">
        <ele>854</ele>
        <time>2019-03-23T14:48:06Z</time>
      </trkpt>
      <trkpt lat="45.42296" lon="5.66058">
        <ele>855</ele>
        <time>2019-03-23T14:48:11Z</time>
      </trkpt>
      <trkpt lat="45.42315" lon="5.66079">
        <ele>856</ele>
        <time>2019-03-23T14:48:24Z</time>
      </trkpt>
      <trkpt lat="45.42323" lon="5.6609">
        <ele>857</ele>
        <time>2019-03-23T14:48:30Z</time>
      </trkpt>
      <trkpt lat="45.4233" lon="5.66101">
        <ele>857</ele>
        <time>2019-03-23T14:48:36Z</time>
      </trkpt>
      <trkpt lat="45.42338" lon="5.66109">
        <ele>858</ele>
        <time>2019-03-23T14:48:40Z</time>
      </trkpt>
      <trkpt lat="45.42351" lon="5.66117">
        <ele>858</ele>
        <time>2019-03-23T14:48:45Z</time>
      </trkpt>
      <trkpt lat="45.42397" lon="5.6614">
        <ele>860</ele>
        <time>2019-03-23T14:49:03Z</time>
      </trkpt>
      <trkpt lat="45.42431" lon="5.66159">
        <ele>861</ele>
        <time>2019-03-23T14:49:18Z</time>
      </trkpt>
      <trkpt lat="45.42457" lon="5.6618">
        <ele>861</ele>
        <time>2019-03-23T14:49:30Z</time>
      </trkpt>
      <trkpt lat="45.42478" lon="5.66205">
        <ele>862</ele>
        <time>2019-03-23T14:49:41Z</time>
      </trkpt>
      <trkpt lat="45.4248" lon="5.66209">
        <ele>863</ele>
        <time>2019-03-23T14:49:43Z</time>
      </trkpt>
      <trkpt lat="45.42493" lon="5.66236">
        <ele>864</ele>
        <time>2019-03-23T14:49:52Z</time>
      </trkpt>
      <trkpt lat="45.42508" lon="5.66264">
        <ele>865</ele>
        <time>2019-03-23T14:50:03Z</time>
      </trkpt>
      <trkpt lat="45.42516" lon="5.66295">
        <ele>867</ele>
        <time>2019-03-23T14:50:17Z</time>
      </trkpt>
      <trkpt lat="45.42522" lon="5.66313">
        <ele>868</ele>
        <time>2019-03-23T14:50:24Z</time>
      </trkpt>
      <trkpt lat="45.42531" lon="5.66342">
        <ele>870</ele>
        <time>2019-03-23T14:50:38Z</time>
      </trkpt>
      <trkpt lat="45.42534" lon="5.66343">
        <ele>870</ele>
        <time>2019-03-23T14:50:40Z</time>
      </trkpt>
      <trkpt lat="45.42551" lon="5.66321">
        <ele>872</ele>
        <time>2019-03-23T14:50:55Z</time>
      </trkpt>
      <trkpt lat="45.42557" lon="5.66309">
        <ele>873</ele>
        <time>2019-03-23T14:51:03Z</time>
      </trkpt>
      <trkpt lat="45.42561" lon="5.66304">
        <ele>874</ele>
        <time>2019-03-23T14:51:07Z</time>
      </trkpt>
      <trkpt lat="45.42574" lon="5.66296">
        <ele>876</ele>
        <time>2019-03-23T14:51:22Z</time>
      </trkpt>
      <trkpt lat="45.42575" lon="5.66294">
        <ele>875</ele>
        <time>2019-03-23T14:51:58Z</time>
      </trkpt>
      <trkpt lat="45.42578" lon="5.66271">
        <ele>881</ele>
        <time>2019-03-23T15:28:40Z</time>
      </trkpt>
      <trkpt lat="45.42577" lon="5.66267">
        <ele>882</ele>
        <time>2019-03-23T15:28:43Z</time>
      </trkpt>
      <trkpt lat="45.42576" lon="5.66244">
        <ele>885</ele>
        <time>2019-03-23T15:28:59Z</time>
      </trkpt>
      <trkpt lat="45.4258" lon="5.66232">
        <ele>886</ele>
        <time>2019-03-23T15:29:08Z</time>
      </trkpt>
      <trkpt lat="45.42586" lon="5.66211">
        <ele>888</ele>
        <time>2019-03-23T15:29:19Z</time>
      </trkpt>
      <trkpt lat="45.4259" lon="5.66206">
        <ele>888</ele>
        <time>2019-03-23T15:29:23Z</time>
      </trkpt>
      <trkpt lat="45.42594" lon="5.66193">
        <ele>889</ele>
        <time>2019-03-23T15:29:29Z</time>
      </trkpt>
      <trkpt lat="45.426" lon="5.66183">
        <ele>889</ele>
        <time>2019-03-23T15:29:34Z</time>
      </trkpt>
      <trkpt lat="45.42614" lon="5.66163">
        <ele>891</ele>
        <time>2019-03-23T15:29:46Z</time>
      </trkpt>
      <trkpt lat="45.42616" lon="5.66151">
        <ele>892</ele>
        <time>2019-03-23T15:29:52Z</time>
      </trkpt>
      <trkpt lat="45.42624" lon="5.66137">
        <ele>894</ele>
        <time>2019-03-23T15:30:00Z</time>
      </trkpt>
      <trkpt lat="45.42631" lon="5.66109">
        <ele>895</ele>
        <time>2019-03-23T15:30:13Z</time>
      </trkpt>
      <trkpt lat="45.42632" lon="5.66092">
        <ele>895</ele>
        <time>2019-03-23T15:30:22Z</time>
      </trkpt>
      <trkpt lat="45.42629" lon="5.66085">
        <ele>895</ele>
        <time>2019-03-23T15:30:26Z</time>
      </trkpt>
      <trkpt lat="45.42615" lon="5.66055">
        <ele>893</ele>
        <time>2019-03-23T15:30:38Z</time>
      </trkpt>
      <trkpt lat="45.42606" lon="5.66045">
        <ele>891</ele>
        <time>2019-03-23T15:30:44Z</time>
      </trkpt>
      <trkpt lat="45.42581" lon="5.66012">
        <ele>889</ele>
        <time>2019-03-23T15:30:54Z</time>
      </trkpt>
      <trkpt lat="45.42569" lon="5.66002">
        <ele>888</ele>
        <time>2019-03-23T15:31:02Z</time>
      </trkpt>
      <trkpt lat="45.42563" lon="5.66001">
        <ele>889</ele>
        <time>2019-03-23T15:31:10Z</time>
      </trkpt>
      <trkpt lat="45.42548" lon="5.65994">
        <ele>889</ele>
        <time>2019-03-23T15:31:18Z</time>
      </trkpt>
      <trkpt lat="45.42537" lon="5.6597">
        <ele>890</ele>
        <time>2019-03-23T15:31:28Z</time>
      </trkpt>
      <trkpt lat="45.42526" lon="5.65961">
        <ele>889</ele>
        <time>2019-03-23T15:31:33Z</time>
      </trkpt>
      <trkpt lat="45.42498" lon="5.65932">
        <ele>889</ele>
        <time>2019-03-23T15:31:44Z</time>
      </trkpt>
      <trkpt lat="45.42496" lon="5.65931">
        <ele>890</ele>
        <time>2019-03-23T15:31:45Z</time>
      </trkpt>
      <trkpt lat="45.42478" lon="5.65923">
        <ele>890</ele>
        <time>2019-03-23T15:31:53Z</time>
      </trkpt>
      <trkpt lat="45.42456" lon="5.65884">
        <ele>889</ele>
        <time>2019-03-23T15:32:04Z</time>
      </trkpt>
      <trkpt lat="45.42449" lon="5.6587">
        <ele>888</ele>
        <time>2019-03-23T15:32:08Z</time>
      </trkpt>
      <trkpt lat="45.42443" lon="5.65851">
        <ele>888</ele>
        <time>2019-03-23T15:32:14Z</time>
      </trkpt>
      <trkpt lat="45.42428" lon="5.65837">
        <ele>888</ele>
        <time>2019-03-23T15:32:19Z</time>
      </trkpt>
      <trkpt lat="45.42418" lon="5.65811">
        <ele>887</ele>
        <time>2019-03-23T15:32:26Z</time>
      </trkpt>
      <trkpt lat="45.42413" lon="5.65795">
        <ele>885</ele>
        <time>2019-03-23T15:32:30Z</time>
      </trkpt>
      <trkpt lat="45.4241" lon="5.6578">
        <ele>885</ele>
        <time>2019-03-23T15:32:34Z</time>
      </trkpt>
      <trkpt lat="45.4239" lon="5.65769">
        <ele>885</ele>
        <time>2019-03-23T15:32:42Z</time>
      </trkpt>
      <trkpt lat="45.42362" lon="5.65771">
        <ele>880</ele>
        <time>2019-03-23T15:32:47Z</time>
      </trkpt>
      <trkpt lat="45.42347" lon="5.65759">
        <ele>877</ele>
        <time>2019-03-23T15:32:51Z</time>
      </trkpt>
      <trkpt lat="45.42344" lon="5.65748">
        <ele>875</ele>
        <time>2019-03-23T15:33:00Z</time>
      </trkpt>
      <trkpt lat="45.42344" lon="5.65747">
        <ele>875</ele>
        <time>2019-03-23T15:33:33Z</time>
      </trkpt>
      <trkpt lat="45.42343" lon="5.65746">
        <ele>875</ele>
        <time>2019-03-23T15:33:57Z</time>
      </trkpt>
      <trkpt lat="45.42342" lon="5.65744">
        <ele>875</ele>
        <time>2019-03-23T15:33:58Z</time>
      </trkpt>
      <trkpt lat="45.42334" lon="5.6573">
        <ele>875</ele>
        <time>2019-03-23T15:34:03Z</time>
      </trkpt>
      <trkpt lat="45.4232" lon="5.65699">
        <ele>873</ele>
        <time>2019-03-23T15:34:08Z</time>
      </trkpt>
      <trkpt lat="45.42293" lon="5.65666">
        <ele>869</ele>
        <time>2019-03-23T15:34:13Z</time>
      </trkpt>
      <trkpt lat="45.42279" lon="5.65653">
        <ele>865</ele>
        <time>2019-03-23T15:34:15Z</time>
      </trkpt>
      <trkpt lat="45.42249" lon="5.65633">
        <ele>860</ele>
        <time>2019-03-23T15:34:19Z</time>
      </trkpt>
      <trkpt lat="45.42228" lon="5.65616">
        <ele>857</ele>
        <time>2019-03-23T15:34:22Z</time>
      </trkpt>
      <trkpt lat="45.42213" lon="5.65608">
        <ele>855</ele>
        <time>2019-03-23T15:34:24Z</time>
      </trkpt>
      <trkpt lat="45.42192" lon="5.65588">
        <ele>853</ele>
        <time>2019-03-23T15:34:27Z</time>
      </trkpt>
      <trkpt lat="45.42175" lon="5.65565">
        <ele>851</ele>
        <time>2019-03-23T15:34:30Z</time>
      </trkpt>
      <trkpt lat="45.4217" lon="5.65526">
        <ele>849</ele>
        <time>2019-03-23T15:34:36Z</time>
      </trkpt>
      <trkpt lat="45.42171" lon="5.65501">
        <ele>850</ele>
        <time>2019-03-23T15:34:40Z</time>
      </trkpt>
      <trkpt lat="45.42183" lon="5.65466">
        <ele>848</ele>
        <time>2019-03-23T15:34:46Z</time>
      </trkpt>
      <trkpt lat="45.42187" lon="5.65433">
        <ele>844</ele>
        <time>2019-03-23T15:34:51Z</time>
      </trkpt>
      <trkpt lat="45.42183" lon="5.654">
        <ele>839</ele>
        <time>2019-03-23T15:34:57Z</time>
      </trkpt>
      <trkpt lat="45.4202" lon="5.652">
        <ele>824</ele>
      </trkpt>
      <trkpt lat="45.41905" lon="5.65104">
        <ele>821</ele>
      </trkpt>
      <trkpt lat="45.41847" lon="5.64947">
        <ele>793</ele>
      </trkpt>
      <trkpt lat="45.419" lon="5.64926">
        <ele>812.384216</ele>
      </trkpt>
      <trkpt lat="45.41991" lon="5.64962">
        <ele>831</ele>
      </trkpt>
      <trkpt lat="45.42199" lon="5.64757">
        <ele>846</ele>
        <time>2019-03-23T15:41:34Z</time>
      </trkpt>
      <trkpt lat="45.422" lon="5.64744">
        <ele>845</ele>
        <time>2019-03-23T15:41:50Z</time>
      </trkpt>
      <trkpt lat="45.42201" lon="5.64743">
        <ele>845</ele>
        <time>2019-03-23T15:41:52Z</time>
      </trkpt>
      <trkpt lat="45.42212" lon="5.64715">
        <ele>844</ele>
        <time>2019-03-23T15:42:00Z</time>
      </trkpt>
      <trkpt lat="45.42211" lon="5.64694">
        <ele>843</ele>
        <time>2019-03-23T15:42:04Z</time>
      </trkpt>
      <trkpt lat="45.4222" lon="5.64649">
        <ele>840</ele>
        <time>2019-03-23T15:42:10Z</time>
      </trkpt>
      <trkpt lat="45.42227" lon="5.64616">
        <ele>837</ele>
        <time>2019-03-23T15:42:14Z</time>
      </trkpt>
      <trkpt lat="45.4223" lon="5.64609">
        <ele>836</ele>
        <time>2019-03-23T15:42:15Z</time>
      </trkpt>
      <trkpt lat="45.42235" lon="5.64592">
        <ele>834</ele>
        <time>2019-03-23T15:42:17Z</time>
      </trkpt>
      <trkpt lat="45.42246" lon="5.64551">
        <ele>831</ele>
        <time>2019-03-23T15:42:21Z</time>
      </trkpt>
      <trkpt lat="45.42264" lon="5.64505">
        <ele>828</ele>
        <time>2019-03-23T15:42:26Z</time>
      </trkpt>
      <trkpt lat="45.42267" lon="5.64497">
        <ele>827</ele>
        <time>2019-03-23T15:42:27Z</time>
      </trkpt>
      <trkpt lat="45.42268" lon="5.64489">
        <ele>827</ele>
        <time>2019-03-23T15:42:28Z</time>
      </trkpt>
      <trkpt lat="45.42269" lon="5.64483">
        <ele>826</ele>
        <time>2019-03-23T15:42:29Z</time>
      </trkpt>
      <trkpt lat="45.42269" lon="5.64479">
        <ele>826</ele>
        <time>2019-03-23T15:42:30Z</time>
      </trkpt>
      <trkpt lat="45.42269" lon="5.64471">
        <ele>825</ele>
        <time>2019-03-23T15:42:32Z</time>
      </trkpt>
      <trkpt lat="45.42267" lon="5.64454">
        <ele>825</ele>
        <time>2019-03-23T15:42:37Z</time>
      </trkpt>
      <trkpt lat="45.42266" lon="5.64451">
        <ele>825</ele>
        <time>2019-03-23T15:42:38Z</time>
      </trkpt>
      <trkpt lat="45.42244" lon="5.64424">
        <ele>826</ele>
        <time>2019-03-23T15:42:52Z</time>
      </trkpt>
      <trkpt lat="45.42223" lon="5.64426">
        <ele>828</ele>
        <time>2019-03-23T15:43:07Z</time>
      </trkpt>
      <trkpt lat="45.42222" lon="5.64427">
        <ele>828</ele>
        <time>2019-03-23T15:43:08Z</time>
      </trkpt>
      <trkpt lat="45.42218" lon="5.64431">
        <ele>830</ele>
        <time>2019-03-23T15:43:12Z</time>
      </trkpt>
      <trkpt lat="45.42213" lon="5.64435">
        <ele>830</ele>
        <time>2019-03-23T15:43:15Z</time>
      </trkpt>
      <trkpt lat="45.42208" lon="5.6444">
        <ele>831</ele>
        <time>2019-03-23T15:43:19Z</time>
      </trkpt>
      <trkpt lat="45.42198" lon="5.64449">
        <ele>833</ele>
        <time>2019-03-23T15:43:27Z</time>
      </trkpt>
      <trkpt lat="45.42177" lon="5.64463">
        <ele>837</ele>
        <time>2019-03-23T15:43:42Z</time>
      </trkpt>
      <trkpt lat="45.4217" lon="5.64466">
        <ele>837</ele>
        <time>2019-03-23T15:43:47Z</time>
      </trkpt>
      <trkpt lat="45.42164" lon="5.64466">
        <ele>838</ele>
        <time>2019-03-23T15:43:51Z</time>
      </trkpt>
      <trkpt lat="45.42156" lon="5.64459">
        <ele>838</ele>
        <time>2019-03-23T15:44:04Z</time>
      </trkpt>
      <trkpt lat="45.42154" lon="5.64456">
        <ele>838</ele>
        <time>2019-03-23T15:44:27Z</time>
      </trkpt>
      <trkpt lat="45.4215" lon="5.64444">
        <ele>838</ele>
        <time>2019-03-23T15:44:31Z</time>
      </trkpt>
      <trkpt lat="45.42138" lon="5.64418">
        <ele>837</ele>
        <time>2019-03-23T15:44:35Z</time>
      </trkpt>
      <trkpt lat="45.42121" lon="5.6439">
        <ele>834</ele>
        <time>2019-03-23T15:44:39Z</time>
      </trkpt>
      <trkpt lat="45.42104" lon="5.64374">
        <ele>832</ele>
        <time>2019-03-23T15:44:42Z</time>
      </trkpt>
      <trkpt lat="45.42083" lon="5.64367">
        <ele>831</ele>
        <time>2019-03-23T15:44:45Z</time>
      </trkpt>
      <trkpt lat="45.42038" lon="5.64368">
        <ele>827</ele>
        <time>2019-03-23T15:44:51Z</time>
      </trkpt>
      <trkpt lat="45.42014" lon="5.64384">
        <ele>828</ele>
        <time>2019-03-23T15:44:57Z</time>
      </trkpt>
      <trkpt lat="45.41957" lon="5.6447">
        <ele>826</ele>
        <time>2019-03-23T15:45:14Z</time>
      </trkpt>
      <trkpt lat="45.41924" lon="5.64524">
        <ele>826</ele>
        <time>2019-03-23T15:45:27Z</time>
      </trkpt>
      <trkpt lat="45.41873" lon="5.6461">
        <ele>825</ele>
        <time>2019-03-23T15:45:42Z</time>
      </trkpt>
      <trkpt lat="45.41831" lon="5.6468">
        <ele>826</ele>
        <time>2019-03-23T15:45:57Z</time>
      </trkpt>
      <trkpt lat="45.41814" lon="5.6472">
        <ele>829</ele>
        <time>2019-03-23T15:46:09Z</time>
      </trkpt>
      <trkpt lat="45.41801" lon="5.64781">
        <ele>831</ele>
        <time>2019-03-23T15:46:27Z</time>
      </trkpt>
      <trkpt lat="45.41804" lon="5.64818">
        <ele>830</ele>
        <time>2019-03-23T15:46:39Z</time>
      </trkpt>
      <trkpt lat="45.41805" lon="5.64823">
        <ele>830</ele>
        <time>2019-03-23T15:46:42Z</time>
      </trkpt>
      <trkpt lat="45.41811" lon="5.64863">
        <ele>827</ele>
        <time>2019-03-23T15:46:50Z</time>
      </trkpt>
      <trkpt lat="45.41809" lon="5.64897">
        <ele>825</ele>
        <time>2019-03-23T15:46:54Z</time>
      </trkpt>
      <trkpt lat="45.41787" lon="5.64939">
        <ele>822</ele>
        <time>2019-03-23T15:47:00Z</time>
      </trkpt>
      <trkpt lat="45.4177" lon="5.64949">
        <ele>821</ele>
        <time>2019-03-23T15:47:03Z</time>
      </trkpt>
      <trkpt lat="45.41764" lon="5.64951">
        <ele>820</ele>
        <time>2019-03-23T15:47:04Z</time>
      </trkpt>
      <trkpt lat="45.41759" lon="5.64952">
        <ele>820</ele>
        <time>2019-03-23T15:47:05Z</time>
      </trkpt>
      <trkpt lat="45.4175" lon="5.64953">
        <ele>820</ele>
        <time>2019-03-23T15:47:07Z</time>
      </trkpt>
      <trkpt lat="45.4172" lon="5.6495">
        <ele>821</ele>
        <time>2019-03-23T15:47:14Z</time>
      </trkpt>
      <trkpt lat="45.41644" lon="5.64908">
        <ele>819</ele>
        <time>2019-03-23T15:47:30Z</time>
      </trkpt>
      <trkpt lat="45.41621" lon="5.64895">
        <ele>819</ele>
        <time>2019-03-23T15:47:35Z</time>
      </trkpt>
      <trkpt lat="45.41617" lon="5.64891">
        <ele>819</ele>
        <time>2019-03-23T15:47:36Z</time>
      </trkpt>
      <trkpt lat="45.41608" lon="5.64882">
        <ele>819</ele>
        <time>2019-03-23T15:47:38Z</time>
      </trkpt>
      <trkpt lat="45.41575" lon="5.64841">
        <ele>817</ele>
        <time>2019-03-23T15:47:45Z</time>
      </trkpt>
      <trkpt lat="45.41514" lon="5.64793">
        <ele>815</ele>
        <time>2019-03-23T15:47:57Z</time>
      </trkpt>
      <trkpt lat="45.41473" lon="5.64758">
        <ele>812</ele>
        <time>2019-03-23T15:48:03Z</time>
      </trkpt>
      <trkpt lat="45.41427" lon="5.64733">
        <ele>808</ele>
        <time>2019-03-23T15:48:10Z</time>
      </trkpt>
      <trkpt lat="45.41397" lon="5.64725">
        <ele>807</ele>
        <time>2019-03-23T15:48:16Z</time>
      </trkpt>
      <trkpt lat="45.41381" lon="5.64722">
        <ele>806</ele>
        <time>2019-03-23T15:48:19Z</time>
      </trkpt>
      <trkpt lat="45.41376" lon="5.6472">
        <ele>805</ele>
        <time>2019-03-23T15:48:20Z</time>
      </trkpt>
      <trkpt lat="45.41366" lon="5.64715">
        <ele>804</ele>
        <time>2019-03-23T15:48:22Z</time>
      </trkpt>
      <trkpt lat="45.41361" lon="5.64714">
        <ele>803</ele>
        <time>2019-03-23T15:48:23Z</time>
      </trkpt>
      <trkpt lat="45.41357" lon="5.64714">
        <ele>802</ele>
        <time>2019-03-23T15:48:24Z</time>
      </trkpt>
      <trkpt lat="45.41353" lon="5.64717">
        <ele>801</ele>
        <time>2019-03-23T15:48:25Z</time>
      </trkpt>
      <trkpt lat="45.41349" lon="5.64722">
        <ele>801</ele>
        <time>2019-03-23T15:48:26Z</time>
      </trkpt>
      <trkpt lat="45.41346" lon="5.64728">
        <ele>801</ele>
        <time>2019-03-23T15:48:27Z</time>
      </trkpt>
      <trkpt lat="45.41344" lon="5.64734">
        <ele>800</ele>
        <time>2019-03-23T15:48:28Z</time>
      </trkpt>
      <trkpt lat="45.41341" lon="5.6474">
        <ele>799</ele>
        <time>2019-03-23T15:48:29Z</time>
      </trkpt>
      <trkpt lat="45.41339" lon="5.64747">
        <ele>799</ele>
        <time>2019-03-23T15:48:30Z</time>
      </trkpt>
      <trkpt lat="45.41337" lon="5.64754">
        <ele>798</ele>
        <time>2019-03-23T15:48:31Z</time>
      </trkpt>
      <trkpt lat="45.41332" lon="5.64769">
        <ele>796</ele>
        <time>2019-03-23T15:48:33Z</time>
      </trkpt>
      <trkpt lat="45.41329" lon="5.64775">
        <ele>795</ele>
        <time>2019-03-23T15:48:34Z</time>
      </trkpt>
      <trkpt lat="45.41326" lon="5.64782">
        <ele>794</ele>
        <time>2019-03-23T15:48:35Z</time>
      </trkpt>
      <trkpt lat="45.41321" lon="5.64798">
        <ele>792</ele>
        <time>2019-03-23T15:48:37Z</time>
      </trkpt>
      <trkpt lat="45.41313" lon="5.64829">
        <ele>789</ele>
        <time>2019-03-23T15:48:40Z</time>
      </trkpt>
      <trkpt lat="45.41308" lon="5.64862">
        <ele>785</ele>
        <time>2019-03-23T15:48:43Z</time>
      </trkpt>
      <trkpt lat="45.41302" lon="5.64888">
        <ele>781</ele>
        <time>2019-03-23T15:48:46Z</time>
      </trkpt>
      <trkpt lat="45.41299" lon="5.64893">
        <ele>780</ele>
        <time>2019-03-23T15:48:47Z</time>
      </trkpt>
      <trkpt lat="45.41297" lon="5.64896">
        <ele>779</ele>
        <time>2019-03-23T15:48:48Z</time>
      </trkpt>
      <trkpt lat="45.41294" lon="5.64898">
        <ele>778</ele>
        <time>2019-03-23T15:48:49Z</time>
      </trkpt>
      <trkpt lat="45.41292" lon="5.64899">
        <ele>777</ele>
        <time>2019-03-23T15:48:50Z</time>
      </trkpt>
      <trkpt lat="45.4129" lon="5.64899">
        <ele>777</ele>
        <time>2019-03-23T15:48:51Z</time>
      </trkpt>
      <trkpt lat="45.41289" lon="5.64898">
        <ele>776</ele>
        <time>2019-03-23T15:49:04Z</time>
      </trkpt>
      <trkpt lat="45.41287" lon="5.64896">
        <ele>776</ele>
        <time>2019-03-23T15:49:28Z</time>
      </trkpt>
      <trkpt lat="45.41284" lon="5.64897">
        <ele>776</ele>
        <time>2019-03-23T15:49:30Z</time>
      </trkpt>
      <trkpt lat="45.41282" lon="5.64898">
        <ele>776</ele>
        <time>2019-03-23T15:49:31Z</time>
      </trkpt>
      <trkpt lat="45.41279" lon="5.649">
        <ele>776</ele>
        <time>2019-03-23T15:49:33Z</time>
      </trkpt>
      <trkpt lat="45.41276" lon="5.64901">
        <ele>776</ele>
        <time>2019-03-23T15:49:34Z</time>
      </trkpt>
      <trkpt lat="45.41231" lon="5.64901">
        <ele>777</ele>
        <time>2019-03-23T15:49:48Z</time>
      </trkpt>
      <trkpt lat="45.412" lon="5.64893">
        <ele>779</ele>
        <time>2019-03-23T15:50:02Z</time>
      </trkpt>
      <trkpt lat="45.41186" lon="5.6486">
        <ele>782</ele>
        <time>2019-03-23T15:50:17Z</time>
      </trkpt>
      <trkpt lat="45.41182" lon="5.64823">
        <ele>784</ele>
        <time>2019-03-23T15:50:33Z</time>
      </trkpt>
      <trkpt lat="45.41162" lon="5.64799">
        <ele>787</ele>
        <time>2019-03-23T15:50:47Z</time>
      </trkpt>
      <trkpt lat="45.41131" lon="5.64789">
        <ele>790</ele>
        <time>2019-03-23T15:51:04Z</time>
      </trkpt>
      <trkpt lat="45.41083" lon="5.64801">
        <ele>790</ele>
        <time>2019-03-23T15:51:20Z</time>
      </trkpt>
      <trkpt lat="45.4104" lon="5.64798">
        <ele>791</ele>
        <time>2019-03-23T15:51:35Z</time>
      </trkpt>
      <trkpt lat="45.41001" lon="5.64754">
        <ele>790</ele>
        <time>2019-03-23T15:51:47Z</time>
      </trkpt>
      <trkpt lat="45.40989" lon="5.64735">
        <ele>790</ele>
        <time>2019-03-23T15:51:51Z</time>
      </trkpt>
      <trkpt lat="45.40963" lon="5.64701">
        <ele>784</ele>
        <time>2019-03-23T15:52:04Z</time>
      </trkpt>
      <trkpt lat="45.40948" lon="5.64684">
        <ele>784</ele>
        <time>2019-03-23T15:52:05Z</time>
      </trkpt>
      <trkpt lat="45.40953" lon="5.64592">
        <ele>792</ele>
        <time>2019-03-23T15:52:06Z</time>
      </trkpt>
      <trkpt lat="45.40964" lon="5.64522">
        <ele>799</ele>
        <time>2019-03-23T15:52:07Z</time>
      </trkpt>
      <trkpt lat="45.40947" lon="5.64412">
        <ele>802</ele>
        <time>2019-03-23T15:52:08Z</time>
      </trkpt>
      <trkpt lat="45.40897" lon="5.64272">
        <ele>802</ele>
        <time>2019-03-23T15:52:10Z</time>
      </trkpt>
      <trkpt lat="45.4091" lon="5.64209">
        <ele>811</ele>
        <time>2019-03-23T15:55:36Z</time>
      </trkpt>
      <trkpt lat="45.40979" lon="5.64088">
        <ele>805</ele>
        <time>2019-03-23T15:55:37Z</time>
      </trkpt>
      <trkpt lat="45.41033" lon="5.64005">
        <ele>805</ele>
        <time>2019-03-23T15:55:42Z</time>
      </trkpt>
      <trkpt lat="45.41028" lon="5.63966">
        <ele>794</ele>
        <time>2019-03-23T15:55:43Z</time>
      </trkpt>
      <trkpt lat="45.40993" lon="5.63984">
        <ele>783</ele>
        <time>2019-03-23T15:55:46Z</time>
      </trkpt>
      <trkpt lat="45.4097" lon="5.64011">
        <ele>781</ele>
        <time>2019-03-23T15:55:49Z</time>
      </trkpt>
      <trkpt lat="45.40943" lon="5.64022">
        <ele>776</ele>
        <time>2019-03-23T15:55:50Z</time>
      </trkpt>
      <trkpt lat="45.40997" lon="5.63945">
        <ele>777</ele>
        <time>2019-03-23T15:55:53Z</time>
      </trkpt>
      <trkpt lat="45.41025" lon="5.63845">
        <ele>765</ele>
        <time>2019-03-23T15:55:57Z</time>
      </trkpt>
      <trkpt lat="45.41031" lon="5.63788">
        <ele>755</ele>
        <time>2019-03-23T15:55:59Z</time>
      </trkpt>
      <trkpt lat="45.41038" lon="5.63766">
        <ele>755</ele>
        <time>2019-03-23T15:56:01Z</time>
      </trkpt>
      <trkpt lat="45.41035" lon="5.63734">
        <ele>745</ele>
        <time>2019-03-23T15:56:05Z</time>
      </trkpt>
      <trkpt lat="45.4102" lon="5.63682">
        <ele>728</ele>
        <time>2019-03-23T15:56:08Z</time>
      </trkpt>
      <trkpt lat="45.41021" lon="5.63656">
        <ele>723</ele>
        <time>2019-03-23T15:56:09Z</time>
      </trkpt>
      <trkpt lat="45.4104" lon="5.63612">
        <ele>717</ele>
        <time>2019-03-23T15:56:12Z</time>
      </trkpt>
      <trkpt lat="45.40952" lon="5.63572">
        <ele>695</ele>
        <time>2019-03-23T15:56:15Z</time>
      </trkpt>
      <trkpt lat="45.40781" lon="5.63415">
        <ele>668</ele>
        <time>2019-03-23T15:56:18Z</time>
      </trkpt>
      <trkpt lat="45.40691" lon="5.6333">
        <ele>660</ele>
        <time>2019-03-23T15:56:22Z</time>
      </trkpt>
      <trkpt lat="45.40643" lon="5.63432">
        <ele>663</ele>
        <time>2019-03-23T15:56:26Z</time>
      </trkpt>
      <trkpt lat="45.40573" lon="5.63471">
        <ele>668</ele>
        <time>2019-03-23T15:56:32Z</time>
      </trkpt>
      <trkpt lat="45.4056" lon="5.63447">
        <ele>666</ele>
        <time>2019-03-23T15:56:37Z</time>
      </trkpt>
      <trkpt lat="45.40549" lon="5.63416">
        <ele>666</ele>
        <time>2019-03-23T15:56:43Z</time>
      </trkpt>
      <trkpt lat="45.40534" lon="5.6338">
        <ele>666</ele>
        <time>2019-03-23T15:56:51Z</time>
      </trkpt>
      <trkpt lat="45.40523" lon="5.63343">
        <ele>667</ele>
        <time>2019-03-23T15:57:03Z</time>
      </trkpt>
      <trkpt lat="45.40525" lon="5.63307">
        <ele>664</ele>
        <time>2019-03-23T15:57:12Z</time>
      </trkpt>
      <trkpt lat="45.40524" lon="5.63268">
        <ele>658</ele>
        <time>2019-03-23T15:57:18Z</time>
      </trkpt>
      <trkpt lat="45.40526" lon="5.63253">
        <ele>656</ele>
        <time>2019-03-23T15:57:21Z</time>
      </trkpt>
      <trkpt lat="45.40512" lon="5.63217">
        <ele>652</ele>
        <time>2019-03-23T15:57:27Z</time>
      </trkpt>
      <trkpt lat="45.40489" lon="5.63168">
        <ele>649</ele>
        <time>2019-03-23T15:57:33Z</time>
      </trkpt>
      <trkpt lat="45.40444" lon="5.63076">
        <ele>646</ele>
        <time>2019-03-23T15:57:47Z</time>
      </trkpt>
      <trkpt lat="45.40416" lon="5.63001">
        <ele>643</ele>
        <time>2019-03-23T15:57:59Z</time>
      </trkpt>
      <trkpt lat="45.40412" lon="5.62989">
        <ele>643</ele>
        <time>2019-03-23T15:58:01Z</time>
      </trkpt>
      <trkpt lat="45.404" lon="5.62964">
        <ele>642</ele>
        <time>2019-03-23T15:58:05Z</time>
      </trkpt>
      <trkpt lat="45.4039" lon="5.62941">
        <ele>641</ele>
        <time>2019-03-23T15:58:08Z</time>
      </trkpt>
      <trkpt lat="45.40382" lon="5.62927">
        <ele>640</ele>
        <time>2019-03-23T15:58:10Z</time>
      </trkpt>
      <trkpt lat="45.40356" lon="5.62871">
        <ele>637</ele>
        <time>2019-03-23T15:58:18Z</time>
      </trkpt>
      <trkpt lat="45.40338" lon="5.62817">
        <ele>636</ele>
        <time>2019-03-23T15:58:25Z</time>
      </trkpt>
      <trkpt lat="45.40335" lon="5.62802">
        <ele>635</ele>
        <time>2019-03-23T15:58:27Z</time>
      </trkpt>
      <trkpt lat="45.4033" lon="5.62771">
        <ele>633</ele>
        <time>2019-03-23T15:58:30Z</time>
      </trkpt>
      <trkpt lat="45.40319" lon="5.6274">
        <ele>630</ele>
        <time>2019-03-23T15:58:33Z</time>
      </trkpt>
      <trkpt lat="45.40312" lon="5.62722">
        <ele>630</ele>
        <time>2019-03-23T15:58:35Z</time>
      </trkpt>
      <trkpt lat="45.40304" lon="5.627">
        <ele>630</ele>
        <time>2019-03-23T15:58:39Z</time>
      </trkpt>
      <trkpt lat="45.40275" lon="5.62615">
        <ele>630</ele>
        <time>2019-03-23T15:58:54Z</time>
      </trkpt>
      <trkpt lat="45.40273" lon="5.6261">
        <ele>630</ele>
        <time>2019-03-23T15:58:55Z</time>
      </trkpt>
      <trkpt lat="45.40244" lon="5.62542">
        <ele>629</ele>
        <time>2019-03-23T15:59:10Z</time>
      </trkpt>
      <trkpt lat="45.40224" lon="5.62472">
        <ele>632</ele>
        <time>2019-03-23T15:59:27Z</time>
      </trkpt>
      <trkpt lat="45.40212" lon="5.62426">
        <ele>633</ele>
        <time>2019-03-23T15:59:42Z</time>
      </trkpt>
      <trkpt lat="45.4021" lon="5.62426">
        <ele>633</ele>
        <time>2019-03-23T16:00:15Z</time>
      </trkpt>
      <trkpt lat="45.40208" lon="5.62427">
        <ele>633</ele>
        <time>2019-03-23T16:01:27Z</time>
      </trkpt>
      <trkpt lat="45.40207" lon="5.62428">
        <ele>633</ele>
        <time>2019-03-23T16:02:29Z</time>
      </trkpt>
      <trkpt lat="45.40199" lon="5.62412">
        <ele>632</ele>
        <time>2019-03-23T16:02:42Z</time>
      </trkpt>
      <trkpt lat="45.40172" lon="5.62387">
        <ele>629</ele>
        <time>2019-03-23T16:02:48Z</time>
      </trkpt>
      <trkpt lat="45.40167" lon="5.62382">
        <ele>629</ele>
        <time>2019-03-23T16:02:49Z</time>
      </trkpt>
      <trkpt lat="45.40156" lon="5.62372">
        <ele>627</ele>
        <time>2019-03-23T16:02:51Z</time>
      </trkpt>
      <trkpt lat="45.4015" lon="5.62365">
        <ele>626</ele>
        <time>2019-03-23T16:02:52Z</time>
      </trkpt>
      <trkpt lat="45.40144" lon="5.62357">
        <ele>625</ele>
        <time>2019-03-23T16:02:53Z</time>
      </trkpt>
      <trkpt lat="45.40123" lon="5.6233">
        <ele>621</ele>
        <time>2019-03-23T16:02:56Z</time>
      </trkpt>
      <trkpt lat="45.40114" lon="5.62321">
        <ele>619</ele>
        <time>2019-03-23T16:02:57Z</time>
      </trkpt>
      <trkpt lat="45.40088" lon="5.62301">
        <ele>616</ele>
        <time>2019-03-23T16:03:00Z</time>
      </trkpt>
      <trkpt lat="45.40044" lon="5.62279">
        <ele>612</ele>
        <time>2019-03-23T16:03:06Z</time>
      </trkpt>
      <trkpt lat="45.40037" lon="5.62277">
        <ele>612</ele>
        <time>2019-03-23T16:03:07Z</time>
      </trkpt>
      <trkpt lat="45.40029" lon="5.62276">
        <ele>611</ele>
        <time>2019-03-23T16:03:08Z</time>
      </trkpt>
      <trkpt lat="45.39983" lon="5.62274">
        <ele>608</ele>
        <time>2019-03-23T16:03:13Z</time>
      </trkpt>
      <trkpt lat="45.39964" lon="5.62272">
        <ele>605</ele>
        <time>2019-03-23T16:03:15Z</time>
      </trkpt>
      <trkpt lat="45.39954" lon="5.62267">
        <ele>605</ele>
        <time>2019-03-23T16:03:16Z</time>
      </trkpt>
      <trkpt lat="45.39946" lon="5.62261">
        <ele>604</ele>
        <time>2019-03-23T16:03:17Z</time>
      </trkpt>
      <trkpt lat="45.39938" lon="5.62252">
        <ele>603</ele>
        <time>2019-03-23T16:03:18Z</time>
      </trkpt>
      <trkpt lat="45.39931" lon="5.62242">
        <ele>602</ele>
        <time>2019-03-23T16:03:19Z</time>
      </trkpt>
      <trkpt lat="45.39925" lon="5.62231">
        <ele>601</ele>
        <time>2019-03-23T16:03:20Z</time>
      </trkpt>
      <trkpt lat="45.39919" lon="5.6222">
        <ele>601</ele>
        <time>2019-03-23T16:03:21Z</time>
      </trkpt>
      <trkpt lat="45.39914" lon="5.62209">
        <ele>600</ele>
        <time>2019-03-23T16:03:22Z</time>
      </trkpt>
      <trkpt lat="45.3991" lon="5.62199">
        <ele>600</ele>
        <time>2019-03-23T16:03:23Z</time>
      </trkpt>
      <trkpt lat="45.39906" lon="5.62189">
        <ele>599</ele>
        <time>2019-03-23T16:03:24Z</time>
      </trkpt>
      <trkpt lat="45.39903" lon="5.62181">
        <ele>599</ele>
        <time>2019-03-23T16:03:25Z</time>
      </trkpt>
      <trkpt lat="45.39887" lon="5.6213">
        <ele>599</ele>
        <time>2019-03-23T16:03:31Z</time>
      </trkpt>
      <trkpt lat="45.39885" lon="5.62121">
        <ele>599</ele>
        <time>2019-03-23T16:03:32Z</time>
      </trkpt>
      <trkpt lat="45.39877" lon="5.62072">
        <ele>597</ele>
        <time>2019-03-23T16:03:37Z</time>
      </trkpt>
      <trkpt lat="45.39875" lon="5.62064">
        <ele>597</ele>
        <time>2019-03-23T16:03:38Z</time>
      </trkpt>
      <trkpt lat="45.39871" lon="5.62057">
        <ele>596</ele>
        <time>2019-03-23T16:03:39Z</time>
      </trkpt>
      <trkpt lat="45.39865" lon="5.62051">
        <ele>596</ele>
        <time>2019-03-23T16:03:40Z</time>
      </trkpt>
      <trkpt lat="45.39858" lon="5.62047">
        <ele>595</ele>
        <time>2019-03-23T16:03:41Z</time>
      </trkpt>
      <trkpt lat="45.39849" lon="5.62044">
        <ele>594</ele>
        <time>2019-03-23T16:03:42Z</time>
      </trkpt>
      <trkpt lat="45.3984" lon="5.62041">
        <ele>593</ele>
        <time>2019-03-23T16:03:43Z</time>
      </trkpt>
      <trkpt lat="45.3981" lon="5.62037">
        <ele>589</ele>
        <time>2019-03-23T16:03:46Z</time>
      </trkpt>
      <trkpt lat="45.39799" lon="5.62038">
        <ele>587</ele>
        <time>2019-03-23T16:03:47Z</time>
      </trkpt>
      <trkpt lat="45.39789" lon="5.62039">
        <ele>584</ele>
        <time>2019-03-23T16:03:48Z</time>
      </trkpt>
      <trkpt lat="45.39768" lon="5.62043">
        <ele>580</ele>
        <time>2019-03-23T16:03:50Z</time>
      </trkpt>
      <trkpt lat="45.39758" lon="5.62044">
        <ele>578</ele>
        <time>2019-03-23T16:03:51Z</time>
      </trkpt>
      <trkpt lat="45.39748" lon="5.62043">
        <ele>577</ele>
        <time>2019-03-23T16:03:52Z</time>
      </trkpt>
      <trkpt lat="45.39739" lon="5.6204">
        <ele>575</ele>
        <time>2019-03-23T16:03:53Z</time>
      </trkpt>
      <trkpt lat="45.39711" lon="5.62027">
        <ele>571</ele>
        <time>2019-03-23T16:03:56Z</time>
      </trkpt>
      <trkpt lat="45.39694" lon="5.62016">
        <ele>568</ele>
        <time>2019-03-23T16:03:58Z</time>
      </trkpt>
      <trkpt lat="45.39687" lon="5.62009">
        <ele>567</ele>
        <time>2019-03-23T16:03:59Z</time>
      </trkpt>
      <trkpt lat="45.39681" lon="5.62002">
        <ele>566</ele>
        <time>2019-03-23T16:04:00Z</time>
      </trkpt>
      <trkpt lat="45.39665" lon="5.61979">
        <ele>563</ele>
        <time>2019-03-23T16:04:04Z</time>
      </trkpt>
      <trkpt lat="45.3966" lon="5.61977">
        <ele>561</ele>
        <time>2019-03-23T16:04:08Z</time>
      </trkpt>
      <trkpt lat="45.3966" lon="5.61978">
        <ele>561</ele>
        <time>2019-03-23T16:04:36Z</time>
      </trkpt>
      <trkpt lat="45.39659" lon="5.61978">
        <ele>561</ele>
        <time>2019-03-23T16:04:37Z</time>
      </trkpt>
      <trkpt lat="45.39657" lon="5.61977">
        <ele>561</ele>
        <time>2019-03-23T16:04:38Z</time>
      </trkpt>
      <trkpt lat="45.39655" lon="5.61977">
        <ele>561</ele>
        <time>2019-03-23T16:04:39Z</time>
      </trkpt>
      <trkpt lat="45.39652" lon="5.61976">
        <ele>560</ele>
        <time>2019-03-23T16:04:40Z</time>
      </trkpt>
      <trkpt lat="45.39649" lon="5.61975">
        <ele>560</ele>
        <time>2019-03-23T16:04:41Z</time>
      </trkpt>
      <trkpt lat="45.39624" lon="5.61973">
        <ele>557</ele>
        <time>2019-03-23T16:04:46Z</time>
      </trkpt>
      <trkpt lat="45.39605" lon="5.61975">
        <ele>553</ele>
        <time>2019-03-23T16:04:50Z</time>
      </trkpt>
      <trkpt lat="45.39589" lon="5.61976">
        <ele>548</ele>
        <time>2019-03-23T16:04:53Z</time>
      </trkpt>
      <trkpt lat="45.39584" lon="5.61976">
        <ele>548</ele>
        <time>2019-03-23T16:04:54Z</time>
      </trkpt>
      <trkpt lat="45.39578" lon="5.61977">
        <ele>546</ele>
        <time>2019-03-23T16:04:55Z</time>
      </trkpt>
      <trkpt lat="45.39548" lon="5.61988">
        <ele>540</ele>
        <time>2019-03-23T16:05:00Z</time>
      </trkpt>
      <trkpt lat="45.39543" lon="5.6199">
        <ele>539</ele>
        <time>2019-03-23T16:05:01Z</time>
      </trkpt>
      <trkpt lat="45.3952" lon="5.62004">
        <ele>534</ele>
        <time>2019-03-23T16:05:06Z</time>
      </trkpt>
      <trkpt lat="45.39493" lon="5.62021">
        <ele>531</ele>
        <time>2019-03-23T16:05:11Z</time>
      </trkpt>
      <trkpt lat="45.39468" lon="5.62041">
        <ele>528</ele>
        <time>2019-03-23T16:05:16Z</time>
      </trkpt>
      <trkpt lat="45.39458" lon="5.6205">
        <ele>527</ele>
        <time>2019-03-23T16:05:18Z</time>
      </trkpt>
      <trkpt lat="45.39443" lon="5.62066">
        <ele>525</ele>
        <time>2019-03-23T16:05:21Z</time>
      </trkpt>
      <trkpt lat="45.39416" lon="5.6208">
        <ele>520</ele>
        <time>2019-03-23T16:05:26Z</time>
      </trkpt>
      <trkpt lat="45.3941" lon="5.62082">
        <ele>520</ele>
        <time>2019-03-23T16:05:27Z</time>
      </trkpt>
      <trkpt lat="45.39391" lon="5.62089">
        <ele>516</ele>
        <time>2019-03-23T16:05:31Z</time>
      </trkpt>
      <trkpt lat="45.39372" lon="5.62103">
        <ele>512</ele>
        <time>2019-03-23T16:05:35Z</time>
      </trkpt>
      <trkpt lat="45.39354" lon="5.62127">
        <ele>508</ele>
        <time>2019-03-23T16:05:39Z</time>
      </trkpt>
      <trkpt lat="45.39349" lon="5.62133">
        <ele>507</ele>
        <time>2019-03-23T16:05:40Z</time>
      </trkpt>
      <trkpt lat="45.39338" lon="5.62144">
        <ele>506</ele>
        <time>2019-03-23T16:05:42Z</time>
      </trkpt>
      <trkpt lat="45.39316" lon="5.62165">
        <ele>503</ele>
        <time>2019-03-23T16:05:46Z</time>
      </trkpt>
      <trkpt lat="45.39298" lon="5.62182">
        <ele>501</ele>
        <time>2019-03-23T16:05:49Z</time>
      </trkpt>
      <trkpt lat="45.39258" lon="5.62212">
        <ele>496</ele>
        <time>2019-03-23T16:05:55Z</time>
      </trkpt>
      <trkpt lat="45.39234" lon="5.62227">
        <ele>493</ele>
        <time>2019-03-23T16:05:59Z</time>
      </trkpt>
      <trkpt lat="45.39222" lon="5.62235">
        <ele>491</ele>
        <time>2019-03-23T16:06:01Z</time>
      </trkpt>
      <trkpt lat="45.39198" lon="5.62243">
        <ele>487</ele>
        <time>2019-03-23T16:06:05Z</time>
      </trkpt>
      <trkpt lat="45.3917" lon="5.62246">
        <ele>484</ele>
        <time>2019-03-23T16:06:09Z</time>
      </trkpt>
      <trkpt lat="45.39156" lon="5.62246">
        <ele>482</ele>
        <time>2019-03-23T16:06:11Z</time>
      </trkpt>
      <trkpt lat="45.39149" lon="5.62248">
        <ele>481</ele>
        <time>2019-03-23T16:06:12Z</time>
      </trkpt>
      <trkpt lat="45.39142" lon="5.6225">
        <ele>480</ele>
        <time>2019-03-23T16:06:13Z</time>
      </trkpt>
      <trkpt lat="45.39135" lon="5.62254">
        <ele>479</ele>
        <time>2019-03-23T16:06:14Z</time>
      </trkpt>
      <trkpt lat="45.39129" lon="5.62258">
        <ele>478</ele>
        <time>2019-03-23T16:06:15Z</time>
      </trkpt>
      <trkpt lat="45.3911" lon="5.62268">
        <ele>474</ele>
        <time>2019-03-23T16:06:18Z</time>
      </trkpt>
      <trkpt lat="45.39095" lon="5.62273">
        <ele>471</ele>
        <time>2019-03-23T16:06:21Z</time>
      </trkpt>
      <trkpt lat="45.39091" lon="5.62272">
        <ele>471</ele>
        <time>2019-03-23T16:06:22Z</time>
      </trkpt>
      <trkpt lat="45.39089" lon="5.6227">
        <ele>470</ele>
        <time>2019-03-23T16:06:23Z</time>
      </trkpt>
      <trkpt lat="45.39088" lon="5.62266">
        <ele>469</ele>
        <time>2019-03-23T16:06:24Z</time>
      </trkpt>
      <trkpt lat="45.39088" lon="5.62262">
        <ele>468</ele>
        <time>2019-03-23T16:06:25Z</time>
      </trkpt>
      <trkpt lat="45.39089" lon="5.6225">
        <ele>466</ele>
        <time>2019-03-23T16:06:36Z</time>
      </trkpt>
      <trkpt lat="45.39089" lon="5.6225">
        <ele>465</ele>
        <time>2019-03-23T16:07:13Z</time>
      </trkpt>
      <trkpt lat="45.3909" lon="5.62249">
        <ele>465</ele>
        <time>2019-03-23T16:07:36Z</time>
      </trkpt>
      <trkpt lat="45.39089" lon="5.62249">
        <ele>465</ele>
        <time>2019-03-23T16:08:06Z</time>
      </trkpt>
      <trkpt lat="45.39089" lon="5.62255">
        <ele>465</ele>
        <time>2019-03-23T16:08:23Z</time>
      </trkpt>
      <trkpt lat="45.3909" lon="5.62253">
        <ele>465</ele>
        <time>2019-03-23T16:08:40Z</time>
      </trkpt>
      <trkpt lat="45.39091" lon="5.62251">
        <ele>465</ele>
        <time>2019-03-23T16:08:41Z</time>
      </trkpt>
      <trkpt lat="45.39092" lon="5.62249">
        <ele>465</ele>
        <time>2019-03-23T16:08:42Z</time>
      </trkpt>
      <trkpt lat="45.39092" lon="5.62246">
        <ele>465</ele>
        <time>2019-03-23T16:08:43Z</time>
      </trkpt>
      <trkpt lat="45.39092" lon="5.62242">
        <ele>465</ele>
        <time>2019-03-23T16:08:44Z</time>
      </trkpt>
      <trkpt lat="45.39092" lon="5.62239">
        <ele>465</ele>
        <time>2019-03-23T16:08:45Z</time>
      </trkpt>
      <trkpt lat="45.39092" lon="5.62234">
        <ele>465</ele>
        <time>2019-03-23T16:08:46Z</time>
      </trkpt>
      <trkpt lat="45.39092" lon="5.62229">
        <ele>465</ele>
        <time>2019-03-23T16:08:47Z</time>
      </trkpt>
      <trkpt lat="45.39093" lon="5.62217">
        <ele>464</ele>
        <time>2019-03-23T16:08:49Z</time>
      </trkpt>
      <trkpt lat="45.39099" lon="5.62177">
        <ele>463</ele>
        <time>2019-03-23T16:08:54Z</time>
      </trkpt>
      <trkpt lat="45.39107" lon="5.62154">
        <ele>462</ele>
        <time>2019-03-23T16:08:57Z</time>
      </trkpt>
      <trkpt lat="45.39113" lon="5.6214">
        <ele>461</ele>
        <time>2019-03-23T16:08:59Z</time>
      </trkpt>
      <trkpt lat="45.39117" lon="5.62134">
        <ele>461</ele>
        <time>2019-03-23T16:09:00Z</time>
      </trkpt>
      <trkpt lat="45.39143" lon="5.62085">
        <ele>459</ele>
        <time>2019-03-23T16:09:11Z</time>
      </trkpt>
      <trkpt lat="45.39143" lon="5.62081">
        <ele>459</ele>
        <time>2019-03-23T16:09:12Z</time>
      </trkpt>
      <trkpt lat="45.39142" lon="5.62076">
        <ele>458</ele>
        <time>2019-03-23T16:09:13Z</time>
      </trkpt>
      <trkpt lat="45.39143" lon="5.6207">
        <ele>458</ele>
        <time>2019-03-23T16:09:14Z</time>
      </trkpt>
      <trkpt lat="45.39145" lon="5.62063">
        <ele>458</ele>
        <time>2019-03-23T16:09:15Z</time>
      </trkpt>
      <trkpt lat="45.39145" lon="5.62055">
        <ele>458</ele>
        <time>2019-03-23T16:09:16Z</time>
      </trkpt>
      <trkpt lat="45.39144" lon="5.62046">
        <ele>458</ele>
        <time>2019-03-23T16:09:17Z</time>
      </trkpt>
      <trkpt lat="45.39132" lon="5.62021">
        <ele>456</ele>
        <time>2019-03-23T16:09:20Z</time>
      </trkpt>
      <trkpt lat="45.39116" lon="5.62002">
        <ele>454</ele>
        <time>2019-03-23T16:09:23Z</time>
      </trkpt>
      <trkpt lat="45.39073" lon="5.61945">
        <ele>453</ele>
        <time>2019-03-23T16:09:33Z</time>
      </trkpt>
      <trkpt lat="45.39068" lon="5.61938">
        <ele>452</ele>
        <time>2019-03-23T16:09:34Z</time>
      </trkpt>
      <trkpt lat="45.39043" lon="5.61911">
        <ele>451</ele>
        <time>2019-03-23T16:09:39Z</time>
      </trkpt>
      <trkpt lat="45.39005" lon="5.61906">
        <ele>450</ele>
        <time>2019-03-23T16:09:46Z</time>
      </trkpt>
      <trkpt lat="45.38985" lon="5.61907">
        <ele>450</ele>
        <time>2019-03-23T16:09:50Z</time>
      </trkpt>
      <trkpt lat="45.38976" lon="5.61907">
        <ele>450</ele>
        <time>2019-03-23T16:09:52Z</time>
      </trkpt>
      <trkpt lat="45.38942" lon="5.61925">
        <ele>449</ele>
        <time>2019-03-23T16:09:59Z</time>
      </trkpt>
      <trkpt lat="45.38931" lon="5.61928">
        <ele>448</ele>
        <time>2019-03-23T16:10:01Z</time>
      </trkpt>
      <trkpt lat="45.38902" lon="5.61951">
        <ele>448</ele>
        <time>2019-03-23T16:10:07Z</time>
      </trkpt>
      <trkpt lat="45.38878" lon="5.61986">
        <ele>447</ele>
        <time>2019-03-23T16:10:13Z</time>
      </trkpt>
      <trkpt lat="45.38841" lon="5.61996">
        <ele>446</ele>
        <time>2019-03-23T16:10:22Z</time>
      </trkpt>
      <trkpt lat="45.38832" lon="5.61988">
        <ele>446</ele>
        <time>2019-03-23T16:10:24Z</time>
      </trkpt>
      <trkpt lat="45.38808" lon="5.61963">
        <ele>445</ele>
        <time>2019-03-23T16:10:30Z</time>
      </trkpt>
      <trkpt lat="45.38785" lon="5.61936">
        <ele>445</ele>
        <time>2019-03-23T16:10:37Z</time>
      </trkpt>
      <trkpt lat="45.3877" lon="5.61927">
        <ele>445</ele>
        <time>2019-03-23T16:10:41Z</time>
      </trkpt>
      <trkpt lat="45.38734" lon="5.61905">
        <ele>447</ele>
        <time>2019-03-23T16:10:54Z</time>
      </trkpt>
      <trkpt lat="45.38708" lon="5.61899">
        <ele>449</ele>
        <time>2019-03-23T16:11:07Z</time>
      </trkpt>
      <trkpt lat="45.38695" lon="5.61894">
        <ele>451</ele>
        <time>2019-03-23T16:11:17Z</time>
      </trkpt>
      <trkpt lat="45.38693" lon="5.61881">
        <ele>451</ele>
        <time>2019-03-23T16:11:24Z</time>
      </trkpt>
      <trkpt lat="45.38693" lon="5.61839">
        <ele>454</ele>
        <time>2019-03-23T16:11:42Z</time>
      </trkpt>
      <trkpt lat="45.38691" lon="5.61802">
        <ele>456</ele>
        <time>2019-03-23T16:11:58Z</time>
      </trkpt>
      <trkpt lat="45.38692" lon="5.61764">
        <ele>459</ele>
        <time>2019-03-23T16:12:16Z</time>
      </trkpt>
      <trkpt lat="45.38693" lon="5.61728">
        <ele>462</ele>
        <time>2019-03-23T16:12:35Z</time>
      </trkpt>
      <trkpt lat="45.38696" lon="5.61691">
        <ele>465</ele>
        <time>2019-03-23T16:12:54Z</time>
      </trkpt>
      <trkpt lat="45.387" lon="5.61654">
        <ele>467</ele>
        <time>2019-03-23T16:13:14Z</time>
      </trkpt>
      <trkpt lat="45.38696" lon="5.61626">
        <ele>470</ele>
        <time>2019-03-23T16:13:31Z</time>
      </trkpt>
      <trkpt lat="45.38692" lon="5.61615">
        <ele>471</ele>
        <time>2019-03-23T16:13:39Z</time>
      </trkpt>
      <trkpt lat="45.38686" lon="5.61587">
        <ele>475</ele>
        <time>2019-03-23T16:13:57Z</time>
      </trkpt>
      <trkpt lat="45.38685" lon="5.6156">
        <ele>478</ele>
        <time>2019-03-23T16:14:15Z</time>
      </trkpt>
      <trkpt lat="45.38684" lon="5.61536">
        <ele>481</ele>
        <time>2019-03-23T16:14:31Z</time>
      </trkpt>
      <trkpt lat="45.38684" lon="5.61504">
        <ele>484</ele>
        <time>2019-03-23T16:14:51Z</time>
      </trkpt>
      <trkpt lat="45.38684" lon="5.61477">
        <ele>487</ele>
        <time>2019-03-23T16:15:07Z</time>
      </trkpt>
      <trkpt lat="45.38684" lon="5.61452">
        <ele>490</ele>
        <time>2019-03-23T16:15:22Z</time>
      </trkpt>
      <trkpt lat="45.38683" lon="5.61431">
        <ele>493</ele>
        <time>2019-03-23T16:15:36Z</time>
      </trkpt>
      <trkpt lat="45.38681" lon="5.61411">
        <ele>497</ele>
        <time>2019-03-23T16:15:49Z</time>
      </trkpt>
      <trkpt lat="45.38675" lon="5.61385">
        <ele>499</ele>
        <time>2019-03-23T16:16:05Z</time>
      </trkpt>
      <trkpt lat="45.38655" lon="5.61354">
        <ele>502</ele>
        <time>2019-03-23T16:16:24Z</time>
      </trkpt>
      <trkpt lat="45.38628" lon="5.61337">
        <ele>503</ele>
        <time>2019-03-23T16:16:38Z</time>
      </trkpt>
      <trkpt lat="45.38567" lon="5.61338">
        <ele>505</ele>
        <time>2019-03-23T16:17:03Z</time>
      </trkpt>
      <trkpt lat="45.38522" lon="5.61337">
        <ele>506</ele>
        <time>2019-03-23T16:17:22Z</time>
      </trkpt>
      <trkpt lat="45.38507" lon="5.61335">
        <ele>507</ele>
        <time>2019-03-23T16:17:35Z</time>
      </trkpt>
      <trkpt lat="45.38506" lon="5.61334">
        <ele>507</ele>
        <time>2019-03-23T16:18:05Z</time>
      </trkpt>
      <trkpt lat="45.38504" lon="5.61335">
        <ele>507</ele>
        <time>2019-03-23T16:18:19Z</time>
      </trkpt>
      <trkpt lat="45.38502" lon="5.61333">
        <ele>507</ele>
        <time>2019-03-23T16:18:29Z</time>
      </trkpt>
      <trkpt lat="45.385" lon="5.61333">
        <ele>507</ele>
        <time>2019-03-23T16:18:30Z</time>
      </trkpt>
      <trkpt lat="45.38498" lon="5.61332">
        <ele>507</ele>
        <time>2019-03-23T16:18:31Z</time>
      </trkpt>
      <trkpt lat="45.3845" lon="5.6132">
        <ele>508</ele>
        <time>2019-03-23T16:18:49Z</time>
      </trkpt>
      <trkpt lat="45.38392" lon="5.6129">
        <ele>509</ele>
        <time>2019-03-23T16:19:08Z</time>
      </trkpt>
      <trkpt lat="45.38346" lon="5.61259">
        <ele>511</ele>
        <time>2019-03-23T16:19:26Z</time>
      </trkpt>
      <trkpt lat="45.38322" lon="5.61263">
        <ele>512</ele>
        <time>2019-03-23T16:19:37Z</time>
      </trkpt>
      <trkpt lat="45.38316" lon="5.61332">
        <ele>512</ele>
        <time>2019-03-23T16:19:52Z</time>
      </trkpt>
      <trkpt lat="45.38314" lon="5.61404">
        <ele>511</ele>
        <time>2019-03-23T16:20:05Z</time>
      </trkpt>
      <trkpt lat="45.38313" lon="5.61407">
        <ele>511</ele>
        <time>2019-03-23T16:20:06Z</time>
      </trkpt>
      <trkpt lat="45.38304" lon="5.61408">
        <ele>510</ele>
        <time>2019-03-23T16:20:10Z</time>
      </trkpt>
      <trkpt lat="45.3827" lon="5.61411">
        <ele>513</ele>
        <time>2019-03-23T16:20:29Z</time>
      </trkpt>
      <trkpt lat="45.38253" lon="5.61419">
        <ele>515</ele>
        <time>2019-03-23T16:20:43Z</time>
      </trkpt>
      <trkpt lat="45.38248" lon="5.61451">
        <ele>518</ele>
        <time>2019-03-23T16:20:58Z</time>
      </trkpt>
      <trkpt lat="45.38252" lon="5.61494">
        <ele>518</ele>
        <time>2019-03-23T16:21:11Z</time>
      </trkpt>
      <trkpt lat="45.38251" lon="5.61523">
        <ele>518</ele>
        <time>2019-03-23T16:21:19Z</time>
      </trkpt>
      <trkpt lat="45.38251" lon="5.61546">
        <ele>519</ele>
        <time>2019-03-23T16:21:25Z</time>
      </trkpt>
      <trkpt lat="45.38238" lon="5.61596">
        <ele>521</ele>
        <time>2019-03-23T16:21:40Z</time>
      </trkpt>
      <trkpt lat="45.3823" lon="5.61611">
        <ele>522</ele>
        <time>2019-03-23T16:21:47Z</time>
      </trkpt>
      <trkpt lat="45.38225" lon="5.61619">
        <ele>523</ele>
        <time>2019-03-23T16:21:51Z</time>
      </trkpt>
      <trkpt lat="45.38211" lon="5.61641">
        <ele>525</ele>
        <time>2019-03-23T16:22:04Z</time>
      </trkpt>
      <trkpt lat="45.38206" lon="5.6165">
        <ele>526</ele>
        <time>2019-03-23T16:22:09Z</time>
      </trkpt>
      <trkpt lat="45.38203" lon="5.61658">
        <ele>526</ele>
        <time>2019-03-23T16:22:12Z</time>
      </trkpt>
      <trkpt lat="45.38191" lon="5.61683">
        <ele>528</ele>
        <time>2019-03-23T16:22:23Z</time>
      </trkpt>
      <trkpt lat="45.38186" lon="5.61691">
        <ele>528</ele>
        <time>2019-03-23T16:22:27Z</time>
      </trkpt>
      <trkpt lat="45.38172" lon="5.61714">
        <ele>529</ele>
        <time>2019-03-23T16:22:38Z</time>
      </trkpt>
      <trkpt lat="45.38158" lon="5.61733">
        <ele>530</ele>
        <time>2019-03-23T16:22:47Z</time>
      </trkpt>
      <trkpt lat="45.3814" lon="5.61753">
        <ele>532</ele>
        <time>2019-03-23T16:23:00Z</time>
      </trkpt>
      <trkpt lat="45.3813" lon="5.61765">
        <ele>533</ele>
        <time>2019-03-23T16:23:08Z</time>
      </trkpt>
      <trkpt lat="45.38123" lon="5.61772">
        <ele>534</ele>
        <time>2019-03-23T16:23:14Z</time>
      </trkpt>
      <trkpt lat="45.38113" lon="5.61783">
        <ele>535</ele>
        <time>2019-03-23T16:23:22Z</time>
      </trkpt>
      <trkpt lat="45.38106" lon="5.61788">
        <ele>536</ele>
        <time>2019-03-23T16:23:27Z</time>
      </trkpt>
      <trkpt lat="45.381" lon="5.61794">
        <ele>537</ele>
        <time>2019-03-23T16:23:33Z</time>
      </trkpt>
      <trkpt lat="45.38088" lon="5.61799">
        <ele>540</ele>
        <time>2019-03-23T16:23:44Z</time>
      </trkpt>
      <trkpt lat="45.38075" lon="5.61802">
        <ele>541</ele>
        <time>2019-03-23T16:23:54Z</time>
      </trkpt>
      <trkpt lat="45.38056" lon="5.61802">
        <ele>544</ele>
        <time>2019-03-23T16:24:10Z</time>
      </trkpt>
      <trkpt lat="45.38042" lon="5.61808">
        <ele>547</ele>
        <time>2019-03-23T16:24:24Z</time>
      </trkpt>
      <trkpt lat="45.38024" lon="5.61822">
        <ele>550</ele>
        <time>2019-03-23T16:24:40Z</time>
      </trkpt>
      <trkpt lat="45.38008" lon="5.61841">
        <ele>551</ele>
        <time>2019-03-23T16:24:56Z</time>
      </trkpt>
      <trkpt lat="45.38001" lon="5.61847">
        <ele>552</ele>
        <time>2019-03-23T16:25:02Z</time>
      </trkpt>
      <trkpt lat="45.37996" lon="5.61855">
        <ele>553</ele>
        <time>2019-03-23T16:25:18Z</time>
      </trkpt>
      <trkpt lat="45.37994" lon="5.61857">
        <ele>553</ele>
        <time>2019-03-23T16:25:46Z</time>
      </trkpt>
      <trkpt lat="45.37992" lon="5.61861">
        <ele>553</ele>
        <time>2019-03-23T16:25:59Z</time>
      </trkpt>
      <trkpt lat="45.37973" lon="5.61883">
        <ele>553</ele>
        <time>2019-03-23T16:26:12Z</time>
      </trkpt>
      <trkpt lat="45.37965" lon="5.61894">
        <ele>554</ele>
        <time>2019-03-23T16:26:17Z</time>
      </trkpt>
      <trkpt lat="45.37959" lon="5.61902">
        <ele>554</ele>
        <time>2019-03-23T16:26:21Z</time>
      </trkpt>
      <trkpt lat="45.37936" lon="5.61939">
        <ele>553</ele>
        <time>2019-03-23T16:26:32Z</time>
      </trkpt>
      <trkpt lat="45.37913" lon="5.61977">
        <ele>552</ele>
        <time>2019-03-23T16:26:41Z</time>
      </trkpt>
      <trkpt lat="45.37898" lon="5.62006">
        <ele>552</ele>
        <time>2019-03-23T16:26:49Z</time>
      </trkpt>
      <trkpt lat="45.37885" lon="5.62032">
        <ele>553</ele>
        <time>2019-03-23T16:27:00Z</time>
      </trkpt>
      <trkpt lat="45.37882" lon="5.6204">
        <ele>553</ele>
        <time>2019-03-23T16:27:04Z</time>
      </trkpt>
      <trkpt lat="45.37871" lon="5.62053">
        <ele>556</ele>
        <time>2019-03-23T16:27:20Z</time>
      </trkpt>
      <trkpt lat="45.37872" lon="5.62056">
        <ele>556</ele>
        <time>2019-03-23T16:27:27Z</time>
      </trkpt>
      <trkpt lat="45.37873" lon="5.62062">
        <ele>556</ele>
        <time>2019-03-23T16:27:29Z</time>
      </trkpt>
      <trkpt lat="45.3787" lon="5.62079">
        <ele>552</ele>
        <time>2019-03-23T16:27:38Z</time>
      </trkpt>
      <trkpt lat="45.37869" lon="5.62078">
        <ele>552</ele>
        <time>2019-03-23T16:28:04Z</time>
      </trkpt>
      <trkpt lat="45.37867" lon="5.62086">
        <ele>552</ele>
        <time>2019-03-23T16:28:27Z</time>
      </trkpt>
      <trkpt lat="45.37864" lon="5.62093">
        <ele>552</ele>
        <time>2019-03-23T16:28:29Z</time>
      </trkpt>
      <trkpt lat="45.37862" lon="5.62121">
        <ele>549</ele>
        <time>2019-03-23T16:28:35Z</time>
      </trkpt>
      <trkpt lat="45.37855" lon="5.62146">
        <ele>546</ele>
        <time>2019-03-23T16:28:40Z</time>
      </trkpt>
      <trkpt lat="45.37853" lon="5.62157">
        <ele>546</ele>
        <time>2019-03-23T16:28:42Z</time>
      </trkpt>
      <trkpt lat="45.37848" lon="5.62175">
        <ele>545</ele>
        <time>2019-03-23T16:28:46Z</time>
      </trkpt>
      <trkpt lat="45.37846" lon="5.62184">
        <ele>545</ele>
        <time>2019-03-23T16:28:48Z</time>
      </trkpt>
      <trkpt lat="45.37849" lon="5.6223">
        <ele>543</ele>
        <time>2019-03-23T16:28:58Z</time>
      </trkpt>
      <trkpt lat="45.37849" lon="5.62235">
        <ele>543</ele>
        <time>2019-03-23T16:28:59Z</time>
      </trkpt>
      <trkpt lat="45.37849" lon="5.62275">
        <ele>540</ele>
        <time>2019-03-23T16:29:09Z</time>
      </trkpt>
      <trkpt lat="45.37857" lon="5.62293">
        <ele>537</ele>
        <time>2019-03-23T16:29:14Z</time>
      </trkpt>
      <trkpt lat="45.37865" lon="5.62296">
        <ele>535</ele>
        <time>2019-03-23T16:29:17Z</time>
      </trkpt>
      <trkpt lat="45.3787" lon="5.62314">
        <ele>530</ele>
        <time>2019-03-23T16:29:21Z</time>
      </trkpt>
      <trkpt lat="45.37872" lon="5.62329">
        <ele>529</ele>
        <time>2019-03-23T16:29:24Z</time>
      </trkpt>
      <trkpt lat="45.37873" lon="5.62333">
        <ele>528</ele>
        <time>2019-03-23T16:29:25Z</time>
      </trkpt>
      <trkpt lat="45.37878" lon="5.62351">
        <ele>528</ele>
        <time>2019-03-23T16:29:29Z</time>
      </trkpt>
      <trkpt lat="45.3789" lon="5.6241">
        <ele>526</ele>
        <time>2019-03-23T16:29:40Z</time>
      </trkpt>
      <trkpt lat="45.37898" lon="5.62427">
        <ele>522</ele>
        <time>2019-03-23T16:29:43Z</time>
      </trkpt>
      <trkpt lat="45.37904" lon="5.62444">
        <ele>519</ele>
        <time>2019-03-23T16:29:46Z</time>
      </trkpt>
      <trkpt lat="45.37909" lon="5.62464">
        <ele>515</ele>
        <time>2019-03-23T16:29:49Z</time>
      </trkpt>
      <trkpt lat="45.37915" lon="5.62495">
        <ele>511</ele>
        <time>2019-03-23T16:29:55Z</time>
      </trkpt>
      <trkpt lat="45.37917" lon="5.625">
        <ele>511</ele>
        <time>2019-03-23T16:29:56Z</time>
      </trkpt>
      <trkpt lat="45.37921" lon="5.62525">
        <ele>510</ele>
        <time>2019-03-23T16:30:00Z</time>
      </trkpt>
      <trkpt lat="45.37924" lon="5.62544">
        <ele>509</ele>
        <time>2019-03-23T16:30:03Z</time>
      </trkpt>
      <trkpt lat="45.37926" lon="5.62591">
        <ele>506</ele>
        <time>2019-03-23T16:30:11Z</time>
      </trkpt>
      <trkpt lat="45.37927" lon="5.62605">
        <ele>505</ele>
        <time>2019-03-23T16:30:22Z</time>
      </trkpt>
      <trkpt lat="45.37924" lon="5.62622">
        <ele>504</ele>
        <time>2019-03-23T16:30:36Z</time>
      </trkpt>
      <trkpt lat="45.37922" lon="5.62626">
        <ele>504</ele>
        <time>2019-03-23T16:31:00Z</time>
      </trkpt>
      <trkpt lat="45.37922" lon="5.62628">
        <ele>504</ele>
        <time>2019-03-23T16:31:19Z</time>
      </trkpt>
      <trkpt lat="45.37923" lon="5.6263">
        <ele>504</ele>
        <time>2019-03-23T16:32:23Z</time>
      </trkpt>
      <trkpt lat="45.37915" lon="5.62651">
        <ele>504</ele>
        <time>2019-03-23T16:32:31Z</time>
      </trkpt>
      <trkpt lat="45.37907" lon="5.62668">
        <ele>504</ele>
        <time>2019-03-23T16:32:46Z</time>
      </trkpt>
      <trkpt lat="45.37906" lon="5.6268">
        <ele>503</ele>
        <time>2019-03-23T16:33:09Z</time>
      </trkpt>
      <trkpt lat="45.37898" lon="5.62694">
        <ele>503</ele>
        <time>2019-03-23T16:33:25Z</time>
      </trkpt>
      <trkpt lat="45.37895" lon="5.62704">
        <ele>502</ele>
        <time>2019-03-23T16:33:41Z</time>
      </trkpt>
      <trkpt lat="45.37894" lon="5.62705">
        <ele>502</ele>
        <time>2019-03-23T16:33:44Z</time>
      </trkpt>
      <trkpt lat="45.37888" lon="5.6271">
        <ele>501</ele>
        <time>2019-03-23T16:33:49Z</time>
      </trkpt>
      <trkpt lat="45.37872" lon="5.62728">
        <ele>498</ele>
        <time>2019-03-23T16:34:00Z</time>
      </trkpt>
      <trkpt lat="45.37869" lon="5.62732">
        <ele>497</ele>
        <time>2019-03-23T16:34:20Z</time>
      </trkpt>
      <trkpt lat="45.37863" lon="5.62738">
        <ele>496</ele>
        <time>2019-03-23T16:34:35Z</time>
      </trkpt>
      <trkpt lat="45.37861" lon="5.62745">
        <ele>496</ele>
        <time>2019-03-23T16:35:00Z</time>
      </trkpt>
      <trkpt lat="45.37857" lon="5.62749">
        <ele>495</ele>
        <time>2019-03-23T16:35:22Z</time>
      </trkpt>
      <trkpt lat="45.3785" lon="5.62752">
        <ele>495</ele>
        <time>2019-03-23T16:35:40Z</time>
      </trkpt>
      <trkpt lat="45.37847" lon="5.62757">
        <ele>495</ele>
        <time>2019-03-23T16:35:48Z</time>
      </trkpt>
      <trkpt lat="45.37836" lon="5.62765">
        <ele>491</ele>
        <time>2019-03-23T16:35:57Z</time>
      </trkpt>
      <trkpt lat="45.37826" lon="5.62774">
        <ele>489</ele>
        <time>2019-03-23T16:36:09Z</time>
      </trkpt>
      <trkpt lat="45.37823" lon="5.62771">
        <ele>489</ele>
        <time>2019-03-23T16:36:35Z</time>
      </trkpt>
      <trkpt lat="45.37818" lon="5.62775">
        <ele>489</ele>
        <time>2019-03-23T16:37:00Z</time>
      </trkpt>
      <trkpt lat="45.37816" lon="5.62776">
        <ele>489</ele>
        <time>2019-03-23T16:37:10Z</time>
      </trkpt>
      <trkpt lat="45.3779" lon="5.6278">
        <ele>486</ele>
        <time>2019-03-23T16:37:20Z</time>
      </trkpt>
      <trkpt lat="45.37772" lon="5.62783">
        <ele>482</ele>
        <time>2019-03-23T16:37:25Z</time>
      </trkpt>
      <trkpt lat="45.37761" lon="5.62789">
        <ele>479</ele>
        <time>2019-03-23T16:37:28Z</time>
      </trkpt>
      <trkpt lat="45.37754" lon="5.62802">
        <ele>475</ele>
        <time>2019-03-23T16:37:31Z</time>
      </trkpt>
      <trkpt lat="45.37753" lon="5.62808">
        <ele>474</ele>
        <time>2019-03-23T16:37:32Z</time>
      </trkpt>
      <trkpt lat="45.37745" lon="5.62824">
        <ele>470</ele>
        <time>2019-03-23T16:37:36Z</time>
      </trkpt>
      <trkpt lat="45.37734" lon="5.62834">
        <ele>466</ele>
        <time>2019-03-23T16:37:40Z</time>
      </trkpt>
      <trkpt lat="45.37724" lon="5.62833">
        <ele>464</ele>
        <time>2019-03-23T16:37:42Z</time>
      </trkpt>
      <trkpt lat="45.37718" lon="5.62832">
        <ele>463</ele>
        <time>2019-03-23T16:37:43Z</time>
      </trkpt>
      <trkpt lat="45.37714" lon="5.62831">
        <ele>462</ele>
        <time>2019-03-23T16:37:44Z</time>
      </trkpt>
      <trkpt lat="45.3771" lon="5.62829">
        <ele>462</ele>
        <time>2019-03-23T16:37:45Z</time>
      </trkpt>
      <trkpt lat="45.37707" lon="5.62828">
        <ele>462</ele>
        <time>2019-03-23T16:37:46Z</time>
      </trkpt>
      <trkpt lat="45.37704" lon="5.62827">
        <ele>462</ele>
        <time>2019-03-23T16:37:47Z</time>
      </trkpt>
      <trkpt lat="45.37702" lon="5.62827">
        <ele>462</ele>
        <time>2019-03-23T16:37:48Z</time>
      </trkpt>
      <trkpt lat="45.37699" lon="5.62827">
        <ele>462</ele>
        <time>2019-03-23T16:37:49Z</time>
      </trkpt>
      <trkpt lat="45.37674" lon="5.62815">
        <ele>465</ele>
        <time>2019-03-23T16:38:02Z</time>
      </trkpt>
      <trkpt lat="45.37654" lon="5.62799">
        <ele>468</ele>
        <time>2019-03-23T16:38:15Z</time>
      </trkpt>
      <trkpt lat="45.37635" lon="5.62773">
        <ele>471</ele>
        <time>2019-03-23T16:38:30Z</time>
      </trkpt>
      <trkpt lat="45.37607" lon="5.62735">
        <ele>473</ele>
        <time>2019-03-23T16:38:49Z</time>
      </trkpt>
      <trkpt lat="45.37569" lon="5.62692">
        <ele>475</ele>
        <time>2019-03-23T16:39:08Z</time>
      </trkpt>
      <trkpt lat="45.37536" lon="5.62631">
        <ele>477</ele>
        <time>2019-03-23T16:39:28Z</time>
      </trkpt>
      <trkpt lat="45.37512" lon="5.62588">
        <ele>478</ele>
        <time>2019-03-23T16:39:43Z</time>
      </trkpt>
      <trkpt lat="45.37494" lon="5.62556">
        <ele>480</ele>
        <time>2019-03-23T16:39:56Z</time>
      </trkpt>
      <trkpt lat="45.37493" lon="5.62553">
        <ele>480</ele>
        <time>2019-03-23T16:40:02Z</time>
      </trkpt>
      <trkpt lat="45.37492" lon="5.62552">
        <ele>480</ele>
        <time>2019-03-23T16:40:03Z</time>
      </trkpt>
      <trkpt lat="45.37468" lon="5.62573">
        <ele>478</ele>
        <time>2019-03-23T16:40:13Z</time>
      </trkpt>
      <trkpt lat="45.37457" lon="5.62587">
        <ele>476</ele>
        <time>2019-03-23T16:40:17Z</time>
      </trkpt>
      <trkpt lat="45.37453" lon="5.62587">
        <ele>476</ele>
        <time>2019-03-23T16:40:18Z</time>
      </trkpt>
      <trkpt lat="45.3745" lon="5.62585">
        <ele>476</ele>
        <time>2019-03-23T16:40:19Z</time>
      </trkpt>
      <trkpt lat="45.37447" lon="5.62584">
        <ele>476</ele>
        <time>2019-03-23T16:40:20Z</time>
      </trkpt>
      <trkpt lat="45.37444" lon="5.62582">
        <ele>475</ele>
        <time>2019-03-23T16:40:21Z</time>
      </trkpt>
      <trkpt lat="45.37441" lon="5.62579">
        <ele>475</ele>
        <time>2019-03-23T16:40:22Z</time>
      </trkpt>
      <trkpt lat="45.37394" lon="5.62532">
        <ele>476</ele>
        <time>2019-03-23T16:40:39Z</time>
      </trkpt>
      <trkpt lat="45.37352" lon="5.62487">
        <ele>476</ele>
        <time>2019-03-23T16:40:54Z</time>
      </trkpt>
      <trkpt lat="45.37339" lon="5.62442">
        <ele>478</ele>
        <time>2019-03-23T16:41:06Z</time>
      </trkpt>
      <trkpt lat="45.37317" lon="5.62377">
        <ele>480</ele>
        <time>2019-03-23T16:41:22Z</time>
      </trkpt>
      <trkpt lat="45.37297" lon="5.6233">
        <ele>479</ele>
        <time>2019-03-23T16:41:31Z</time>
      </trkpt>
      <trkpt lat="45.37294" lon="5.62325">
        <ele>478</ele>
        <time>2019-03-23T16:41:32Z</time>
      </trkpt>
      <trkpt lat="45.3729" lon="5.6232">
        <ele>478</ele>
        <time>2019-03-23T16:41:33Z</time>
      </trkpt>
      <trkpt lat="45.37286" lon="5.62316">
        <ele>478</ele>
        <time>2019-03-23T16:41:34Z</time>
      </trkpt>
      <trkpt lat="45.37282" lon="5.62313">
        <ele>478</ele>
        <time>2019-03-23T16:41:35Z</time>
      </trkpt>
      <trkpt lat="45.37233" lon="5.62266">
        <ele>478</ele>
        <time>2019-03-23T16:41:50Z</time>
      </trkpt>
      <trkpt lat="45.37199" lon="5.62245">
        <ele>477</ele>
        <time>2019-03-23T16:42:03Z</time>
      </trkpt>
      <trkpt lat="45.37197" lon="5.62249">
        <ele>476</ele>
        <time>2019-03-23T16:42:12Z</time>
      </trkpt>
      <trkpt lat="45.37197" lon="5.6225">
        <ele>476</ele>
        <time>2019-03-23T16:42:30Z</time>
      </trkpt>
      <trkpt lat="45.37191" lon="5.62259">
        <ele>476</ele>
        <time>2019-03-23T16:42:52Z</time>
      </trkpt>
      <trkpt lat="45.37179" lon="5.62281">
        <ele>475</ele>
        <time>2019-03-23T16:43:00Z</time>
      </trkpt>
      <trkpt lat="45.37156" lon="5.62296">
        <ele>474</ele>
        <time>2019-03-23T16:43:05Z</time>
      </trkpt>
      <trkpt lat="45.37131" lon="5.62315">
        <ele>470</ele>
        <time>2019-03-23T16:43:10Z</time>
      </trkpt>
      <trkpt lat="45.37117" lon="5.62329">
        <ele>466</ele>
        <time>2019-03-23T16:43:13Z</time>
      </trkpt>
      <trkpt lat="45.37113" lon="5.62333">
        <ele>466</ele>
        <time>2019-03-23T16:43:14Z</time>
      </trkpt>
      <trkpt lat="45.37094" lon="5.6235">
        <ele>461</ele>
        <time>2019-03-23T16:43:18Z</time>
      </trkpt>
      <trkpt lat="45.37088" lon="5.62355">
        <ele>460</ele>
        <time>2019-03-23T16:43:19Z</time>
      </trkpt>
      <trkpt lat="45.37063" lon="5.62376">
        <ele>456</ele>
        <time>2019-03-23T16:43:24Z</time>
      </trkpt>
      <trkpt lat="45.3703" lon="5.62431">
        <ele>451</ele>
        <time>2019-03-23T16:43:32Z</time>
      </trkpt>
      <trkpt lat="45.37009" lon="5.62482">
        <ele>449</ele>
        <time>2019-03-23T16:43:38Z</time>
      </trkpt>
      <trkpt lat="45.36997" lon="5.6252">
        <ele>447</ele>
        <time>2019-03-23T16:43:42Z</time>
      </trkpt>
      <trkpt lat="45.36983" lon="5.62566">
        <ele>446</ele>
        <time>2019-03-23T16:43:47Z</time>
      </trkpt>
      <trkpt lat="45.36965" lon="5.62595">
        <ele>443</ele>
        <time>2019-03-23T16:43:52Z</time>
      </trkpt>
      <trkpt lat="45.36941" lon="5.62628">
        <ele>439</ele>
        <time>2019-03-23T16:43:58Z</time>
      </trkpt>
      <trkpt lat="45.36926" lon="5.62637">
        <ele>437</ele>
        <time>2019-03-23T16:44:03Z</time>
      </trkpt>
      <trkpt lat="45.36919" lon="5.62637">
        <ele>435</ele>
        <time>2019-03-23T16:44:06Z</time>
      </trkpt>
      <trkpt lat="45.36906" lon="5.62641">
        <ele>433</ele>
        <time>2019-03-23T16:44:10Z</time>
      </trkpt>
      <trkpt lat="45.36889" lon="5.62665">
        <ele>429</ele>
        <time>2019-03-23T16:44:17Z</time>
      </trkpt>
      <trkpt lat="45.36883" lon="5.62691">
        <ele>426</ele>
        <time>2019-03-23T16:44:22Z</time>
      </trkpt>
      <trkpt lat="45.36883" lon="5.62704">
        <ele>425</ele>
        <time>2019-03-23T16:44:24Z</time>
      </trkpt>
      <trkpt lat="45.36884" lon="5.62722">
        <ele>424</ele>
        <time>2019-03-23T16:44:26Z</time>
      </trkpt>
      <trkpt lat="45.36891" lon="5.62776">
        <ele>420</ele>
        <time>2019-03-23T16:44:31Z</time>
      </trkpt>
      <trkpt lat="45.3689" lon="5.62818">
        <ele>419</ele>
        <time>2019-03-23T16:44:36Z</time>
      </trkpt>
      <trkpt lat="45.36867" lon="5.62837">
        <ele>415</ele>
        <time>2019-03-23T16:44:43Z</time>
      </trkpt>
      <trkpt lat="45.36859" lon="5.62831">
        <ele>413</ele>
        <time>2019-03-23T16:44:45Z</time>
      </trkpt>
      <trkpt lat="45.3684" lon="5.62822">
        <ele>410</ele>
        <time>2019-03-23T16:44:50Z</time>
      </trkpt>
      <trkpt lat="45.36824" lon="5.62831">
        <ele>407</ele>
        <time>2019-03-23T16:44:53Z</time>
      </trkpt>
      <trkpt lat="45.36819" lon="5.62836">
        <ele>406</ele>
        <time>2019-03-23T16:44:54Z</time>
      </trkpt>
      <trkpt lat="45.36798" lon="5.6286">
        <ele>402</ele>
        <time>2019-03-23T16:44:58Z</time>
      </trkpt>
      <trkpt lat="45.36791" lon="5.62864">
        <ele>401</ele>
        <time>2019-03-23T16:44:59Z</time>
      </trkpt>
      <trkpt lat="45.3677" lon="5.62875">
        <ele>399</ele>
        <time>2019-03-23T16:45:03Z</time>
      </trkpt>
      <trkpt lat="45.36764" lon="5.62878">
        <ele>399</ele>
        <time>2019-03-23T16:45:11Z</time>
      </trkpt>
      <trkpt lat="45.36764" lon="5.62876">
        <ele>399</ele>
        <time>2019-03-23T16:45:36Z</time>
      </trkpt>
      <trkpt lat="45.36763" lon="5.62876">
        <ele>399</ele>
        <time>2019-03-23T16:46:03Z</time>
      </trkpt>
      <trkpt lat="45.36762" lon="5.62875">
        <ele>399</ele>
        <time>2019-03-23T16:46:27Z</time>
      </trkpt>
      <trkpt lat="45.36761" lon="5.62874">
        <ele>399</ele>
        <time>2019-03-23T16:46:53Z</time>
      </trkpt>
      <trkpt lat="45.36761" lon="5.62869">
        <ele>398</ele>
        <time>2019-03-23T16:47:15Z</time>
      </trkpt>
      <trkpt lat="45.36758" lon="5.62869">
        <ele>399</ele>
        <time>2019-03-23T16:48:09Z</time>
      </trkpt>
      <trkpt lat="45.36757" lon="5.62867">
        <ele>399</ele>
        <time>2019-03-23T16:48:23Z</time>
      </trkpt>
      <trkpt lat="45.36753" lon="5.62853">
        <ele>399</ele>
        <time>2019-03-23T16:48:28Z</time>
      </trkpt>
      <trkpt lat="45.36737" lon="5.62799">
        <ele>399</ele>
        <time>2019-03-23T16:48:42Z</time>
      </trkpt>
      <trkpt lat="45.36716" lon="5.62743">
        <ele>398</ele>
        <time>2019-03-23T16:48:58Z</time>
      </trkpt>
      <trkpt lat="45.36703" lon="5.627">
        <ele>399</ele>
        <time>2019-03-23T16:49:14Z</time>
      </trkpt>
      <trkpt lat="45.36697" lon="5.62639">
        <ele>400</ele>
        <time>2019-03-23T16:49:27Z</time>
      </trkpt>
      <trkpt lat="45.36688" lon="5.62543">
        <ele>400</ele>
        <time>2019-03-23T16:49:46Z</time>
      </trkpt>
      <trkpt lat="45.36683" lon="5.62484">
        <ele>401</ele>
        <time>2019-03-23T16:49:58Z</time>
      </trkpt>
      <trkpt lat="45.36669" lon="5.62398">
        <ele>402</ele>
        <time>2019-03-23T16:50:15Z</time>
      </trkpt>
      <trkpt lat="45.36636" lon="5.62292">
        <ele>403</ele>
        <time>2019-03-23T16:50:35Z</time>
      </trkpt>
      <trkpt lat="45.36603" lon="5.62216">
        <ele>404</ele>
        <time>2019-03-23T16:50:52Z</time>
      </trkpt>
      <trkpt lat="45.36561" lon="5.62165">
        <ele>405</ele>
        <time>2019-03-23T16:51:07Z</time>
      </trkpt>
      <trkpt lat="45.3652" lon="5.62114">
        <ele>406</ele>
        <time>2019-03-23T16:51:23Z</time>
      </trkpt>
      <trkpt lat="45.36511" lon="5.62104">
        <ele>406</ele>
        <time>2019-03-23T16:51:27Z</time>
      </trkpt>
      <trkpt lat="45.36508" lon="5.62104">
        <ele>406</ele>
        <time>2019-03-23T16:51:28Z</time>
      </trkpt>
      <trkpt lat="45.36488" lon="5.62103">
        <ele>405</ele>
        <time>2019-03-23T16:51:39Z</time>
      </trkpt>
      <trkpt lat="45.36482" lon="5.62095">
        <ele>402</ele>
        <time>2019-03-23T16:51:55Z</time>
      </trkpt>
      <trkpt lat="45.36478" lon="5.6209">
        <ele>399</ele>
        <time>2019-03-23T16:52:04Z</time>
      </trkpt>
      <trkpt lat="45.36476" lon="5.62091">
        <ele>398</ele>
        <time>2019-03-23T16:52:29Z</time>
      </trkpt>
      <trkpt lat="45.36477" lon="5.62091">
        <ele>398</ele>
        <time>2019-03-23T16:52:57Z</time>
      </trkpt>
      <trkpt lat="45.36476" lon="5.62092">
        <ele>398</ele>
        <time>2019-03-23T16:53:00Z</time>
      </trkpt>
      <trkpt lat="45.3644" lon="5.62093">
        <ele>397</ele>
        <time>2019-03-23T16:53:10Z</time>
      </trkpt>
      <trkpt lat="45.36399" lon="5.62091">
        <ele>393</ele>
        <time>2019-03-23T16:53:16Z</time>
      </trkpt>
      <trkpt lat="45.36371" lon="5.62089">
        <ele>389</ele>
        <time>2019-03-23T16:53:20Z</time>
      </trkpt>
      <trkpt lat="45.36358" lon="5.62062">
        <ele>385</ele>
        <time>2019-03-23T16:53:24Z</time>
      </trkpt>
      <trkpt lat="45.36354" lon="5.62022">
        <ele>382</ele>
        <time>2019-03-23T16:53:28Z</time>
      </trkpt>
      <trkpt lat="45.36354" lon="5.62012">
        <ele>381</ele>
        <time>2019-03-23T16:53:29Z</time>
      </trkpt>
      <trkpt lat="45.36354" lon="5.6198">
        <ele>379</ele>
        <time>2019-03-23T16:53:32Z</time>
      </trkpt>
      <trkpt lat="45.36351" lon="5.61956">
        <ele>378</ele>
        <time>2019-03-23T16:53:34Z</time>
      </trkpt>
      <trkpt lat="45.36332" lon="5.61913">
        <ele>374</ele>
        <time>2019-03-23T16:53:39Z</time>
      </trkpt>
      <trkpt lat="45.36318" lon="5.61904">
        <ele>373</ele>
        <time>2019-03-23T16:53:41Z</time>
      </trkpt>
      <trkpt lat="45.36297" lon="5.61893">
        <ele>371</ele>
        <time>2019-03-23T16:53:44Z</time>
      </trkpt>
      <trkpt lat="45.36273" lon="5.61865">
        <ele>367</ele>
        <time>2019-03-23T16:53:48Z</time>
      </trkpt>
      <trkpt lat="45.36251" lon="5.61849">
        <ele>363</ele>
        <time>2019-03-23T16:53:52Z</time>
      </trkpt>
      <trkpt lat="45.3622" lon="5.61836">
        <ele>359</ele>
        <time>2019-03-23T16:53:59Z</time>
      </trkpt>
      <trkpt lat="45.36198" lon="5.6183">
        <ele>357</ele>
        <time>2019-03-23T16:54:05Z</time>
      </trkpt>
      <trkpt lat="45.36161" lon="5.61829">
        <ele>354</ele>
        <time>2019-03-23T16:54:16Z</time>
      </trkpt>
      <trkpt lat="45.36117" lon="5.61861">
        <ele>352</ele>
        <time>2019-03-23T16:54:30Z</time>
      </trkpt>
      <trkpt lat="45.36105" lon="5.61871">
        <ele>352</ele>
        <time>2019-03-23T16:54:33Z</time>
      </trkpt>
      <trkpt lat="45.36036" lon="5.61897">
        <ele>349</ele>
        <time>2019-03-23T16:54:44Z</time>
      </trkpt>
      <trkpt lat="45.35952" lon="5.61918">
        <ele>346</ele>
        <time>2019-03-23T16:54:56Z</time>
      </trkpt>
      <trkpt lat="45.35856" lon="5.61939">
        <ele>343</ele>
        <time>2019-03-23T16:55:11Z</time>
      </trkpt>
      <trkpt lat="45.3583" lon="5.6195">
        <ele>341</ele>
        <time>2019-03-23T16:55:15Z</time>
      </trkpt>
      <trkpt lat="45.35795" lon="5.61967">
        <ele>340</ele>
        <time>2019-03-23T16:55:21Z</time>
      </trkpt>
      <trkpt lat="45.35771" lon="5.61962">
        <ele>339</ele>
        <time>2019-03-23T16:55:25Z</time>
      </trkpt>
      <trkpt lat="45.35743" lon="5.61942">
        <ele>338</ele>
        <time>2019-03-23T16:55:30Z</time>
      </trkpt>
      <trkpt lat="45.35729" lon="5.61929">
        <ele>338</ele>
        <time>2019-03-23T16:55:33Z</time>
      </trkpt>
      <trkpt lat="45.357" lon="5.61848">
        <ele>340</ele>
        <time>2019-03-23T16:55:49Z</time>
      </trkpt>
      <trkpt lat="45.35722" lon="5.61837">
        <ele>324.317047</ele>
        <time>2019-03-23T16:55:51Z</time>
      </trkpt>
      <trkpt lat="45.35734" lon="5.61818">
        <ele>322.90686</ele>
        <time>2019-03-23T16:56:46Z</time>
      </trkpt>
      <trkpt lat="45.35748" lon="5.61803">
        <ele>321.937134</ele>
        <time>2019-03-23T16:56:47Z</time>
      </trkpt>
      <trkpt lat="45.35751" lon="5.61784">
        <ele>320.875061</ele>
        <time>2019-03-23T16:56:48Z</time>
      </trkpt>
      <trkpt lat="45.35744" lon="5.61771">
        <ele>320.095001</ele>
        <time>2019-03-23T16:57:02Z</time>
      </trkpt>
      <trkpt lat="45.35763" lon="5.6167">
        <ele>320.121246</ele>
        <time>2019-03-23T16:57:13Z</time>
      </trkpt>
      <trkpt lat="45.3568" lon="5.61585">
        <ele>319.157501</ele>
        <time>2019-03-23T16:57:21Z</time>
      </trkpt>
      <trkpt lat="45.3557" lon="5.61505">
        <ele>319.343384</ele>
        <time>2019-03-23T16:57:22Z</time>
      </trkpt>
      <trkpt lat="45.35517" lon="5.61473">
        <ele>317.13269</ele>
        <time>2019-03-23T16:58:01Z</time>
      </trkpt>
      <trkpt lat="45.35496" lon="5.61399">
        <ele>308.00119</ele>
        <time>2019-03-23T16:58:05Z</time>
      </trkpt>
      <trkpt lat="45.35491" lon="5.61352">
        <ele>322</ele>
        <time>2019-03-23T16:58:10Z</time>
      </trkpt>
      <trkpt lat="45.35496" lon="5.61322">
        <ele>321</ele>
        <time>2019-03-23T16:58:13Z</time>
      </trkpt>
      <trkpt lat="45.35494" lon="5.61313">
        <ele>320</ele>
        <time>2019-03-23T16:58:14Z</time>
      </trkpt>
      <trkpt lat="45.3549" lon="5.61305">
        <ele>320</ele>
        <time>2019-03-23T16:58:15Z</time>
      </trkpt>
      <trkpt lat="45.35484" lon="5.613">
        <ele>320</ele>
        <time>2019-03-23T16:58:16Z</time>
      </trkpt>
      <trkpt lat="45.35478" lon="5.61294">
        <ele>319</ele>
        <time>2019-03-23T16:58:17Z</time>
      </trkpt>
      <trkpt lat="45.35468" lon="5.61284">
        <ele>319</ele>
        <time>2019-03-23T16:58:19Z</time>
      </trkpt>
      <trkpt lat="45.35463" lon="5.61278">
        <ele>319</ele>
        <time>2019-03-23T16:58:20Z</time>
      </trkpt>
      <trkpt lat="45.35458" lon="5.61273">
        <ele>319</ele>
        <time>2019-03-23T16:58:21Z</time>
      </trkpt>
      <trkpt lat="45.35448" lon="5.61262">
        <ele>319</ele>
        <time>2019-03-23T16:58:23Z</time>
      </trkpt>
      <trkpt lat="45.35445" lon="5.61255">
        <ele>319</ele>
        <time>2019-03-23T16:58:24Z</time>
      </trkpt>
      <trkpt lat="45.35424" lon="5.61201">
        <ele>317</ele>
        <time>2019-03-23T16:58:31Z</time>
      </trkpt>
      <trkpt lat="45.35422" lon="5.61193">
        <ele>317</ele>
        <time>2019-03-23T16:58:32Z</time>
      </trkpt>
      <trkpt lat="45.35421" lon="5.61186">
        <ele>317</ele>
        <time>2019-03-23T16:58:33Z</time>
      </trkpt>
      <trkpt lat="45.35419" lon="5.61172">
        <ele>317</ele>
        <time>2019-03-23T16:58:35Z</time>
      </trkpt>
      <trkpt lat="45.35418" lon="5.61166">
        <ele>317</ele>
        <time>2019-03-23T16:58:36Z</time>
      </trkpt>
      <trkpt lat="45.35418" lon="5.61159">
        <ele>317</ele>
        <time>2019-03-23T16:58:37Z</time>
      </trkpt>
      <trkpt lat="45.35418" lon="5.61153">
        <ele>316</ele>
        <time>2019-03-23T16:58:38Z</time>
      </trkpt>
      <trkpt lat="45.35417" lon="5.61146">
        <ele>316</ele>
        <time>2019-03-23T16:58:39Z</time>
      </trkpt>
      <trkpt lat="45.35415" lon="5.6114">
        <ele>316</ele>
        <time>2019-03-23T16:58:40Z</time>
      </trkpt>
      <trkpt lat="45.35412" lon="5.61134">
        <ele>316</ele>
        <time>2019-03-23T16:58:41Z</time>
      </trkpt>
      <trkpt lat="45.35409" lon="5.6113">
        <ele>316</ele>
        <time>2019-03-23T16:58:42Z</time>
      </trkpt>
      <trkpt lat="45.35407" lon="5.61125">
        <ele>315</ele>
        <time>2019-03-23T16:58:43Z</time>
      </trkpt>
      <trkpt lat="45.35405" lon="5.6112">
        <ele>315</ele>
        <time>2019-03-23T16:58:44Z</time>
      </trkpt>
      <trkpt lat="45.3539" lon="5.61081">
        <ele>316</ele>
        <time>2019-03-23T16:58:57Z</time>
      </trkpt>
      <trkpt lat="45.3539" lon="5.61081">
        <ele>315</ele>
        <time>2019-03-23T16:59:21Z</time>
      </trkpt>
      <trkpt lat="45.35389" lon="5.61083">
        <ele>315</ele>
        <time>2019-03-23T17:00:02Z</time>
      </trkpt>
      <trkpt lat="45.3539" lon="5.61083">
        <ele>315</ele>
        <time>2019-03-23T17:00:32Z</time>
      </trkpt>
    </trkseg>
  </trk>
</gpx>